Darstellungsparameter: Aktuell verwendete Einstellungen:
Skalierung der Graphiken ... ?
xyx+y,   Skalierungsfaktor:      Skalierung: Modus: x, Faktor: 1
Darstellungszeitraum ... ?
Vom - - bis: - -   Zeitraum: 09.04.2014 - 22.04.2014
Min/Max/Avg-Anzeige ... ?
Zeige MMA aktuell
Zeige MMA Monat
Zeige MMA alles
Zeige --A aktuell
Zeige --A Monat
Zeige --A alles
Keine MMA-Anzeige
MMA:
Average (ber die Originaldaten)
MMA-Basis: 09.04.2014 - 22.04.2014
Quicknavigation für Darstellung... ?
Tage:      1T, 2T, 3T, 5T -1T -2T -3T -5T +1T +2T +3T +5T
Wochen: 1W, 2W, 3W -1W -2W -3W +1W +2W +3W
Monate: 1M, 3M, 6M -1M -3M -6M +1M +3M +6M
Jahre:    1J, 3J, 5J, 10J -1J -3J -5J -10J +1J +3J +5J +10J
Nutze für die Darstellung ... ?
Originaldaten oder Mittelwerte auf ...
Stundenbasis Tagesbasis Wochenbasis
Monatsbasis Jahresbasis      Datenbasis: Original-Daten
Darstellen als:
Statistik (Auto) Statistik J:M      Darstellung:
Zur Graphik,    zurück zur Übersicht aller Sensoren.
 
Tabellarische Datenbersicht: ?
 
Sensor: Nr:Datum:Temp:Abs-Feuchte:Windchill:Wind:
Aussen-T/F 1 09-04-2014 00:45:00 6.1 C 6.58 g/m*3 6.1 C 3.2 km/h
2 09-04-2014 00:50:00 6.1 C 6.65 g/m*3 6.1 C 4.8 km/h
3 09-04-2014 00:55:00 6 C 6.68 g/m*3 6 C 0 km/h
4 09-04-2014 01:00:00 6 C 6.68 g/m*3 6 C 3.2 km/h
5 09-04-2014 01:05:00 6 C 6.68 g/m*3 3.06 C 14.5 km/h
6 09-04-2014 01:10:00 6 C 6.68 g/m*3 4.28 C 8.1 km/h
7 09-04-2014 01:15:00 6.1 C 6.72 g/m*3 6.1 C 1.6 km/h
8 09-04-2014 01:20:00 6 C 6.68 g/m*3 6 C 4.8 km/h
9 09-04-2014 01:25:00 5.8 C 6.59 g/m*3 5.8 C 4.8 km/h
10 09-04-2014 01:30:00 5.6 C 6.5 g/m*3 5.6 C 4.8 km/h
11 09-04-2014 01:35:00 5.4 C 6.49 g/m*3 5.4 C 4.8 km/h
12 09-04-2014 01:40:00 5.3 C 6.45 g/m*3 5.3 C 4.8 km/h
13 09-04-2014 01:45:00 5.2 C 6.4 g/m*3 5.2 C 4.8 km/h
14 09-04-2014 01:50:00 5.2 C 6.47 g/m*3 5.2 C 4.8 km/h
15 09-04-2014 01:55:00 5.3 C 6.52 g/m*3 5.3 C 1.6 km/h
16 09-04-2014 02:00:00 5.4 C 6.56 g/m*3 5.4 C 1.6 km/h
17 09-04-2014 02:05:00 5.5 C 6.67 g/m*3 4.17 C 6.4 km/h
18 09-04-2014 02:10:00 5.6 C 6.72 g/m*3 5.6 C 1.6 km/h
19 09-04-2014 02:15:00 5.6 C 6.72 g/m*3 4.29 C 6.4 km/h
20 09-04-2014 02:20:00 5.6 C 6.65 g/m*3 5.6 C 3.2 km/h
21 09-04-2014 02:25:00 5.6 C 6.65 g/m*3 5.6 C 3.2 km/h
22 09-04-2014 02:30:00 5.5 C 6.53 g/m*3 5.5 C 4.8 km/h
23 09-04-2014 02:35:00 5.4 C 6.49 g/m*3 5.4 C 3.2 km/h
24 09-04-2014 02:40:00 5.3 C 6.45 g/m*3 5.3 C 3.2 km/h
25 09-04-2014 02:45:00 5.3 C 6.45 g/m*3 5.3 C 4.8 km/h
Sensor: Nr:Datum:Temp:Abs-Feuchte:Windchill:Wind:
Aussen-T/F 26 09-04-2014 02:50:00 5.2 C 6.4 g/m*3 5.2 C 3.2 km/h
27 09-04-2014 02:55:00 5.1 C 6.36 g/m*3 5.1 C 1.6 km/h
28 09-04-2014 03:00:00 4.9 C 6.35 g/m*3 4.9 C 1.6 km/h
29 09-04-2014 03:05:00 4.9 C 6.35 g/m*3 4.9 C 3.2 km/h
30 09-04-2014 03:10:00 4.9 C 6.35 g/m*3 4.9 C 1.6 km/h
31 09-04-2014 03:15:00 5 C 6.39 g/m*3 5 C 3.2 km/h
32 09-04-2014 03:20:00 5 C 6.39 g/m*3 5 C 3.2 km/h
33 09-04-2014 03:25:00 5 C 6.32 g/m*3 5 C 0 km/h
34 09-04-2014 03:30:00 4.9 C 6.28 g/m*3 4.9 C 1.6 km/h
35 09-04-2014 03:35:00 4.8 C 6.3 g/m*3 4.8 C 1.6 km/h
36 09-04-2014 03:40:00 4.8 C 6.3 g/m*3 4.8 C 4.8 km/h
37 09-04-2014 03:45:00 4.9 C 6.35 g/m*3 4.9 C 1.6 km/h
38 09-04-2014 03:50:00 4.9 C 6.35 g/m*3 4.9 C 0 km/h
39 09-04-2014 03:55:00 4.8 C 6.3 g/m*3 4.8 C 1.6 km/h
40 09-04-2014 04:00:00 4.8 C 6.3 g/m*3 4.8 C 3.2 km/h
41 09-04-2014 04:05:00 4.8 C 6.3 g/m*3 4.8 C 3.2 km/h
42 09-04-2014 04:10:00 4.8 C 6.3 g/m*3 4.8 C 1.6 km/h
43 09-04-2014 04:15:00 4.8 C 6.3 g/m*3 4.8 C 1.6 km/h
44 09-04-2014 04:20:00 4.7 C 6.26 g/m*3 4.7 C 0 km/h
45 09-04-2014 04:25:00 4.7 C 6.26 g/m*3 4.7 C 1.6 km/h
46 09-04-2014 04:30:00 4.7 C 6.26 g/m*3 4.7 C 1.6 km/h
47 09-04-2014 04:35:00 4.8 C 6.3 g/m*3 4.8 C 3.2 km/h
48 09-04-2014 04:40:00 4.9 C 6.35 g/m*3 4.9 C 4.8 km/h
49 09-04-2014 04:45:00 5.1 C 6.43 g/m*3 3.71 C 6.4 km/h
50 09-04-2014 04:50:00 5.2 C 6.4 g/m*3 5.2 C 4.8 km/h
Sensor: Nr:Datum:Temp:Abs-Feuchte:Windchill:Wind:
Aussen-T/F 51 09-04-2014 04:55:00 5.3 C 6.38 g/m*3 5.3 C 3.2 km/h
52 09-04-2014 05:00:00 5.3 C 6.38 g/m*3 5.3 C 3.2 km/h
53 09-04-2014 05:05:00 5.3 C 6.31 g/m*3 5.3 C 1.6 km/h
54 09-04-2014 05:10:00 5.3 C 6.31 g/m*3 5.3 C 4.8 km/h
55 09-04-2014 05:15:00 5.2 C 6.33 g/m*3 5.2 C 0 km/h
56 09-04-2014 05:20:00 5.2 C 6.33 g/m*3 5.2 C 1.6 km/h
57 09-04-2014 05:25:00 5.2 C 6.33 g/m*3 5.2 C 1.6 km/h
58 09-04-2014 05:30:00 5.1 C 6.29 g/m*3 5.1 C 1.6 km/h
59 09-04-2014 05:35:00 4.9 C 6.21 g/m*3 4.9 C 1.6 km/h
60 09-04-2014 05:40:00 4.9 C 6.28 g/m*3 4.9 C 0 km/h
61 09-04-2014 05:45:00 4.8 C 6.24 g/m*3 4.8 C 1.6 km/h
62 09-04-2014 05:50:00 4.8 C 6.24 g/m*3 4.8 C 1.6 km/h
63 09-04-2014 05:55:00 4.7 C 6.19 g/m*3 4.7 C 1.6 km/h
64 09-04-2014 06:00:00 4.6 C 6.15 g/m*3 4.6 C 0 km/h
65 09-04-2014 06:05:00 4.6 C 6.15 g/m*3 4.6 C 0 km/h
66 09-04-2014 06:10:00 4.5 C 6.18 g/m*3 4.5 C 0 km/h
67 09-04-2014 06:15:00 4.4 C 6.14 g/m*3 4.4 C 1.6 km/h
68 09-04-2014 06:20:00 4.3 C 6.1 g/m*3 4.3 C 1.6 km/h
69 09-04-2014 06:25:00 4.3 C 6.1 g/m*3 4.3 C 0 km/h
70 09-04-2014 06:30:00 4.3 C 6.1 g/m*3 4.3 C 0 km/h
71 09-04-2014 06:35:00 4.3 C 6.1 g/m*3 4.3 C 3.2 km/h
72 09-04-2014 06:40:00 4.3 C 6.1 g/m*3 4.3 C 3.2 km/h
73 09-04-2014 06:45:00 4.3 C 6.1 g/m*3 4.3 C 1.6 km/h
74 09-04-2014 06:50:00 4.3 C 6.1 g/m*3 4.3 C 1.6 km/h
75 09-04-2014 06:55:00 4.3 C 6.1 g/m*3 4.3 C 1.6 km/h
Sensor: Nr:Datum:Temp:Abs-Feuchte:Windchill:Wind:
Aussen-T/F 76 09-04-2014 07:00:00 4.2 C 6.06 g/m*3 4.2 C 3.2 km/h
77 09-04-2014 07:05:00 4.2 C 6.06 g/m*3 4.2 C 1.6 km/h
78 09-04-2014 07:10:00 4.2 C 6.06 g/m*3 2.17 C 8.1 km/h
79 09-04-2014 07:15:00 4.2 C 6.06 g/m*3 4.2 C 1.6 km/h
80 09-04-2014 07:55:00 4.1 C 6.02 g/m*3 4.1 C 0 km/h
81 09-04-2014 08:00:00 4.1 C 6.02 g/m*3 4.1 C 1.6 km/h
82 09-04-2014 08:05:00 4.1 C 6.08 g/m*3 4.1 C 1.6 km/h
83 09-04-2014 08:10:00 4.2 C 6.12 g/m*3 4.2 C 0 km/h
84 09-04-2014 08:15:00 4.2 C 6.12 g/m*3 4.2 C 0 km/h
85 09-04-2014 08:20:00 4.3 C 6.16 g/m*3 4.3 C 3.2 km/h
86 09-04-2014 08:25:00 4.5 C 6.24 g/m*3 4.5 C 1.6 km/h
87 09-04-2014 08:30:00 4.7 C 6.33 g/m*3 4.7 C 1.6 km/h
88 09-04-2014 08:35:00 4.8 C 6.37 g/m*3 4.8 C 4.8 km/h
89 09-04-2014 08:40:00 5 C 6.46 g/m*3 5 C 0 km/h
90 09-04-2014 08:45:00 5.1 C 6.5 g/m*3 5.1 C 1.6 km/h
91 09-04-2014 08:50:00 5.3 C 6.58 g/m*3 5.3 C 3.2 km/h
92 09-04-2014 08:55:00 5.4 C 6.63 g/m*3 4.06 C 6.4 km/h
93 09-04-2014 09:00:00 5.7 C 6.69 g/m*3 5.7 C 3.2 km/h
94 09-04-2014 09:05:00 5.9 C 6.71 g/m*3 4.63 C 6.4 km/h
95 09-04-2014 09:10:00 6.1 C 6.79 g/m*3 4.4 C 8.1 km/h
96 09-04-2014 09:15:00 6.4 C 6.78 g/m*3 4.08 C 11.3 km/h
97 09-04-2014 09:20:00 6.6 C 6.79 g/m*3 4.63 C 9.7 km/h
98 09-04-2014 09:25:00 6.7 C 6.76 g/m*3 4.75 C 9.7 km/h
99 09-04-2014 09:30:00 6.9 C 6.85 g/m*3 4.99 C 9.7 km/h
100 09-04-2014 09:35:00 7.2 C 6.91 g/m*3 5.04 C 11.3 km/h
Sensor: Nr:Datum:Temp:Abs-Feuchte:Windchill:Wind:
Aussen-T/F 101 09-04-2014 09:40:00 7.3 C 6.87 g/m*3 5.81 C 8.1 km/h
102 09-04-2014 09:45:00 7.5 C 7.04 g/m*3 5.7 C 9.7 km/h
103 09-04-2014 09:50:00 7.7 C 7.05 g/m*3 6.28 C 8.1 km/h
104 09-04-2014 09:55:00 7.8 C 7.1 g/m*3 6.4 C 8.1 km/h
105 09-04-2014 10:00:00 7.9 C 7.06 g/m*3 6.52 C 8.1 km/h
106 09-04-2014 10:05:00 8.1 C 7.16 g/m*3 6.75 C 8.1 km/h
107 09-04-2014 10:10:00 8.1 C 7.07 g/m*3 8.1 C 4.8 km/h
108 09-04-2014 10:15:00 8.1 C 7.16 g/m*3 6.13 C 11.3 km/h
109 09-04-2014 10:20:00 8.2 C 7.2 g/m*3 7.29 C 6.4 km/h
110 09-04-2014 10:25:00 8.4 C 7.3 g/m*3 8.4 C 4.8 km/h
111 09-04-2014 10:30:00 8.6 C 7.3 g/m*3 7.75 C 6.4 km/h
112 09-04-2014 10:35:00 8.7 C 7.35 g/m*3 7.46 C 8.1 km/h
113 09-04-2014 10:40:00 8.8 C 7.22 g/m*3 7.98 C 6.4 km/h
114 09-04-2014 10:45:00 9.1 C 7.28 g/m*3 7.93 C 8.1 km/h
115 09-04-2014 10:50:00 9.2 C 7.32 g/m*3 7.73 C 9.7 km/h
116 09-04-2014 10:55:00 9.3 C 7.37 g/m*3 7.85 C 9.7 km/h
117 09-04-2014 11:00:00 9.7 C 7.47 g/m*3 8.06 C 11.3 km/h
118 09-04-2014 11:05:00 9.8 C 7.33 g/m*3 9.14 C 6.4 km/h
119 09-04-2014 11:10:00 9.8 C 7.33 g/m*3 8.75 C 8.1 km/h
120 09-04-2014 11:15:00 9.8 C 7.33 g/m*3 8.75 C 8.1 km/h
121 09-04-2014 11:20:00 10 C 7.42 g/m*3 8.68 C 9.7 km/h
122 09-04-2014 11:25:00 10.2 C 7.23 g/m*3 8.66 C 11.3 km/h
123 09-04-2014 11:30:00 10.3 C 7.18 g/m*3 7.98 C 17.7 km/h
124 09-04-2014 11:35:00 10.4 C 7.32 g/m*3 8.67 C 12.9 km/h
125 09-04-2014 11:40:00 10.6 C 7.32 g/m*3 9.14 C 11.3 km/h
Sensor: Nr:Datum:Temp:Abs-Feuchte:Windchill:Wind:
Aussen-T/F 126 09-04-2014 11:45:00 10.8 C 7.31 g/m*3 9.93 C 8.1 km/h
127 09-04-2014 11:50:00 11 C 7.41 g/m*3 9.4 C 12.9 km/h
128 09-04-2014 11:55:00 11.1 C 7.35 g/m*3 11.1 C 6.4 km/h
129 09-04-2014 12:00:00 11 C 7.31 g/m*3 9.88 C 9.7 km/h
130 09-04-2014 12:05:00 11.1 C 7.25 g/m*3 11.1 C 9.7 km/h
131 09-04-2014 12:10:00 11.2 C 7.3 g/m*3 11.2 C 9.7 km/h
132 09-04-2014 12:15:00 11.2 C 7.3 g/m*3 11.2 C 12.9 km/h
133 09-04-2014 12:20:00 11.2 C 7.4 g/m*3 11.2 C 11.3 km/h
134 09-04-2014 12:25:00 11.3 C 7.34 g/m*3 11.3 C 8.1 km/h
135 09-04-2014 12:30:00 11.3 C 7.24 g/m*3 11.3 C 12.9 km/h
136 09-04-2014 12:35:00 11.4 C 7.19 g/m*3 11.4 C 12.9 km/h
137 09-04-2014 12:40:00 11.6 C 7.17 g/m*3 11.6 C 11.3 km/h
138 09-04-2014 12:45:00 11.7 C 7.11 g/m*3 11.7 C 8.1 km/h
139 09-04-2014 12:50:00 11.7 C 7.01 g/m*3 11.7 C 4.8 km/h
140 09-04-2014 12:55:00 11.8 C 7.16 g/m*3 11.8 C 4.8 km/h
141 09-04-2014 13:00:00 12 C 6.93 g/m*3 12 C 9.7 km/h
142 09-04-2014 13:05:00 12 C 6.71 g/m*3 12 C 6.4 km/h
143 09-04-2014 13:10:00 12 C 6.93 g/m*3 12 C 4.8 km/h
144 09-04-2014 13:15:00 12.4 C 6.88 g/m*3 12.4 C 8.1 km/h
145 09-04-2014 13:20:00 13 C 6.46 g/m*3 13 C 8.1 km/h
146 09-04-2014 13:25:00 13.4 C 6.74 g/m*3 13.4 C 9.7 km/h
147 09-04-2014 13:30:00 13.6 C 6.71 g/m*3 13.6 C 4.8 km/h
148 09-04-2014 13:35:00 13.6 C 6.59 g/m*3 13.6 C 12.9 km/h
149 09-04-2014 13:40:00 13.4 C 6.16 g/m*3 13.4 C 9.7 km/h
150 09-04-2014 13:45:00 13.4 C 6.39 g/m*3 13.4 C 6.4 km/h
Sensor: Nr:Datum:Temp:Abs-Feuchte:Windchill:Wind:
Aussen-T/F 151 09-04-2014 13:50:00 13.5 C 6.78 g/m*3 13.5 C 12.9 km/h
152 09-04-2014 13:55:00 13.3 C 6.59 g/m*3 13.3 C 9.7 km/h
153 09-04-2014 14:00:00 13.4 C 7.09 g/m*3 13.4 C 9.7 km/h
154 09-04-2014 14:05:00 13.7 C 6.87 g/m*3 13.7 C 8.1 km/h
155 09-04-2014 14:10:00 13.8 C 6.55 g/m*3 13.8 C 4.8 km/h
156 09-04-2014 14:15:00 13.8 C 6.43 g/m*3 13.8 C 6.4 km/h
157 09-04-2014 14:20:00 13.6 C 6.71 g/m*3 13.6 C 4.8 km/h
158 09-04-2014 14:25:00 13.6 C 6.47 g/m*3 13.6 C 9.7 km/h
159 09-04-2014 14:30:00 13.6 C 6.36 g/m*3 13.6 C 11.3 km/h
160 09-04-2014 14:35:00 13.6 C 6.24 g/m*3 13.6 C 8.1 km/h
161 09-04-2014 14:40:00 13.6 C 6.47 g/m*3 13.6 C 4.8 km/h
162 09-04-2014 14:45:00 13.6 C 6.24 g/m*3 13.6 C 9.7 km/h
163 09-04-2014 14:50:00 13.6 C 6.36 g/m*3 13.6 C 8.1 km/h
164 09-04-2014 14:55:00 13.8 C 6.08 g/m*3 13.8 C 11.3 km/h
165 09-04-2014 15:00:00 14.2 C 6.84 g/m*3 14.2 C 8.1 km/h
166 09-04-2014 15:05:00 14.4 C 5.93 g/m*3 14.4 C 8.1 km/h
167 09-04-2014 15:10:00 14.5 C 5.85 g/m*3 14.5 C 11.3 km/h
168 09-04-2014 15:15:00 14.4 C 6.3 g/m*3 14.4 C 9.7 km/h
169 09-04-2014 15:20:00 14.4 C 6.18 g/m*3 14.4 C 12.9 km/h
170 09-04-2014 15:25:00 14.3 C 6.02 g/m*3 14.3 C 6.4 km/h
171 09-04-2014 15:30:00 14.3 C 5.9 g/m*3 14.3 C 6.4 km/h
172 09-04-2014 15:35:00 14.6 C 6.26 g/m*3 14.6 C 9.7 km/h
173 09-04-2014 15:40:00 14.8 C 6.21 g/m*3 14.8 C 9.7 km/h
174 09-04-2014 15:45:00 14.6 C 5.88 g/m*3 14.6 C 9.7 km/h
175 09-04-2014 15:50:00 14.4 C 5.69 g/m*3 14.4 C 9.7 km/h
Sensor: Nr:Datum:Temp:Abs-Feuchte:Windchill:Wind:
Aussen-T/F 176 09-04-2014 15:55:00 14.3 C 5.65 g/m*3 14.3 C 9.7 km/h
177 09-04-2014 16:00:00 14.3 C 5.77 g/m*3 14.3 C 9.7 km/h
178 09-04-2014 16:05:00 14.3 C 5.9 g/m*3 14.3 C 8.1 km/h
179 09-04-2014 16:10:00 14.3 C 5.77 g/m*3 14.3 C 8.1 km/h
180 09-04-2014 16:15:00 14.4 C 5.93 g/m*3 14.4 C 6.4 km/h
181 09-04-2014 16:20:00 14.4 C 5.93 g/m*3 14.4 C 8.1 km/h
182 09-04-2014 16:25:00 14.3 C 6.02 g/m*3 14.3 C 12.9 km/h
183 09-04-2014 16:30:00 14.2 C 5.98 g/m*3 14.2 C 14.5 km/h
184 09-04-2014 16:35:00 14.2 C 6.23 g/m*3 14.2 C 9.7 km/h
185 09-04-2014 16:40:00 14.2 C 6.35 g/m*3 14.2 C 9.7 km/h
186 09-04-2014 16:45:00 14.3 C 6.27 g/m*3 14.3 C 8.1 km/h
187 09-04-2014 16:50:00 14.4 C 6.3 g/m*3 14.4 C 14.5 km/h
188 09-04-2014 16:55:00 14.6 C 6.51 g/m*3 14.6 C 9.7 km/h
189 09-04-2014 17:00:00 14.5 C 6.22 g/m*3 14.5 C 8.1 km/h
190 09-04-2014 17:05:00 14.4 C 6.55 g/m*3 14.4 C 8.1 km/h
191 09-04-2014 17:10:00 14.5 C 6.59 g/m*3 14.5 C 6.4 km/h
192 09-04-2014 17:15:00 14.7 C 6.8 g/m*3 14.7 C 9.7 km/h
193 09-04-2014 17:20:00 14.8 C 6.46 g/m*3 14.8 C 12.9 km/h
194 09-04-2014 17:25:00 14.7 C 6.42 g/m*3 14.7 C 8.1 km/h
195 09-04-2014 17:30:00 14.7 C 6.17 g/m*3 14.7 C 9.7 km/h
196 09-04-2014 17:35:00 14.6 C 6.26 g/m*3 14.6 C 11.3 km/h
197 09-04-2014 17:40:00 14.6 C 6.51 g/m*3 14.6 C 9.7 km/h
198 09-04-2014 17:45:00 15.1 C 6.32 g/m*3 15.1 C 8.1 km/h
199 09-04-2014 17:50:00 15.4 C 6.31 g/m*3 15.4 C 9.7 km/h
200 09-04-2014 17:55:00 15.7 C 6.69 g/m*3 15.7 C 6.4 km/h
Sensor: Nr:Datum:Temp:Abs-Feuchte:Windchill:Wind:
Aussen-T/F 201 09-04-2014 18:00:00 15.5 C 6.48 g/m*3 15.5 C 9.7 km/h
202 09-04-2014 18:05:00 15.2 C 6.49 g/m*3 15.2 C 6.4 km/h
203 09-04-2014 18:10:00 15.1 C 6.45 g/m*3 15.1 C 9.7 km/h
204 09-04-2014 18:15:00 15 C 6.67 g/m*3 15 C 11.3 km/h
205 09-04-2014 18:20:00 15 C 6.28 g/m*3 15 C 11.3 km/h
206 09-04-2014 18:25:00 14.8 C 6.46 g/m*3 14.8 C 8.1 km/h
207 09-04-2014 18:30:00 14.5 C 6.34 g/m*3 14.5 C 8.1 km/h
208 09-04-2014 18:35:00 14.3 C 6.27 g/m*3 14.3 C 4.8 km/h
209 09-04-2014 18:40:00 14.1 C 6.55 g/m*3 14.1 C 6.4 km/h
210 09-04-2014 18:45:00 13.9 C 6.47 g/m*3 13.9 C 11.3 km/h
211 09-04-2014 18:50:00 13.8 C 6.31 g/m*3 13.8 C 4.8 km/h
212 09-04-2014 18:55:00 13.8 C 6.67 g/m*3 13.8 C 9.7 km/h
213 09-04-2014 19:00:00 13.7 C 6.63 g/m*3 13.7 C 6.4 km/h
214 09-04-2014 19:05:00 13.6 C 6.47 g/m*3 13.6 C 3.2 km/h
215 09-04-2014 19:10:00 13.6 C 6.47 g/m*3 13.6 C 6.4 km/h
216 09-04-2014 19:15:00 13.6 C 6.59 g/m*3 13.6 C 4.8 km/h
217 09-04-2014 19:20:00 13.5 C 6.55 g/m*3 13.5 C 4.8 km/h
218 09-04-2014 19:25:00 13.5 C 6.55 g/m*3 13.5 C 3.2 km/h
219 09-04-2014 19:30:00 13.5 C 6.55 g/m*3 13.5 C 1.6 km/h
220 09-04-2014 19:35:00 13.2 C 7.12 g/m*3 13.2 C 0 km/h
221 09-04-2014 19:40:00 12.8 C 7.17 g/m*3 12.8 C 3.2 km/h
222 09-04-2014 19:45:00 12.6 C 6.97 g/m*3 12.6 C 3.2 km/h
223 09-04-2014 19:50:00 12.3 C 7.17 g/m*3 12.3 C 0 km/h
224 09-04-2014 19:55:00 12 C 7.14 g/m*3 12 C 1.6 km/h
225 09-04-2014 20:00:00 11.6 C 7.17 g/m*3 11.6 C 3.2 km/h
Sensor: Nr:Datum:Temp:Abs-Feuchte:Windchill:Wind:
Aussen-T/F 226 09-04-2014 20:05:00 11.2 C 7.2 g/m*3 11.2 C 3.2 km/h
227 09-04-2014 20:10:00 10.9 C 7.26 g/m*3 10.9 C 3.2 km/h
228 09-04-2014 20:15:00 10.6 C 6.83 g/m*3 10.6 C 3.2 km/h
229 09-04-2014 20:20:00 10.5 C 7.08 g/m*3 10.5 C 3.2 km/h
230 09-04-2014 20:25:00 10.3 C 6.99 g/m*3 10.3 C 3.2 km/h
231 09-04-2014 20:30:00 10.2 C 7.04 g/m*3 10.2 C 3.2 km/h
232 09-04-2014 20:35:00 10 C 6.95 g/m*3 10 C 4.8 km/h
233 09-04-2014 20:40:00 9.9 C 6.91 g/m*3 9.9 C 4.8 km/h
234 09-04-2014 20:45:00 9.8 C 6.96 g/m*3 9.8 C 4.8 km/h
235 09-04-2014 20:50:00 9.7 C 6.91 g/m*3 9.7 C 4.8 km/h
236 09-04-2014 20:55:00 9.6 C 6.87 g/m*3 9.6 C 4.8 km/h
237 09-04-2014 21:00:00 9.5 C 7.1 g/m*3 9.5 C 4.8 km/h
238 09-04-2014 21:05:00 9.4 C 6.87 g/m*3 9.4 C 4.8 km/h
239 09-04-2014 21:10:00 9.4 C 6.96 g/m*3 9.4 C 3.2 km/h
240 09-04-2014 21:15:00 9.3 C 7.01 g/m*3 9.3 C 4.8 km/h
241 09-04-2014 21:20:00 9.2 C 6.97 g/m*3 9.2 C 3.2 km/h
242 09-04-2014 21:25:00 9 C 6.96 g/m*3 9 C 4.8 km/h
243 09-04-2014 21:30:00 9 C 6.79 g/m*3 9 C 1.6 km/h
244 09-04-2014 21:35:00 9.1 C 7.01 g/m*3 9.1 C 3.2 km/h
245 09-04-2014 21:40:00 9.1 C 7.01 g/m*3 9.1 C 0 km/h
246 09-04-2014 21:45:00 9 C 6.96 g/m*3 9 C 0 km/h
247 09-04-2014 21:50:00 8.9 C 6.92 g/m*3 8.9 C 3.2 km/h
248 09-04-2014 21:55:00 8.9 C 6.83 g/m*3 8.9 C 3.2 km/h
249 09-04-2014 22:00:00 9 C 6.96 g/m*3 9 C 1.6 km/h
250 09-04-2014 22:05:00 9 C 6.96 g/m*3 9 C 0 km/h
Sensor: Nr:Datum:Temp:Abs-Feuchte:Windchill:Wind:
Aussen-T/F 251 09-04-2014 22:10:00 9 C 6.96 g/m*3 9 C 1.6 km/h
252 09-04-2014 22:15:00 9 C 6.96 g/m*3 9 C 1.6 km/h
253 09-04-2014 22:20:00 9 C 6.88 g/m*3 9 C 3.2 km/h
254 09-04-2014 22:25:00 9 C 6.96 g/m*3 9 C 3.2 km/h
255 09-04-2014 22:30:00 9.1 C 7.01 g/m*3 9.1 C 3.2 km/h
256 09-04-2014 22:35:00 9.1 C 6.83 g/m*3 9.1 C 1.6 km/h
257 09-04-2014 22:40:00 9.1 C 6.92 g/m*3 9.1 C 0 km/h
258 09-04-2014 22:45:00 9 C 6.96 g/m*3 9 C 3.2 km/h
259 09-04-2014 22:50:00 8.9 C 6.83 g/m*3 8.9 C 4.8 km/h
260 09-04-2014 22:55:00 8.8 C 6.79 g/m*3 8.8 C 3.2 km/h
261 09-04-2014 23:00:00 8.7 C 6.75 g/m*3 8.7 C 1.6 km/h
262 09-04-2014 23:05:00 8.6 C 6.79 g/m*3 8.6 C 1.6 km/h
263 09-04-2014 23:10:00 8.5 C 6.74 g/m*3 8.5 C 0 km/h
264 09-04-2014 23:15:00 8.4 C 6.7 g/m*3 8.4 C 3.2 km/h
265 09-04-2014 23:20:00 8.4 C 6.7 g/m*3 8.4 C 3.2 km/h
266 09-04-2014 23:25:00 8.4 C 6.7 g/m*3 8.4 C 4.8 km/h
267 09-04-2014 23:30:00 8.5 C 6.83 g/m*3 8.5 C 0 km/h
268 09-04-2014 23:35:00 8.6 C 6.79 g/m*3 8.6 C 1.6 km/h
269 09-04-2014 23:40:00 8.6 C 6.79 g/m*3 8.6 C 1.6 km/h
270 09-04-2014 23:45:00 8.7 C 6.83 g/m*3 8.7 C 0 km/h
271 09-04-2014 23:50:00 8.7 C 6.83 g/m*3 8.7 C 1.6 km/h
272 09-04-2014 23:55:00 8.7 C 6.75 g/m*3 8.7 C 4.8 km/h
273 10-04-2014 00:00:00 8.8 C 6.79 g/m*3 8.8 C 0 km/h
274 10-04-2014 00:05:00 8.8 C 6.79 g/m*3 8.8 C 4.8 km/h
275 10-04-2014 00:10:00 8.9 C 6.75 g/m*3 7.69 C 8.1 km/h
Sensor: Nr:Datum:Temp:Abs-Feuchte:Windchill:Wind:
Aussen-T/F 276 10-04-2014 00:15:00 9 C 6.79 g/m*3 9 C 4.8 km/h
277 10-04-2014 00:20:00 9.1 C 6.74 g/m*3 9.1 C 4.8 km/h
278 10-04-2014 00:25:00 9.1 C 6.74 g/m*3 8.33 C 6.4 km/h
279 10-04-2014 00:30:00 9.2 C 6.7 g/m*3 9.2 C 4.8 km/h
280 10-04-2014 00:35:00 9.2 C 6.79 g/m*3 9.2 C 4.8 km/h
281 10-04-2014 00:40:00 9.2 C 6.7 g/m*3 8.45 C 6.4 km/h
282 10-04-2014 00:45:00 9.2 C 6.7 g/m*3 9.2 C 4.8 km/h
283 10-04-2014 00:50:00 9.2 C 6.7 g/m*3 8.45 C 6.4 km/h
284 10-04-2014 00:55:00 9 C 6.7 g/m*3 7.49 C 9.7 km/h
285 10-04-2014 01:00:00 8.8 C 6.61 g/m*3 8.8 C 3.2 km/h
286 10-04-2014 01:05:00 8.7 C 6.66 g/m*3 8.7 C 3.2 km/h
287 10-04-2014 01:10:00 8.6 C 6.7 g/m*3 7.01 C 9.7 km/h
288 10-04-2014 01:15:00 8.4 C 6.62 g/m*3 7.11 C 8.1 km/h
289 10-04-2014 01:20:00 8.3 C 6.66 g/m*3 8.3 C 3.2 km/h
290 10-04-2014 01:25:00 8.2 C 6.62 g/m*3 6.87 C 8.1 km/h
291 10-04-2014 01:30:00 8.2 C 6.7 g/m*3 8.2 C 4.8 km/h
292 10-04-2014 01:35:00 8.1 C 6.66 g/m*3 7.17 C 6.4 km/h
293 10-04-2014 01:40:00 8.1 C 6.74 g/m*3 8.1 C 1.6 km/h
294 10-04-2014 01:45:00 7.9 C 6.74 g/m*3 7.9 C 0 km/h
295 10-04-2014 01:50:00 7.8 C 6.69 g/m*3 7.8 C 4.8 km/h
296 10-04-2014 01:55:00 7.7 C 6.73 g/m*3 7.7 C 1.6 km/h
297 10-04-2014 02:00:00 7.6 C 6.69 g/m*3 7.6 C 3.2 km/h
298 10-04-2014 02:05:00 7.6 C 6.77 g/m*3 7.6 C 0 km/h
299 10-04-2014 02:10:00 7.6 C 6.77 g/m*3 7.6 C 1.6 km/h
300 10-04-2014 02:15:00 7.6 C 6.77 g/m*3 7.6 C 1.6 km/h
Sensor: Nr:Datum:Temp:Abs-Feuchte:Windchill:Wind:
Aussen-T/F 301 10-04-2014 02:20:00 7.7 C 6.73 g/m*3 7.7 C 3.2 km/h
302 10-04-2014 02:25:00 7.9 C 6.74 g/m*3 7.9 C 1.6 km/h
303 10-04-2014 02:30:00 8 C 6.7 g/m*3 6.64 C 8.1 km/h
304 10-04-2014 02:35:00 8.2 C 6.78 g/m*3 8.2 C 1.6 km/h
305 10-04-2014 02:40:00 8.2 C 6.78 g/m*3 8.2 C 1.6 km/h
306 10-04-2014 02:45:00 8.2 C 6.78 g/m*3 8.2 C 1.6 km/h
307 10-04-2014 02:50:00 8.3 C 6.74 g/m*3 8.3 C 4.8 km/h
308 10-04-2014 02:55:00 8.3 C 6.74 g/m*3 7.41 C 6.4 km/h
309 10-04-2014 03:00:00 8.4 C 6.87 g/m*3 8.4 C 0 km/h
310 10-04-2014 03:05:00 8.4 C 6.79 g/m*3 8.4 C 4.8 km/h
311 10-04-2014 03:10:00 8.4 C 6.79 g/m*3 8.4 C 0 km/h
312 10-04-2014 03:15:00 8.4 C 6.87 g/m*3 8.4 C 0 km/h
313 10-04-2014 03:20:00 8.3 C 6.83 g/m*3 8.3 C 1.6 km/h
314 10-04-2014 03:25:00 8.3 C 6.91 g/m*3 8.3 C 1.6 km/h
315 10-04-2014 03:30:00 8.3 C 6.91 g/m*3 8.3 C 0 km/h
316 10-04-2014 03:35:00 8.3 C 6.91 g/m*3 8.3 C 0 km/h
317 10-04-2014 03:40:00 8.2 C 6.87 g/m*3 8.2 C 1.6 km/h
318 10-04-2014 03:45:00 8.2 C 6.87 g/m*3 8.2 C 3.2 km/h
319 10-04-2014 03:50:00 8.2 C 6.95 g/m*3 8.2 C 1.6 km/h
320 10-04-2014 03:55:00 8.1 C 6.91 g/m*3 8.1 C 0 km/h
321 10-04-2014 04:00:00 8.1 C 6.82 g/m*3 8.1 C 3.2 km/h
322 10-04-2014 04:05:00 8.1 C 6.91 g/m*3 8.1 C 0 km/h
323 10-04-2014 04:10:00 8 C 6.86 g/m*3 8 C 1.6 km/h
324 10-04-2014 04:15:00 8 C 6.86 g/m*3 8 C 0 km/h
325 10-04-2014 04:20:00 7.9 C 6.82 g/m*3 7.9 C 0 km/h
Sensor: Nr:Datum:Temp:Abs-Feuchte:Windchill:Wind:
Aussen-T/F 326 10-04-2014 04:25:00 7.9 C 6.82 g/m*3 7.9 C 0 km/h
327 10-04-2014 04:30:00 7.9 C 6.82 g/m*3 7.9 C 0 km/h
328 10-04-2014 04:35:00 7.9 C 6.82 g/m*3 7.9 C 0 km/h
329 10-04-2014 04:40:00 7.9 C 6.9 g/m*3 7.9 C 0 km/h
330 10-04-2014 04:45:00 7.8 C 6.77 g/m*3 7.8 C 0 km/h
331 10-04-2014 04:50:00 7.8 C 6.86 g/m*3 7.8 C 0 km/h
332 10-04-2014 04:55:00 7.8 C 6.86 g/m*3 7.8 C 1.6 km/h
333 10-04-2014 05:00:00 7.7 C 6.89 g/m*3 7.7 C 1.6 km/h
334 10-04-2014 05:05:00 7.6 C 6.77 g/m*3 7.6 C 3.2 km/h
335 10-04-2014 05:10:00 7.6 C 6.85 g/m*3 7.6 C 1.6 km/h
336 10-04-2014 05:15:00 7.4 C 6.76 g/m*3 7.4 C 0 km/h
337 10-04-2014 05:20:00 7.3 C 6.79 g/m*3 7.3 C 1.6 km/h
338 10-04-2014 05:25:00 7.1 C 6.71 g/m*3 7.1 C 0 km/h
339 10-04-2014 05:30:00 6.9 C 6.7 g/m*3 6.9 C 0 km/h
340 10-04-2014 05:35:00 6.9 C 6.7 g/m*3 6.9 C 0 km/h
341 10-04-2014 05:40:00 6.8 C 6.65 g/m*3 6.8 C 0 km/h
342 10-04-2014 05:45:00 6.8 C 6.65 g/m*3 6.8 C 3.2 km/h
343 10-04-2014 05:50:00 6.8 C 6.65 g/m*3 6.8 C 3.2 km/h
344 10-04-2014 05:55:00 6.7 C 6.61 g/m*3 6.7 C 0 km/h
345 10-04-2014 06:00:00 6.7 C 6.61 g/m*3 6.7 C 1.6 km/h
346 10-04-2014 06:05:00 6.7 C 6.61 g/m*3 6.7 C 1.6 km/h
347 10-04-2014 06:10:00 6.7 C 6.61 g/m*3 6.7 C 0 km/h
348 10-04-2014 06:15:00 6.6 C 6.64 g/m*3 6.6 C 0 km/h
349 10-04-2014 06:20:00 6.5 C 6.6 g/m*3 6.5 C 0 km/h
350 10-04-2014 06:25:00 6.4 C 6.56 g/m*3 6.4 C 0 km/h
Sensor: Nr:Datum:Temp:Abs-Feuchte:Windchill:Wind:
Aussen-T/F 351 10-04-2014 06:30:00 6.3 C 6.51 g/m*3 6.3 C 0 km/h
352 10-04-2014 06:35:00 6.3 C 6.59 g/m*3 6.3 C 0 km/h
353 10-04-2014 06:40:00 6.4 C 6.71 g/m*3 6.4 C 0 km/h
354 10-04-2014 06:45:00 6.4 C 6.71 g/m*3 6.4 C 0 km/h
355 10-04-2014 06:50:00 6.4 C 6.63 g/m*3 6.4 C 0 km/h
356 10-04-2014 06:55:00 6.4 C 6.71 g/m*3 6.4 C 0 km/h
357 10-04-2014 07:00:00 6.4 C 6.63 g/m*3 6.4 C 0 km/h
358 10-04-2014 07:05:00 6.3 C 6.59 g/m*3 6.3 C 1.6 km/h
359 10-04-2014 07:10:00 6.3 C 6.66 g/m*3 6.3 C 0 km/h
360 10-04-2014 07:15:00 6.3 C 6.66 g/m*3 6.3 C 0 km/h
361 10-04-2014 07:20:00 6.3 C 6.66 g/m*3 6.3 C 0 km/h
362 10-04-2014 07:25:00 6.4 C 6.71 g/m*3 6.4 C 0 km/h
363 10-04-2014 07:30:00 6.4 C 6.71 g/m*3 6.4 C 1.6 km/h
364 10-04-2014 07:35:00 6.5 C 6.75 g/m*3 6.5 C 1.6 km/h
365 10-04-2014 07:40:00 6.6 C 6.79 g/m*3 6.6 C 1.6 km/h
366 10-04-2014 07:45:00 6.7 C 6.84 g/m*3 6.7 C 0 km/h
367 10-04-2014 07:50:00 6.9 C 6.93 g/m*3 6.9 C 0 km/h
368 10-04-2014 07:55:00 7 C 6.82 g/m*3 7 C 4.8 km/h
369 10-04-2014 08:00:00 7.1 C 6.86 g/m*3 7.1 C 3.2 km/h
370 10-04-2014 08:05:00 7.1 C 6.86 g/m*3 7.1 C 3.2 km/h
371 10-04-2014 08:10:00 7.2 C 6.91 g/m*3 6.13 C 6.4 km/h
372 10-04-2014 08:15:00 7.3 C 6.95 g/m*3 5.81 C 8.1 km/h
373 10-04-2014 08:20:00 7.4 C 7 g/m*3 5.93 C 8.1 km/h
374 10-04-2014 08:25:00 7.4 C 6.92 g/m*3 5.58 C 9.7 km/h
375 10-04-2014 08:30:00 7.5 C 6.96 g/m*3 5.7 C 9.7 km/h
Sensor: Nr:Datum:Temp:Abs-Feuchte:Windchill:Wind:
Aussen-T/F 376 10-04-2014 08:35:00 7.6 C 6.93 g/m*3 6.16 C 8.1 km/h
377 10-04-2014 08:40:00 7.6 C 6.93 g/m*3 6.6 C 6.4 km/h
378 10-04-2014 09:00:00 8.3 C 8.43 g/m*3 6.66 C 9.7 km/h
379 10-04-2014 09:05:00 8.4 C 7.13 g/m*3 8.4 C 4.8 km/h
380 10-04-2014 09:10:00 8.5 C 7.17 g/m*3 7.22 C 8.1 km/h
381 10-04-2014 09:15:00 8.5 C 7.17 g/m*3 7.64 C 6.4 km/h
382 10-04-2014 09:50:00 9 C 8.82 g/m*3 8.21 C 6.4 km/h
383 10-04-2014 09:55:00 9.2 C 7.32 g/m*3 8.05 C 8.1 km/h
384 10-04-2014 10:00:00 9.3 C 7.28 g/m*3 8.16 C 8.1 km/h
385 10-04-2014 10:05:00 9.5 C 7.28 g/m*3 8.4 C 8.1 km/h
386 10-04-2014 10:10:00 9.7 C 7.38 g/m*3 9.02 C 6.4 km/h
387 10-04-2014 10:15:00 9.7 C 7.38 g/m*3 9.7 C 4.8 km/h
388 10-04-2014 10:20:00 9.7 C 7.38 g/m*3 9.7 C 0 km/h
389 10-04-2014 10:25:00 10 C 7.33 g/m*3 10 C 1.6 km/h
390 10-04-2014 10:30:00 10.2 C 7.42 g/m*3 10.2 C 1.6 km/h
391 10-04-2014 10:35:00 10.3 C 7.47 g/m*3 10.3 C 3.2 km/h
392 10-04-2014 10:40:00 10.3 C 7.47 g/m*3 10.3 C 3.2 km/h
393 10-04-2014 13:15:00 16.2 C 8.14 g/m*3 16.2 C 8.1 km/h
394 10-04-2014 13:20:00 16.2 C 8.14 g/m*3 16.2 C 3.2 km/h
395 10-04-2014 13:25:00 16.3 C 8.74 g/m*3 16.3 C 6.4 km/h
396 10-04-2014 13:30:00 16.3 C 8.46 g/m*3 16.3 C 6.4 km/h
397 10-04-2014 13:35:00 16.4 C 8.51 g/m*3 16.4 C 9.7 km/h
398 10-04-2014 13:40:00 16.4 C 8.51 g/m*3 16.4 C 4.8 km/h
399 10-04-2014 14:55:00 17.6 C 8.7 g/m*3 17.6 C 9.7 km/h
400 10-04-2014 15:00:00 17.6 C 8.7 g/m*3 17.6 C 6.4 km/h
Sensor: Nr:Datum:Temp:Abs-Feuchte:Windchill:Wind:
Aussen-T/F 401 10-04-2014 15:05:00 17.6 C 8.4 g/m*3 17.6 C 8.1 km/h
402 10-04-2014 15:10:00 17.7 C 8.9 g/m*3 17.7 C 8.1 km/h
403 10-04-2014 15:15:00 17.7 C 8.3 g/m*3 17.7 C 9.7 km/h
404 10-04-2014 15:20:00 17.7 C 8.3 g/m*3 17.7 C 4.8 km/h
405 10-04-2014 16:35:00 18.2 C 15.54 g/m*3 18.2 C 8.1 km/h
406 10-04-2014 16:40:00 18.7 C 8.81 g/m*3 18.7 C 11.3 km/h
407 10-04-2014 16:45:00 18.7 C 8.49 g/m*3 18.7 C 9.7 km/h
408 10-04-2014 16:50:00 18.6 C 8.59 g/m*3 18.6 C 9.7 km/h
409 10-04-2014 16:55:00 18.4 C 8.18 g/m*3 18.4 C 6.4 km/h
410 10-04-2014 17:00:00 18.3 C 8.6 g/m*3 18.3 C 8.1 km/h
411 10-04-2014 17:05:00 18.5 C 8.54 g/m*3 18.5 C 9.7 km/h
412 10-04-2014 17:10:00 18.5 C 8.54 g/m*3 18.5 C 9.7 km/h
413 10-04-2014 17:15:00 18.4 C 8.49 g/m*3 18.4 C 6.4 km/h
414 10-04-2014 17:20:00 18.4 C 8.65 g/m*3 18.4 C 8.1 km/h
415 10-04-2014 17:25:00 18 C 8.29 g/m*3 18 C 8.1 km/h
416 10-04-2014 17:30:00 18 C 8.29 g/m*3 18 C 6.4 km/h
417 10-04-2014 17:35:00 17.6 C 8.55 g/m*3 17.6 C 8.1 km/h
418 10-04-2014 17:40:00 17.5 C 8.5 g/m*3 17.5 C 8.1 km/h
419 10-04-2014 17:45:00 17.5 C 8.5 g/m*3 17.5 C 8.1 km/h
420 10-04-2014 17:50:00 17.2 C 8.49 g/m*3 17.2 C 8.1 km/h
421 10-04-2014 17:55:00 17.1 C 8.3 g/m*3 17.1 C 8.1 km/h
422 10-04-2014 18:00:00 17.1 C 8.44 g/m*3 17.1 C 9.7 km/h
423 10-04-2014 18:05:00 16.8 C 8.29 g/m*3 16.8 C 6.4 km/h
424 10-04-2014 18:10:00 16.8 C 8.29 g/m*3 16.8 C 12.9 km/h
425 10-04-2014 18:15:00 16.6 C 8.19 g/m*3 16.6 C 6.4 km/h
Sensor: Nr:Datum:Temp:Abs-Feuchte:Windchill:Wind:
Aussen-T/F 426 10-04-2014 18:20:00 16.6 C 8.33 g/m*3 16.6 C 8.1 km/h
427 10-04-2014 18:25:00 16.4 C 8.23 g/m*3 16.4 C 6.4 km/h
428 10-04-2014 18:30:00 16.4 C 8.23 g/m*3 16.4 C 4.8 km/h
429 10-04-2014 18:35:00 16.3 C 8.19 g/m*3 16.3 C 9.7 km/h
430 10-04-2014 18:40:00 16.3 C 8.32 g/m*3 16.3 C 11.3 km/h
431 10-04-2014 18:45:00 16.3 C 8.46 g/m*3 16.3 C 3.2 km/h
432 10-04-2014 18:50:00 16.2 C 8.41 g/m*3 16.2 C 12.9 km/h
433 10-04-2014 18:55:00 16.2 C 8.27 g/m*3 16.2 C 6.4 km/h
434 10-04-2014 19:00:00 16.2 C 8.27 g/m*3 16.2 C 4.8 km/h
435 11-04-2014 08:05:00 6.6 C 7.17 g/m*3 6.6 C 0 km/h
436 11-04-2014 08:10:00 6.6 C 7.17 g/m*3 6.6 C 0 km/h
437 11-04-2014 08:15:00 6.6 C 7.17 g/m*3 6.6 C 0 km/h
438 11-04-2014 08:50:00 7.2 C 7.46 g/m*3 7.2 C 3.2 km/h
439 11-04-2014 08:55:00 7.3 C 7.51 g/m*3 7.3 C 3.2 km/h
440 11-04-2014 09:00:00 7.4 C 7.55 g/m*3 7.4 C 0 km/h
441 11-04-2014 09:05:00 7.5 C 7.6 g/m*3 7.5 C 0 km/h
442 11-04-2014 09:10:00 7.7 C 7.7 g/m*3 7.7 C 0 km/h
443 11-04-2014 09:15:00 7.7 C 7.7 g/m*3 7.7 C 0 km/h
444 11-04-2014 09:20:00 7.9 C 7.8 g/m*3 7.9 C 0 km/h
445 11-04-2014 09:25:00 8.1 C 7.9 g/m*3 8.1 C 0 km/h
446 11-04-2014 09:30:00 8.3 C 8.01 g/m*3 8.3 C 0 km/h
447 11-04-2014 09:35:00 8.6 C 8.16 g/m*3 8.6 C 0 km/h
448 11-04-2014 09:40:00 8.8 C 8.27 g/m*3 8.8 C 1.6 km/h
449 11-04-2014 09:45:00 8.8 C 8.27 g/m*3 8.8 C 0 km/h
450 11-04-2014 09:50:00 8.8 C 8.27 g/m*3 8.8 C 0 km/h
Sensor: Nr:Datum:Temp:Abs-Feuchte:Windchill:Wind:
Aussen-T/F 451 11-04-2014 09:55:00 9.9 C 8.87 g/m*3 9.9 C 0 km/h
452 11-04-2014 10:00:00 10 C 8.93 g/m*3 10 C 0 km/h
453 11-04-2014 10:05:00 10.6 C 8.59 g/m*3 10.6 C 0 km/h
454 11-04-2014 10:10:00 10.9 C 8.65 g/m*3 10.9 C 0 km/h
455 11-04-2014 10:15:00 11.1 C 8.66 g/m*3 11.1 C 0 km/h
456 11-04-2014 10:20:00 11.6 C 8.94 g/m*3 11.6 C 0 km/h
457 11-04-2014 10:25:00 11.9 C 8.79 g/m*3 11.9 C 0 km/h
458 11-04-2014 10:30:00 12.2 C 8.96 g/m*3 12.2 C 0 km/h
459 11-04-2014 10:35:00 12.3 C 8.9 g/m*3 12.3 C 0 km/h
460 11-04-2014 10:40:00 12.3 C 8.9 g/m*3 12.3 C 0 km/h
461 11-04-2014 11:50:00 15.6 C 9.04 g/m*3 15.6 C 9.7 km/h
462 11-04-2014 11:55:00 15.9 C 9.07 g/m*3 15.9 C 9.7 km/h
463 11-04-2014 12:00:00 16.1 C 9.18 g/m*3 16.1 C 6.4 km/h
464 11-04-2014 12:05:00 16.2 C 9.1 g/m*3 16.2 C 3.2 km/h
465 11-04-2014 12:10:00 16.2 C 9.1 g/m*3 16.2 C 6.4 km/h
466 11-04-2014 12:15:00 16.7 C 9.1 g/m*3 16.7 C 6.4 km/h
467 11-04-2014 12:20:00 16.8 C 9.29 g/m*3 16.8 C 3.2 km/h
468 11-04-2014 12:25:00 17 C 9.41 g/m*3 17 C 4.8 km/h
469 11-04-2014 12:30:00 17.2 C 9.37 g/m*3 17.2 C 6.4 km/h
470 11-04-2014 12:35:00 17.3 C 8.99 g/m*3 17.3 C 3.2 km/h
471 11-04-2014 12:40:00 17.3 C 8.84 g/m*3 17.3 C 3.2 km/h
472 11-04-2014 12:45:00 17.3 C 8.84 g/m*3 17.3 C 3.2 km/h
473 11-04-2014 12:50:00 17.3 C 8.84 g/m*3 17.3 C 0 km/h
474 11-04-2014 12:55:00 17.5 C 8.95 g/m*3 17.5 C 1.6 km/h
475 11-04-2014 13:00:00 17.9 C 9.31 g/m*3 17.9 C 4.8 km/h
Sensor: Nr:Datum:Temp:Abs-Feuchte:Windchill:Wind:
Aussen-T/F 476 11-04-2014 13:05:00 18.1 C 9.58 g/m*3 18.1 C 3.2 km/h
477 11-04-2014 13:10:00 18.1 C 9.58 g/m*3 18.1 C 4.8 km/h
478 11-04-2014 13:30:00 19.4 C 9.51 g/m*3 19.4 C 6.4 km/h
479 11-04-2014 13:35:00 19.4 C 9.51 g/m*3 19.4 C 4.8 km/h
480 11-04-2014 13:40:00 19.6 C 8.78 g/m*3 19.6 C 6.4 km/h
481 11-04-2014 13:45:00 19.4 C 8.84 g/m*3 19.4 C 4.8 km/h
482 11-04-2014 13:50:00 19.1 C 8.85 g/m*3 19.1 C 6.4 km/h
483 11-04-2014 13:55:00 18.7 C 8.81 g/m*3 18.7 C 9.7 km/h
484 11-04-2014 14:00:00 18.7 C 8.97 g/m*3 18.7 C 4.8 km/h
485 11-04-2014 14:05:00 18.7 C 8.97 g/m*3 18.7 C 11.3 km/h
486 11-04-2014 14:10:00 18.7 C 8.97 g/m*3 18.7 C 6.4 km/h
487 11-04-2014 14:15:00 18.3 C 9.07 g/m*3 18.3 C 4.8 km/h
488 11-04-2014 14:20:00 18.4 C 9.12 g/m*3 18.4 C 8.1 km/h
489 11-04-2014 14:25:00 18.4 C 9.12 g/m*3 18.4 C 9.7 km/h
490 11-04-2014 16:10:00 19.9 C 8.59 g/m*3 19.9 C 9.7 km/h
491 11-04-2014 16:15:00 19.9 C 8.59 g/m*3 19.9 C 6.4 km/h
492 11-04-2014 16:20:00 19.8 C 8.71 g/m*3 19.8 C 8.1 km/h
493 11-04-2014 16:25:00 19.5 C 8.56 g/m*3 19.5 C 11.3 km/h
494 11-04-2014 16:30:00 19.4 C 8.51 g/m*3 19.4 C 4.8 km/h
495 11-04-2014 16:35:00 19.4 C 8.51 g/m*3 19.4 C 6.4 km/h
496 11-04-2014 16:55:00 18.9 C 16.2 g/m*3 18.9 C 4.8 km/h
497 11-04-2014 17:00:00 18.8 C 16.11 g/m*3 18.8 C 9.7 km/h
498 11-04-2014 17:05:00 18.7 C 8.65 g/m*3 18.7 C 6.4 km/h
499 11-04-2014 17:10:00 18.5 C 9.18 g/m*3 18.5 C 8.1 km/h
500 11-04-2014 17:15:00 18.4 C 9.12 g/m*3 18.4 C 9.7 km/h
Sensor: Nr:Datum:Temp:Abs-Feuchte:Windchill:Wind:
Aussen-T/F 501 11-04-2014 17:20:00 18.2 C 9.17 g/m*3 18.2 C 11.3 km/h
502 11-04-2014 17:25:00 18.1 C 9.12 g/m*3 18.1 C 11.3 km/h
503 11-04-2014 17:30:00 17.8 C 8.95 g/m*3 17.8 C 9.7 km/h
504 11-04-2014 17:35:00 17.7 C 9.2 g/m*3 17.7 C 11.3 km/h
505 11-04-2014 17:40:00 17.7 C 9.2 g/m*3 17.7 C 9.7 km/h
506 11-04-2014 17:45:00 17.6 C 9.15 g/m*3 17.6 C 9.7 km/h
507 11-04-2014 17:50:00 17.4 C 9.04 g/m*3 17.4 C 9.7 km/h
508 11-04-2014 17:55:00 17.3 C 8.99 g/m*3 17.3 C 11.3 km/h
509 11-04-2014 18:00:00 17.2 C 9.08 g/m*3 17.2 C 12.9 km/h
510 11-04-2014 18:05:00 17.1 C 9.03 g/m*3 17.1 C 12.9 km/h
511 11-04-2014 18:10:00 17.1 C 9.17 g/m*3 17.1 C 11.3 km/h
512 11-04-2014 18:15:00 17.1 C 9.17 g/m*3 17.1 C 12.9 km/h
513 11-04-2014 18:20:00 17.2 C 9.23 g/m*3 17.2 C 9.7 km/h
514 11-04-2014 18:25:00 17.1 C 9.03 g/m*3 17.1 C 11.3 km/h
515 11-04-2014 18:30:00 16.9 C 9.06 g/m*3 16.9 C 9.7 km/h
516 11-04-2014 18:35:00 16.7 C 9.1 g/m*3 16.7 C 12.9 km/h
517 11-04-2014 18:40:00 16.5 C 9.13 g/m*3 16.5 C 8.1 km/h
518 11-04-2014 18:45:00 16.3 C 9.16 g/m*3 16.3 C 11.3 km/h
519 11-04-2014 18:50:00 16.2 C 9.24 g/m*3 16.2 C 17.7 km/h
520 11-04-2014 18:55:00 15.9 C 9.21 g/m*3 15.9 C 9.7 km/h
521 11-04-2014 19:00:00 15.7 C 9.1 g/m*3 15.7 C 11.3 km/h
522 11-04-2014 19:05:00 15.6 C 9.18 g/m*3 15.6 C 9.7 km/h
523 11-04-2014 19:10:00 15.6 C 9.18 g/m*3 15.6 C 8.1 km/h
524 11-04-2014 19:15:00 15.6 C 9.18 g/m*3 15.6 C 11.3 km/h
525 11-04-2014 19:20:00 15.5 C 9.12 g/m*3 15.5 C 8.1 km/h
Sensor: Nr:Datum:Temp:Abs-Feuchte:Windchill:Wind:
Aussen-T/F 526 11-04-2014 19:25:00 15.4 C 9.33 g/m*3 15.4 C 8.1 km/h
527 11-04-2014 19:30:00 15.4 C 9.33 g/m*3 15.4 C 4.8 km/h
528 11-04-2014 19:35:00 15.2 C 9.22 g/m*3 15.2 C 9.7 km/h
529 11-04-2014 19:40:00 15.1 C 9.16 g/m*3 15.1 C 8.1 km/h
530 11-04-2014 19:45:00 14.9 C 9.05 g/m*3 14.9 C 8.1 km/h
531 11-04-2014 19:50:00 14.8 C 8.99 g/m*3 14.8 C 6.4 km/h
532 11-04-2014 19:55:00 14.7 C 9.07 g/m*3 14.7 C 8.1 km/h
533 11-04-2014 20:00:00 14.6 C 9.01 g/m*3 14.6 C 6.4 km/h
534 11-04-2014 20:05:00 14.6 C 9.01 g/m*3 14.6 C 9.7 km/h
535 11-04-2014 20:10:00 14.5 C 8.95 g/m*3 14.5 C 8.1 km/h
536 11-04-2014 20:15:00 14.4 C 8.9 g/m*3 14.4 C 4.8 km/h
537 11-04-2014 20:20:00 14.4 C 8.9 g/m*3 14.4 C 6.4 km/h
538 11-04-2014 20:25:00 14.3 C 8.85 g/m*3 14.3 C 6.4 km/h
539 11-04-2014 20:30:00 14.3 C 8.97 g/m*3 14.3 C 6.4 km/h
540 11-04-2014 20:35:00 14.2 C 8.91 g/m*3 14.2 C 1.6 km/h
541 11-04-2014 20:40:00 14.2 C 8.91 g/m*3 14.2 C 3.2 km/h
542 11-04-2014 20:45:00 14.2 C 8.91 g/m*3 14.2 C 8.1 km/h
543 11-04-2014 20:50:00 14.1 C 8.98 g/m*3 14.1 C 6.4 km/h
544 11-04-2014 20:55:00 14 C 8.93 g/m*3 14 C 6.4 km/h
545 11-04-2014 21:00:00 13.9 C 8.99 g/m*3 13.9 C 3.2 km/h
546 11-04-2014 21:05:00 13.9 C 8.99 g/m*3 13.9 C 8.1 km/h
547 11-04-2014 21:10:00 13.8 C 8.94 g/m*3 13.8 C 6.4 km/h
548 11-04-2014 21:15:00 13.8 C 9.06 g/m*3 13.8 C 6.4 km/h
549 11-04-2014 21:20:00 13.7 C 9 g/m*3 13.7 C 6.4 km/h
550 11-04-2014 21:25:00 13.7 C 9 g/m*3 13.7 C 6.4 km/h
Sensor: Nr:Datum:Temp:Abs-Feuchte:Windchill:Wind:
Aussen-T/F 551 11-04-2014 21:30:00 13.6 C 9.06 g/m*3 13.6 C 6.4 km/h
552 11-04-2014 21:35:00 13.6 C 9.06 g/m*3 13.6 C 4.8 km/h
553 11-04-2014 21:40:00 13.4 C 8.95 g/m*3 13.4 C 3.2 km/h
554 11-04-2014 21:45:00 13.3 C 9.01 g/m*3 13.3 C 9.7 km/h
555 11-04-2014 21:50:00 13.3 C 9.01 g/m*3 13.3 C 8.1 km/h
556 11-04-2014 21:55:00 13.2 C 8.96 g/m*3 13.2 C 8.1 km/h
557 11-04-2014 22:00:00 13.1 C 8.9 g/m*3 13.1 C 4.8 km/h
558 11-04-2014 22:05:00 13.1 C 8.9 g/m*3 13.1 C 8.1 km/h
559 11-04-2014 22:10:00 13 C 8.85 g/m*3 13 C 8.1 km/h
560 11-04-2014 22:15:00 12.9 C 8.79 g/m*3 12.9 C 4.8 km/h
561 11-04-2014 22:20:00 12.9 C 8.9 g/m*3 12.9 C 3.2 km/h
562 11-04-2014 22:25:00 12.8 C 8.85 g/m*3 12.8 C 1.6 km/h
563 11-04-2014 22:30:00 12.8 C 8.85 g/m*3 12.8 C 9.7 km/h
564 11-04-2014 22:35:00 12.8 C 8.74 g/m*3 12.8 C 9.7 km/h
565 11-04-2014 22:40:00 12.8 C 8.74 g/m*3 12.8 C 9.7 km/h
566 11-04-2014 22:45:00 12.7 C 8.68 g/m*3 12.7 C 6.4 km/h
567 11-04-2014 22:50:00 12.7 C 8.68 g/m*3 12.7 C 6.4 km/h
568 11-04-2014 22:55:00 12.7 C 8.79 g/m*3 12.7 C 6.4 km/h
569 11-04-2014 23:00:00 12.6 C 8.74 g/m*3 12.6 C 3.2 km/h
570 11-04-2014 23:05:00 12.6 C 8.74 g/m*3 12.6 C 3.2 km/h
571 11-04-2014 23:10:00 12.5 C 8.69 g/m*3 12.5 C 8.1 km/h
572 11-04-2014 23:15:00 12.4 C 8.63 g/m*3 12.4 C 6.4 km/h
573 11-04-2014 23:20:00 12.4 C 8.63 g/m*3 12.4 C 4.8 km/h
574 11-04-2014 23:25:00 12.4 C 8.63 g/m*3 12.4 C 4.8 km/h
575 11-04-2014 23:30:00 12.3 C 8.69 g/m*3 12.3 C 1.6 km/h
Sensor: Nr:Datum:Temp:Abs-Feuchte:Windchill:Wind:
Aussen-T/F 576 11-04-2014 23:35:00 12.3 C 8.58 g/m*3 12.3 C 8.1 km/h
577 11-04-2014 23:40:00 12.2 C 8.63 g/m*3 12.2 C 3.2 km/h
578 11-04-2014 23:45:00 12.1 C 8.58 g/m*3 12.1 C 0 km/h
579 11-04-2014 23:50:00 12.1 C 8.58 g/m*3 12.1 C 8.1 km/h
580 11-04-2014 23:55:00 12 C 8.63 g/m*3 12 C 6.4 km/h
581 12-04-2014 00:00:00 11.9 C 8.58 g/m*3 11.9 C 3.2 km/h
582 12-04-2014 00:05:00 11.9 C 8.58 g/m*3 11.9 C 3.2 km/h
583 12-04-2014 00:10:00 11.9 C 8.58 g/m*3 11.9 C 6.4 km/h
584 12-04-2014 00:15:00 11.8 C 8.53 g/m*3 11.8 C 4.8 km/h
585 12-04-2014 00:20:00 11.8 C 8.53 g/m*3 11.8 C 4.8 km/h
586 12-04-2014 00:25:00 11.7 C 8.47 g/m*3 11.7 C 6.4 km/h
587 12-04-2014 00:30:00 11.6 C 8.42 g/m*3 11.6 C 0 km/h
588 12-04-2014 00:35:00 11.4 C 8.42 g/m*3 11.4 C 0 km/h
589 12-04-2014 00:40:00 11.1 C 8.36 g/m*3 11.1 C 1.6 km/h
590 12-04-2014 00:45:00 10.9 C 8.36 g/m*3 10.9 C 3.2 km/h
591 12-04-2014 00:50:00 10.8 C 8.3 g/m*3 10.8 C 3.2 km/h
592 12-04-2014 00:55:00 10.8 C 8.3 g/m*3 10.8 C 1.6 km/h
593 12-04-2014 01:00:00 10.6 C 8.3 g/m*3 10.6 C 0 km/h
594 12-04-2014 01:05:00 10.4 C 8.19 g/m*3 10.4 C 1.6 km/h
595 12-04-2014 01:10:00 10.3 C 8.24 g/m*3 10.3 C 1.6 km/h
596 12-04-2014 01:15:00 10.2 C 8.28 g/m*3 10.2 C 3.2 km/h
597 12-04-2014 01:20:00 10.1 C 8.23 g/m*3 10.1 C 0 km/h
598 12-04-2014 01:25:00 10.1 C 8.32 g/m*3 10.1 C 3.2 km/h
599 12-04-2014 01:30:00 10.1 C 8.32 g/m*3 10.1 C 1.6 km/h
600 12-04-2014 01:35:00 10.2 C 8.37 g/m*3 10.2 C 3.2 km/h
Sensor: Nr:Datum:Temp:Abs-Feuchte:Windchill:Wind:
Aussen-T/F 601 12-04-2014 01:40:00 10.1 C 8.23 g/m*3 10.1 C 1.6 km/h
602 12-04-2014 01:45:00 10.1 C 8.23 g/m*3 10.1 C 0 km/h
603 12-04-2014 01:50:00 10 C 8.17 g/m*3 10 C 0 km/h
604 12-04-2014 01:55:00 9.9 C 8.22 g/m*3 9.25 C 6.4 km/h
605 12-04-2014 02:00:00 9.8 C 8.16 g/m*3 9.8 C 3.2 km/h
606 12-04-2014 02:05:00 9.8 C 8.16 g/m*3 9.8 C 0 km/h
607 12-04-2014 02:10:00 9.8 C 8.16 g/m*3 9.8 C 1.6 km/h
608 12-04-2014 02:15:00 9.8 C 8.16 g/m*3 9.8 C 0 km/h
609 12-04-2014 02:20:00 9.8 C 8.16 g/m*3 9.8 C 0 km/h
610 12-04-2014 02:25:00 9.8 C 8.16 g/m*3 9.8 C 0 km/h
611 12-04-2014 02:30:00 9.9 C 8.12 g/m*3 9.9 C 0 km/h
612 12-04-2014 02:35:00 9.9 C 8.22 g/m*3 9.9 C 0 km/h
613 12-04-2014 02:40:00 9.9 C 8.12 g/m*3 9.9 C 1.6 km/h
614 12-04-2014 02:45:00 9.9 C 8.12 g/m*3 9.9 C 0 km/h
615 12-04-2014 02:50:00 10 C 8.08 g/m*3 10 C 1.6 km/h
616 12-04-2014 02:55:00 10 C 8.08 g/m*3 10 C 0 km/h
617 12-04-2014 03:00:00 9.9 C 8.03 g/m*3 9.9 C 0 km/h
618 12-04-2014 03:05:00 9.9 C 8.03 g/m*3 9.9 C 0 km/h
619 12-04-2014 03:10:00 9.9 C 8.03 g/m*3 9.9 C 0 km/h
620 12-04-2014 03:15:00 9.8 C 7.89 g/m*3 9.8 C 0 km/h
621 12-04-2014 03:20:00 9.8 C 7.89 g/m*3 8.75 C 8.1 km/h
622 12-04-2014 03:25:00 9.8 C 7.89 g/m*3 9.8 C 3.2 km/h
623 12-04-2014 03:30:00 9.8 C 7.89 g/m*3 9.8 C 1.6 km/h
624 12-04-2014 03:35:00 9.8 C 7.89 g/m*3 9.8 C 1.6 km/h
625 12-04-2014 03:40:00 9.8 C 7.89 g/m*3 9.8 C 0 km/h
Sensor: Nr:Datum:Temp:Abs-Feuchte:Windchill:Wind:
Aussen-T/F 626 12-04-2014 03:45:00 9.8 C 7.89 g/m*3 9.8 C 0 km/h
627 12-04-2014 03:50:00 9.8 C 7.89 g/m*3 9.8 C 0 km/h
628 12-04-2014 03:55:00 9.8 C 7.89 g/m*3 9.8 C 0 km/h
629 12-04-2014 04:00:00 9.8 C 7.89 g/m*3 9.8 C 0 km/h
630 12-04-2014 04:05:00 9.8 C 7.89 g/m*3 9.8 C 0 km/h
631 12-04-2014 04:10:00 9.8 C 7.89 g/m*3 9.8 C 0 km/h
632 12-04-2014 04:15:00 9.8 C 7.7 g/m*3 9.8 C 1.6 km/h
633 12-04-2014 04:20:00 9.9 C 7.75 g/m*3 9.9 C 1.6 km/h
634 12-04-2014 04:25:00 9.9 C 7.75 g/m*3 9.9 C 0 km/h
635 12-04-2014 04:30:00 9.9 C 7.66 g/m*3 9.9 C 3.2 km/h
636 12-04-2014 04:35:00 10 C 7.71 g/m*3 10 C 1.6 km/h
637 12-04-2014 04:40:00 10 C 7.8 g/m*3 10 C 3.2 km/h
638 12-04-2014 04:45:00 9.9 C 7.75 g/m*3 9.9 C 3.2 km/h
639 12-04-2014 04:50:00 9.8 C 7.79 g/m*3 9.8 C 0 km/h
640 12-04-2014 04:55:00 9.6 C 7.69 g/m*3 9.6 C 1.6 km/h
641 12-04-2014 05:00:00 9.4 C 7.69 g/m*3 9.4 C 3.2 km/h
642 12-04-2014 05:05:00 9.3 C 7.64 g/m*3 9.3 C 1.6 km/h
643 12-04-2014 05:10:00 9.2 C 7.68 g/m*3 9.2 C 0 km/h
644 12-04-2014 05:15:00 9.2 C 7.68 g/m*3 9.2 C 0 km/h
645 12-04-2014 05:20:00 9.2 C 7.77 g/m*3 9.2 C 0 km/h
646 12-04-2014 05:25:00 9.2 C 7.77 g/m*3 9.2 C 0 km/h
647 12-04-2014 05:30:00 9.2 C 7.77 g/m*3 9.2 C 0 km/h
648 12-04-2014 05:35:00 9.3 C 7.82 g/m*3 9.3 C 0 km/h
649 12-04-2014 05:40:00 9.3 C 7.82 g/m*3 9.3 C 0 km/h
650 12-04-2014 05:45:00 9.3 C 7.82 g/m*3 9.3 C 0 km/h
Sensor: Nr:Datum:Temp:Abs-Feuchte:Windchill:Wind:
Aussen-T/F 651 12-04-2014 05:50:00 9.3 C 7.82 g/m*3 9.3 C 0 km/h
652 12-04-2014 05:55:00 9.3 C 7.73 g/m*3 9.3 C 0 km/h
653 12-04-2014 06:00:00 9.3 C 7.73 g/m*3 9.3 C 0 km/h
654 12-04-2014 06:05:00 9.3 C 7.73 g/m*3 9.3 C 0 km/h
655 12-04-2014 06:10:00 9.4 C 7.78 g/m*3 9.4 C 0 km/h
656 12-04-2014 06:15:00 9.4 C 7.78 g/m*3 9.4 C 0 km/h
657 12-04-2014 06:20:00 9.3 C 7.73 g/m*3 9.3 C 0 km/h
658 12-04-2014 06:25:00 9.3 C 7.73 g/m*3 9.3 C 0 km/h
659 12-04-2014 06:30:00 9.3 C 7.73 g/m*3 9.3 C 0 km/h
660 12-04-2014 06:35:00 9.2 C 7.77 g/m*3 9.2 C 0 km/h
661 12-04-2014 06:40:00 9.1 C 7.72 g/m*3 9.1 C 0 km/h
662 12-04-2014 06:45:00 9.1 C 7.72 g/m*3 9.1 C 0 km/h
663 12-04-2014 06:50:00 9 C 7.67 g/m*3 9 C 1.6 km/h
664 12-04-2014 06:55:00 8.9 C 7.62 g/m*3 8.9 C 0 km/h
665 12-04-2014 07:00:00 9 C 7.67 g/m*3 9 C 0 km/h
666 12-04-2014 07:05:00 9 C 7.76 g/m*3 9 C 0 km/h
667 12-04-2014 07:10:00 9.1 C 7.72 g/m*3 9.1 C 0 km/h
668 12-04-2014 07:15:00 9.1 C 7.72 g/m*3 9.1 C 0 km/h
669 12-04-2014 07:20:00 9.1 C 7.81 g/m*3 9.1 C 0 km/h
670 12-04-2014 07:25:00 9.1 C 7.72 g/m*3 9.1 C 0 km/h
671 12-04-2014 07:30:00 9.1 C 7.72 g/m*3 9.1 C 0 km/h
672 12-04-2014 07:35:00 9.1 C 7.72 g/m*3 9.1 C 0 km/h
673 12-04-2014 07:40:00 9.1 C 7.72 g/m*3 9.1 C 1.6 km/h
674 12-04-2014 07:45:00 9.1 C 7.63 g/m*3 9.1 C 3.2 km/h
675 12-04-2014 07:50:00 9.1 C 7.63 g/m*3 9.1 C 1.6 km/h
Sensor: Nr:Datum:Temp:Abs-Feuchte:Windchill:Wind:
Aussen-T/F 676 12-04-2014 07:55:00 9.2 C 7.68 g/m*3 9.2 C 1.6 km/h
677 12-04-2014 08:00:00 9.2 C 7.68 g/m*3 9.2 C 1.6 km/h
678 12-04-2014 08:05:00 9.2 C 7.59 g/m*3 9.2 C 1.6 km/h
679 12-04-2014 08:10:00 9.2 C 7.59 g/m*3 9.2 C 0 km/h
680 12-04-2014 08:15:00 9.2 C 7.59 g/m*3 9.2 C 4.8 km/h
681 12-04-2014 08:20:00 9.3 C 7.55 g/m*3 9.3 C 1.6 km/h
682 12-04-2014 08:25:00 9.3 C 7.55 g/m*3 9.3 C 0 km/h
683 12-04-2014 08:30:00 9.3 C 7.55 g/m*3 9.3 C 0 km/h
684 12-04-2014 08:35:00 9.4 C 7.69 g/m*3 9.4 C 1.6 km/h
685 12-04-2014 08:40:00 9.5 C 7.65 g/m*3 9.5 C 4.8 km/h
686 12-04-2014 08:45:00 9.6 C 7.69 g/m*3 9.6 C 3.2 km/h
687 12-04-2014 08:50:00 9.6 C 7.69 g/m*3 9.6 C 3.2 km/h
688 12-04-2014 08:55:00 9.7 C 7.74 g/m*3 9.7 C 3.2 km/h
689 12-04-2014 09:00:00 9.7 C 7.74 g/m*3 9.7 C 3.2 km/h
690 12-04-2014 09:05:00 9.8 C 7.7 g/m*3 9.8 C 3.2 km/h
691 12-04-2014 09:10:00 9.8 C 7.7 g/m*3 9.8 C 4.8 km/h
692 12-04-2014 09:15:00 9.9 C 7.75 g/m*3 9.9 C 1.6 km/h
693 12-04-2014 09:20:00 10 C 7.71 g/m*3 10 C 4.8 km/h
694 12-04-2014 09:25:00 10.1 C 7.75 g/m*3 10.1 C 4.8 km/h
695 12-04-2014 09:30:00 10.1 C 7.85 g/m*3 10.1 C 1.6 km/h
696 12-04-2014 09:35:00 10.1 C 7.75 g/m*3 10.1 C 1.6 km/h
697 12-04-2014 09:40:00 10.2 C 7.8 g/m*3 10.2 C 4.8 km/h
698 12-04-2014 09:45:00 10.3 C 7.76 g/m*3 10.3 C 1.6 km/h
699 12-04-2014 09:50:00 10.3 C 7.66 g/m*3 10.3 C 1.6 km/h
700 12-04-2014 09:55:00 10.4 C 7.81 g/m*3 10.4 C 3.2 km/h
Sensor: Nr:Datum:Temp:Abs-Feuchte:Windchill:Wind:
Aussen-T/F 701 12-04-2014 10:00:00 10.6 C 7.91 g/m*3 10.6 C 4.8 km/h
702 12-04-2014 10:05:00 10.8 C 8.01 g/m*3 10.29 C 6.4 km/h
703 12-04-2014 10:10:00 10.9 C 7.96 g/m*3 10.9 C 3.2 km/h
704 12-04-2014 10:15:00 11.2 C 8.01 g/m*3 11.2 C 3.2 km/h
705 12-04-2014 10:20:00 11.3 C 8.06 g/m*3 11.3 C 3.2 km/h
706 12-04-2014 10:25:00 11.5 C 8.26 g/m*3 11.5 C 6.4 km/h
707 12-04-2014 10:30:00 11.6 C 8.21 g/m*3 11.6 C 9.7 km/h
708 12-04-2014 10:35:00 11.6 C 8.21 g/m*3 11.6 C 6.4 km/h
709 12-04-2014 10:40:00 11.8 C 8.31 g/m*3 11.8 C 3.2 km/h
710 12-04-2014 10:45:00 12 C 8.31 g/m*3 12 C 4.8 km/h
711 12-04-2014 10:50:00 12.1 C 8.36 g/m*3 12.1 C 6.4 km/h
712 12-04-2014 10:55:00 12.1 C 8.26 g/m*3 12.1 C 4.8 km/h
713 12-04-2014 11:00:00 12.2 C 8.31 g/m*3 12.2 C 6.4 km/h
714 12-04-2014 11:05:00 12.2 C 8.2 g/m*3 12.2 C 6.4 km/h
715 12-04-2014 11:10:00 12.2 C 8.2 g/m*3 12.2 C 6.4 km/h
716 12-04-2014 11:15:00 12.3 C 8.36 g/m*3 12.3 C 6.4 km/h
717 12-04-2014 11:20:00 12.4 C 8.3 g/m*3 12.4 C 6.4 km/h
718 12-04-2014 11:25:00 12.7 C 8.35 g/m*3 12.7 C 6.4 km/h
719 12-04-2014 11:30:00 12.7 C 8.35 g/m*3 12.7 C 4.8 km/h
720 12-04-2014 11:35:00 12.8 C 8.29 g/m*3 12.8 C 4.8 km/h
721 12-04-2014 11:40:00 13 C 8.28 g/m*3 13 C 11.3 km/h
722 12-04-2014 11:45:00 13 C 8.39 g/m*3 13 C 11.3 km/h
723 12-04-2014 11:50:00 13.2 C 8.61 g/m*3 13.2 C 8.1 km/h
724 12-04-2014 11:55:00 13.3 C 8.66 g/m*3 13.3 C 3.2 km/h
725 12-04-2014 12:00:00 13.3 C 8.32 g/m*3 13.3 C 4.8 km/h
Sensor: Nr:Datum:Temp:Abs-Feuchte:Windchill:Wind:
Aussen-T/F 726 12-04-2014 12:05:00 13.4 C 8.6 g/m*3 13.4 C 6.4 km/h
727 12-04-2014 12:10:00 13.4 C 8.6 g/m*3 13.4 C 8.1 km/h
728 12-04-2014 12:15:00 13.7 C 8.64 g/m*3 13.7 C 3.2 km/h
729 12-04-2014 12:20:00 13.8 C 8.46 g/m*3 13.8 C 6.4 km/h
730 12-04-2014 12:25:00 13.9 C 8.63 g/m*3 13.9 C 6.4 km/h
731 12-04-2014 12:30:00 13.9 C 8.51 g/m*3 13.9 C 9.7 km/h
732 12-04-2014 12:35:00 13.9 C 8.51 g/m*3 13.9 C 6.4 km/h
733 12-04-2014 12:40:00 14.1 C 8.5 g/m*3 14.1 C 4.8 km/h
734 12-04-2014 12:45:00 14.4 C 8.65 g/m*3 14.4 C 3.2 km/h
735 12-04-2014 12:50:00 14.7 C 8.94 g/m*3 14.7 C 4.8 km/h
736 12-04-2014 12:55:00 15.1 C 9.16 g/m*3 15.1 C 6.4 km/h
737 12-04-2014 13:00:00 15.4 C 9.07 g/m*3 15.4 C 8.1 km/h
738 12-04-2014 13:05:00 15.6 C 8.78 g/m*3 15.6 C 3.2 km/h
739 12-04-2014 13:10:00 15.6 C 8.78 g/m*3 15.6 C 6.4 km/h
740 12-04-2014 13:15:00 15.8 C 8.75 g/m*3 15.8 C 8.1 km/h
741 12-04-2014 13:20:00 15.9 C 8.53 g/m*3 15.9 C 8.1 km/h
742 12-04-2014 13:25:00 15.8 C 8.62 g/m*3 15.8 C 6.4 km/h
743 12-04-2014 13:30:00 16 C 8.72 g/m*3 16 C 3.2 km/h
744 12-04-2014 13:35:00 16.4 C 8.65 g/m*3 16.4 C 11.3 km/h
745 12-04-2014 13:40:00 16.5 C 8.57 g/m*3 16.5 C 6.4 km/h
746 12-04-2014 13:45:00 16.4 C 8.51 g/m*3 16.4 C 8.1 km/h
747 12-04-2014 13:50:00 16.4 C 8.65 g/m*3 16.4 C 9.7 km/h
748 12-04-2014 13:55:00 16.6 C 8.33 g/m*3 16.6 C 4.8 km/h
749 12-04-2014 14:00:00 16.8 C 8.44 g/m*3 16.8 C 9.7 km/h
750 12-04-2014 14:05:00 16.8 C 8.58 g/m*3 16.8 C 6.4 km/h
Sensor: Nr:Datum:Temp:Abs-Feuchte:Windchill:Wind:
Aussen-T/F 751 12-04-2014 14:10:00 16.9 C 8.05 g/m*3 16.9 C 6.4 km/h
752 12-04-2014 14:15:00 17.1 C 7.86 g/m*3 17.1 C 9.7 km/h
753 12-04-2014 14:20:00 17.3 C 7.81 g/m*3 17.3 C 12.9 km/h
754 12-04-2014 14:25:00 17.3 C 7.66 g/m*3 17.3 C 6.4 km/h
755 12-04-2014 14:30:00 17.1 C 7.57 g/m*3 17.1 C 6.4 km/h
756 12-04-2014 14:35:00 17 C 7.96 g/m*3 17 C 11.3 km/h
757 12-04-2014 14:40:00 16.9 C 7.62 g/m*3 16.9 C 12.9 km/h
758 12-04-2014 14:45:00 16.8 C 8.01 g/m*3 16.8 C 8.1 km/h
759 12-04-2014 14:50:00 16.7 C 7.96 g/m*3 16.7 C 11.3 km/h
760 12-04-2014 14:55:00 16.8 C 7.58 g/m*3 16.8 C 9.7 km/h
761 12-04-2014 15:00:00 16.8 C 7.29 g/m*3 16.8 C 8.1 km/h
762 12-04-2014 15:05:00 16.7 C 7.67 g/m*3 16.7 C 11.3 km/h
763 12-04-2014 15:10:00 16.8 C 7.72 g/m*3 16.8 C 9.7 km/h
764 12-04-2014 15:15:00 17.2 C 7.91 g/m*3 17.2 C 8.1 km/h
765 12-04-2014 15:20:00 17.3 C 7.51 g/m*3 17.3 C 6.4 km/h
766 12-04-2014 15:25:00 17.3 C 7.81 g/m*3 17.3 C 4.8 km/h
767 12-04-2014 15:30:00 17.6 C 7.8 g/m*3 17.6 C 8.1 km/h
768 12-04-2014 15:35:00 17.9 C 7.94 g/m*3 17.9 C 12.9 km/h
769 12-04-2014 15:40:00 18 C 7.99 g/m*3 18 C 8.1 km/h
770 12-04-2014 15:45:00 18.2 C 7.93 g/m*3 18.2 C 12.9 km/h
771 12-04-2014 15:50:00 18.3 C 7.97 g/m*3 18.3 C 11.3 km/h
772 12-04-2014 15:55:00 18.5 C 8.07 g/m*3 18.5 C 8.1 km/h
773 12-04-2014 16:00:00 18.3 C 7.35 g/m*3 18.3 C 6.4 km/h
774 12-04-2014 16:05:00 18.2 C 7.77 g/m*3 18.2 C 12.9 km/h
775 12-04-2014 16:10:00 18.1 C 6.95 g/m*3 18.1 C 9.7 km/h
Sensor: Nr:Datum:Temp:Abs-Feuchte:Windchill:Wind:
Aussen-T/F 776 12-04-2014 16:15:00 18.1 C 6.95 g/m*3 18.1 C 12.9 km/h
777 12-04-2014 16:20:00 18.2 C 6.99 g/m*3 18.2 C 4.8 km/h
778 12-04-2014 16:25:00 18.2 C 7.46 g/m*3 18.2 C 4.8 km/h
779 12-04-2014 16:30:00 18.2 C 7.31 g/m*3 18.2 C 11.3 km/h
780 12-04-2014 16:35:00 18.3 C 6.88 g/m*3 18.3 C 6.4 km/h
781 12-04-2014 16:40:00 18.3 C 6.72 g/m*3 18.3 C 6.4 km/h
782 12-04-2014 16:45:00 18.3 C 6.25 g/m*3 18.3 C 8.1 km/h
783 12-04-2014 16:50:00 18.2 C 6.53 g/m*3 18.2 C 4.8 km/h
784 12-04-2014 16:55:00 18.1 C 6.49 g/m*3 18.1 C 8.1 km/h
785 12-04-2014 17:00:00 18.1 C 6.33 g/m*3 18.1 C 9.7 km/h
786 12-04-2014 17:05:00 18.2 C 6.99 g/m*3 18.2 C 9.7 km/h
787 12-04-2014 17:10:00 17.9 C 6.72 g/m*3 17.9 C 9.7 km/h
788 12-04-2014 17:15:00 17.8 C 6.68 g/m*3 17.8 C 9.7 km/h
789 12-04-2014 17:20:00 17.5 C 7.01 g/m*3 17.5 C 11.3 km/h
790 12-04-2014 17:25:00 17.2 C 7.03 g/m*3 17.2 C 6.4 km/h
791 12-04-2014 17:30:00 17 C 6.8 g/m*3 17 C 11.3 km/h
792 12-04-2014 17:35:00 16.9 C 7.34 g/m*3 16.9 C 9.7 km/h
793 12-04-2014 17:40:00 16.8 C 7.01 g/m*3 16.8 C 11.3 km/h
794 12-04-2014 17:45:00 16.6 C 7.2 g/m*3 16.6 C 8.1 km/h
795 12-04-2014 17:50:00 16.4 C 7.12 g/m*3 16.4 C 9.7 km/h
796 12-04-2014 17:55:00 16.3 C 7.08 g/m*3 16.3 C 14.5 km/h
797 12-04-2014 18:00:00 16.2 C 7.03 g/m*3 16.2 C 9.7 km/h
798 12-04-2014 18:05:00 16.1 C 6.85 g/m*3 16.1 C 11.3 km/h
799 12-04-2014 18:10:00 16 C 7.08 g/m*3 16 C 6.4 km/h
800 12-04-2014 18:15:00 15.9 C 6.77 g/m*3 15.9 C 8.1 km/h
Sensor: Nr:Datum:Temp:Abs-Feuchte:Windchill:Wind:
Aussen-T/F 801 12-04-2014 18:20:00 15.9 C 6.91 g/m*3 15.9 C 4.8 km/h
802 12-04-2014 18:25:00 15.8 C 6.87 g/m*3 15.8 C 9.7 km/h
803 12-04-2014 18:30:00 15.7 C 7.09 g/m*3 15.7 C 8.1 km/h
804 12-04-2014 18:35:00 15.7 C 7.23 g/m*3 15.7 C 6.4 km/h
805 12-04-2014 18:40:00 15.6 C 7.18 g/m*3 15.6 C 8.1 km/h
806 12-04-2014 18:45:00 15.6 C 7.18 g/m*3 15.6 C 8.1 km/h
807 12-04-2014 18:50:00 15.5 C 7.01 g/m*3 15.5 C 9.7 km/h
808 12-04-2014 18:55:00 15.4 C 6.96 g/m*3 15.4 C 6.4 km/h
809 12-04-2014 19:00:00 15.4 C 6.96 g/m*3 15.4 C 8.1 km/h
810 12-04-2014 19:05:00 15.4 C 6.96 g/m*3 15.4 C 12.9 km/h
811 12-04-2014 19:10:00 15.3 C 6.92 g/m*3 15.3 C 6.4 km/h
812 12-04-2014 19:15:00 15.3 C 6.92 g/m*3 15.3 C 6.4 km/h
813 12-04-2014 19:20:00 15.2 C 7.01 g/m*3 15.2 C 9.7 km/h
814 12-04-2014 19:25:00 15.1 C 6.84 g/m*3 15.1 C 8.1 km/h
815 12-04-2014 19:30:00 15.1 C 6.84 g/m*3 15.1 C 3.2 km/h
816 12-04-2014 19:35:00 15.1 C 6.84 g/m*3 15.1 C 8.1 km/h
817 12-04-2014 19:55:00 14.6 C 6.88 g/m*3 14.6 C 8.1 km/h
818 12-04-2014 20:00:00 14.5 C 6.84 g/m*3 14.5 C 6.4 km/h
819 12-04-2014 20:05:00 14.4 C 6.8 g/m*3 14.4 C 4.8 km/h
820 12-04-2014 20:10:00 14.3 C 6.76 g/m*3 14.3 C 6.4 km/h
821 12-04-2014 20:15:00 14.2 C 6.59 g/m*3 14.2 C 9.7 km/h
822 12-04-2014 20:20:00 14.2 C 6.59 g/m*3 14.2 C 6.4 km/h
823 12-04-2014 20:25:00 14.1 C 6.67 g/m*3 14.1 C 6.4 km/h
824 12-04-2014 20:30:00 14.1 C 6.67 g/m*3 14.1 C 1.6 km/h
825 12-04-2014 20:35:00 13.9 C 6.71 g/m*3 13.9 C 9.7 km/h
Sensor: Nr:Datum:Temp:Abs-Feuchte:Windchill:Wind:
Aussen-T/F 826 12-04-2014 20:40:00 13.9 C 6.71 g/m*3 13.9 C 6.4 km/h
827 12-04-2014 20:45:00 13.9 C 6.71 g/m*3 13.9 C 3.2 km/h
828 12-04-2014 20:50:00 13.8 C 6.79 g/m*3 13.8 C 0 km/h
829 12-04-2014 20:55:00 13.7 C 7.1 g/m*3 13.7 C 3.2 km/h
830 12-04-2014 21:00:00 13.6 C 6.83 g/m*3 13.6 C 3.2 km/h
831 12-04-2014 21:05:00 13.6 C 6.83 g/m*3 13.6 C 4.8 km/h
832 12-04-2014 21:10:00 13.6 C 6.83 g/m*3 13.6 C 3.2 km/h
833 12-04-2014 21:15:00 13.6 C 6.83 g/m*3 13.6 C 4.8 km/h
834 12-04-2014 21:20:00 13.6 C 7.06 g/m*3 13.6 C 1.6 km/h
835 12-04-2014 21:25:00 13.4 C 7.21 g/m*3 13.4 C 0 km/h
836 12-04-2014 21:30:00 13.3 C 7.16 g/m*3 13.3 C 3.2 km/h
837 12-04-2014 21:35:00 13.2 C 7.35 g/m*3 13.2 C 4.8 km/h
838 12-04-2014 21:40:00 13.1 C 7.3 g/m*3 13.1 C 6.4 km/h
839 12-04-2014 21:45:00 13 C 7.37 g/m*3 13 C 0 km/h
840 12-04-2014 21:50:00 12.8 C 7.28 g/m*3 12.8 C 1.6 km/h
841 12-04-2014 21:55:00 12.6 C 7.19 g/m*3 12.6 C 1.6 km/h
842 12-04-2014 22:00:00 12.4 C 7.32 g/m*3 12.4 C 0 km/h
843 12-04-2014 22:05:00 12.2 C 7.23 g/m*3 12.2 C 0 km/h
844 12-04-2014 22:10:00 12.2 C 7.23 g/m*3 12.2 C 0 km/h
845 12-04-2014 22:15:00 12.1 C 7.29 g/m*3 12.1 C 1.6 km/h
846 12-04-2014 22:20:00 11.9 C 7.1 g/m*3 11.9 C 0 km/h
847 12-04-2014 22:25:00 11.8 C 7.05 g/m*3 11.8 C 0 km/h
848 12-04-2014 22:30:00 11.8 C 7.16 g/m*3 11.8 C 3.2 km/h
849 12-04-2014 22:35:00 11.8 C 7.26 g/m*3 11.8 C 0 km/h
850 12-04-2014 22:40:00 11.8 C 7.26 g/m*3 11.8 C 0 km/h
Sensor: Nr:Datum:Temp:Abs-Feuchte:Windchill:Wind:
Aussen-T/F 851 12-04-2014 22:45:00 11.8 C 7.16 g/m*3 11.8 C 0 km/h
852 12-04-2014 22:50:00 11.8 C 6.95 g/m*3 11.8 C 0 km/h
853 12-04-2014 22:55:00 11.8 C 6.84 g/m*3 11.8 C 3.2 km/h
854 12-04-2014 23:00:00 11.9 C 6.78 g/m*3 11.9 C 0 km/h
855 12-04-2014 23:05:00 12 C 7.03 g/m*3 12 C 1.6 km/h
856 12-04-2014 23:10:00 11.9 C 6.67 g/m*3 11.9 C 1.6 km/h
857 12-04-2014 23:15:00 11.9 C 6.88 g/m*3 11.9 C 3.2 km/h
858 12-04-2014 23:20:00 11.9 C 6.88 g/m*3 11.9 C 1.6 km/h
859 12-04-2014 23:25:00 11.9 C 6.99 g/m*3 11.9 C 1.6 km/h
860 12-04-2014 23:30:00 11.8 C 7.16 g/m*3 11.8 C 0 km/h
861 12-04-2014 23:35:00 11.7 C 7.01 g/m*3 11.7 C 0 km/h
862 12-04-2014 23:40:00 11.7 C 7.11 g/m*3 11.7 C 1.6 km/h
863 12-04-2014 23:45:00 11.6 C 7.28 g/m*3 11.6 C 1.6 km/h
864 12-04-2014 23:50:00 11.6 C 7.17 g/m*3 11.6 C 3.2 km/h
865 12-04-2014 23:55:00 11.6 C 7.17 g/m*3 11.6 C 0 km/h
866 13-04-2014 00:00:00 11.6 C 7.07 g/m*3 11.6 C 0 km/h
867 13-04-2014 00:05:00 11.6 C 7.17 g/m*3 11.6 C 1.6 km/h
868 13-04-2014 00:10:00 11.6 C 7.28 g/m*3 11.6 C 0 km/h
869 13-04-2014 00:15:00 11.6 C 7.28 g/m*3 11.6 C 0 km/h
870 13-04-2014 00:20:00 11.5 C 7.23 g/m*3 11.5 C 0 km/h
871 13-04-2014 00:25:00 11.4 C 7.19 g/m*3 11.4 C 0 km/h
872 13-04-2014 00:30:00 11.4 C 7.29 g/m*3 11.4 C 0 km/h
873 13-04-2014 00:35:00 11.4 C 7.29 g/m*3 11.4 C 0 km/h
874 13-04-2014 00:40:00 11.4 C 7.29 g/m*3 11.4 C 1.6 km/h
875 13-04-2014 00:45:00 11.3 C 7.24 g/m*3 11.3 C 0 km/h
Sensor: Nr:Datum:Temp:Abs-Feuchte:Windchill:Wind:
Aussen-T/F 876 13-04-2014 00:50:00 11.3 C 7.34 g/m*3 11.3 C 1.6 km/h
877 13-04-2014 00:55:00 11.2 C 7.3 g/m*3 11.2 C 0 km/h
878 13-04-2014 01:00:00 11.1 C 7.35 g/m*3 11.1 C 0 km/h
879 13-04-2014 01:05:00 11.1 C 7.15 g/m*3 11.1 C 0 km/h
880 13-04-2014 01:10:00 11.1 C 7.35 g/m*3 11.1 C 3.2 km/h
881 13-04-2014 01:15:00 11.1 C 7.45 g/m*3 11.1 C 3.2 km/h
882 13-04-2014 01:20:00 11.1 C 7.45 g/m*3 11.1 C 3.2 km/h
883 13-04-2014 01:25:00 11.1 C 7.45 g/m*3 11.1 C 3.2 km/h
884 13-04-2014 01:30:00 11.1 C 7.35 g/m*3 11.1 C 1.6 km/h
885 13-04-2014 01:35:00 11.1 C 7.45 g/m*3 11.1 C 3.2 km/h
886 13-04-2014 01:40:00 11.1 C 7.35 g/m*3 11.1 C 0 km/h
887 13-04-2014 01:45:00 11 C 7.41 g/m*3 11 C 0 km/h
888 13-04-2014 01:50:00 10.9 C 7.16 g/m*3 10.9 C 3.2 km/h
889 13-04-2014 01:55:00 11.1 C 7.35 g/m*3 11.1 C 1.6 km/h
890 13-04-2014 02:00:00 11.1 C 7.45 g/m*3 11.1 C 1.6 km/h
891 13-04-2014 02:05:00 11.1 C 7.25 g/m*3 11.1 C 1.6 km/h
892 13-04-2014 02:10:00 11.1 C 7.35 g/m*3 11.1 C 0 km/h
893 13-04-2014 02:15:00 11.1 C 7.35 g/m*3 11.1 C 3.2 km/h
894 13-04-2014 02:20:00 11.1 C 7.25 g/m*3 11.1 C 1.6 km/h
895 13-04-2014 02:25:00 11.1 C 7.35 g/m*3 11.1 C 1.6 km/h
896 13-04-2014 02:30:00 11 C 7.41 g/m*3 11 C 1.6 km/h
897 13-04-2014 02:35:00 10.8 C 7.41 g/m*3 10.8 C 0 km/h
898 13-04-2014 02:40:00 10.6 C 7.32 g/m*3 10.6 C 1.6 km/h
899 13-04-2014 02:45:00 10.3 C 7.18 g/m*3 10.3 C 1.6 km/h
900 13-04-2014 02:50:00 10.3 C 7.28 g/m*3 10.3 C 1.6 km/h
Sensor: Nr:Datum:Temp:Abs-Feuchte:Windchill:Wind:
Aussen-T/F 901 13-04-2014 02:55:00 10.2 C 7.33 g/m*3 10.2 C 0 km/h
902 13-04-2014 03:00:00 10.1 C 7.28 g/m*3 10.1 C 3.2 km/h
903 13-04-2014 03:05:00 10.1 C 7.28 g/m*3 10.1 C 1.6 km/h
904 13-04-2014 03:10:00 9.9 C 7.28 g/m*3 9.9 C 0 km/h
905 13-04-2014 03:15:00 9.8 C 7.14 g/m*3 9.8 C 0 km/h
906 13-04-2014 03:20:00 9.7 C 7.28 g/m*3 9.7 C 0 km/h
907 13-04-2014 03:25:00 9.7 C 7.19 g/m*3 9.7 C 0 km/h
908 13-04-2014 03:30:00 9.7 C 7.19 g/m*3 9.7 C 0 km/h
909 13-04-2014 03:35:00 9.8 C 7.33 g/m*3 9.8 C 0 km/h
910 13-04-2014 03:40:00 10 C 7.14 g/m*3 10 C 3.2 km/h
911 13-04-2014 03:45:00 10.2 C 7.33 g/m*3 10.2 C 0 km/h
912 13-04-2014 03:50:00 10.3 C 7.47 g/m*3 10.3 C 0 km/h
913 13-04-2014 03:55:00 10.3 C 7.37 g/m*3 10.3 C 3.2 km/h
914 13-04-2014 04:00:00 10.3 C 7.37 g/m*3 10.3 C 0 km/h
915 13-04-2014 04:05:00 10.2 C 7.33 g/m*3 10.2 C 0 km/h
916 13-04-2014 04:10:00 10.2 C 7.33 g/m*3 10.2 C 0 km/h
917 13-04-2014 04:15:00 10 C 7.33 g/m*3 10 C 1.6 km/h
918 13-04-2014 04:20:00 9.8 C 7.24 g/m*3 9.8 C 0 km/h
919 13-04-2014 04:25:00 9.5 C 7.19 g/m*3 9.5 C 0 km/h
920 13-04-2014 04:30:00 9.4 C 7.24 g/m*3 9.4 C 1.6 km/h
921 13-04-2014 04:35:00 9.3 C 7.19 g/m*3 9.3 C 0 km/h
922 13-04-2014 04:40:00 9.3 C 7.19 g/m*3 9.3 C 3.2 km/h
923 13-04-2014 04:45:00 9.4 C 7.24 g/m*3 9.4 C 0 km/h
924 13-04-2014 04:50:00 9.4 C 7.15 g/m*3 9.4 C 1.6 km/h
925 13-04-2014 04:55:00 9.5 C 7.19 g/m*3 9.5 C 1.6 km/h
Sensor: Nr:Datum:Temp:Abs-Feuchte:Windchill:Wind:
Aussen-T/F 926 13-04-2014 05:00:00 9.4 C 7.15 g/m*3 9.4 C 1.6 km/h
927 13-04-2014 05:05:00 9.3 C 7.1 g/m*3 9.3 C 0 km/h
928 13-04-2014 05:10:00 9.2 C 7.14 g/m*3 9.2 C 0 km/h
929 13-04-2014 05:15:00 9 C 7.14 g/m*3 9 C 0 km/h
930 13-04-2014 05:20:00 8.8 C 7.05 g/m*3 8.8 C 3.2 km/h
931 13-04-2014 05:25:00 8.7 C 7.09 g/m*3 8.7 C 0 km/h
932 13-04-2014 05:30:00 8.5 C 7 g/m*3 8.5 C 0 km/h
933 13-04-2014 05:35:00 8.4 C 6.96 g/m*3 8.4 C 0 km/h
934 13-04-2014 05:40:00 8.3 C 7 g/m*3 8.3 C 1.6 km/h
935 13-04-2014 05:45:00 8.1 C 6.91 g/m*3 8.1 C 0 km/h
936 13-04-2014 05:50:00 8 C 6.94 g/m*3 8 C 1.6 km/h
937 13-04-2014 05:55:00 7.9 C 6.82 g/m*3 7.9 C 1.6 km/h
938 13-04-2014 06:00:00 7.8 C 6.94 g/m*3 7.8 C 1.6 km/h
939 13-04-2014 06:05:00 7.8 C 6.94 g/m*3 7.8 C 3.2 km/h
940 13-04-2014 06:10:00 7.7 C 6.89 g/m*3 7.7 C 0 km/h
941 13-04-2014 06:15:00 7.6 C 6.85 g/m*3 7.6 C 0 km/h
942 13-04-2014 06:20:00 7.5 C 6.88 g/m*3 7.5 C 0 km/h
943 13-04-2014 06:25:00 7.4 C 6.76 g/m*3 7.4 C 0 km/h
944 13-04-2014 06:30:00 7.4 C 6.84 g/m*3 7.4 C 0 km/h
945 13-04-2014 06:35:00 7.3 C 6.79 g/m*3 7.3 C 3.2 km/h
946 13-04-2014 06:40:00 7.3 C 6.79 g/m*3 7.3 C 1.6 km/h
947 13-04-2014 06:45:00 7.2 C 6.75 g/m*3 7.2 C 0 km/h
948 13-04-2014 06:50:00 7.1 C 6.71 g/m*3 7.1 C 0 km/h
949 13-04-2014 06:55:00 6.9 C 6.7 g/m*3 6.9 C 0 km/h
950 13-04-2014 07:00:00 6.9 C 6.7 g/m*3 6.9 C 4.8 km/h
Sensor: Nr:Datum:Temp:Abs-Feuchte:Windchill:Wind:
Aussen-T/F 951 13-04-2014 07:05:00 6.8 C 6.73 g/m*3 6.8 C 0 km/h
952 13-04-2014 07:10:00 6.8 C 6.73 g/m*3 6.8 C 0 km/h
953 13-04-2014 07:15:00 6.7 C 6.69 g/m*3 6.7 C 0 km/h
954 13-04-2014 07:20:00 6.8 C 6.73 g/m*3 6.8 C 1.6 km/h
955 13-04-2014 07:25:00 6.7 C 6.69 g/m*3 6.7 C 0 km/h
956 13-04-2014 07:30:00 6.7 C 6.69 g/m*3 6.7 C 0 km/h
957 13-04-2014 07:35:00 6.7 C 6.69 g/m*3 6.7 C 0 km/h
958 13-04-2014 07:40:00 6.7 C 6.69 g/m*3 6.7 C 0 km/h
959 13-04-2014 07:45:00 6.7 C 6.69 g/m*3 6.7 C 0 km/h
960 13-04-2014 07:50:00 6.8 C 6.73 g/m*3 6.8 C 0 km/h
961 13-04-2014 07:55:00 6.8 C 6.73 g/m*3 6.8 C 0 km/h
962 13-04-2014 08:00:00 6.8 C 6.81 g/m*3 6.8 C 1.6 km/h
963 13-04-2014 08:05:00 6.8 C 6.81 g/m*3 6.8 C 0 km/h
964 13-04-2014 08:10:00 6.8 C 6.81 g/m*3 6.8 C 0 km/h
965 13-04-2014 08:15:00 6.9 C 6.85 g/m*3 6.9 C 0 km/h
966 13-04-2014 08:20:00 7 C 6.9 g/m*3 7 C 1.6 km/h
967 13-04-2014 08:25:00 7.1 C 6.94 g/m*3 7.1 C 1.6 km/h
968 13-04-2014 08:30:00 7.2 C 6.99 g/m*3 7.2 C 0 km/h
969 13-04-2014 08:35:00 7.3 C 7.03 g/m*3 7.3 C 0 km/h
970 13-04-2014 08:40:00 7.5 C 7.04 g/m*3 7.5 C 0 km/h
971 13-04-2014 08:45:00 7.7 C 7.14 g/m*3 7.7 C 0 km/h
972 13-04-2014 08:50:00 8.1 C 7.16 g/m*3 7.17 C 6.4 km/h
973 13-04-2014 08:55:00 8.4 C 7.13 g/m*3 8.4 C 1.6 km/h
974 13-04-2014 09:00:00 8.8 C 7.31 g/m*3 8.8 C 0 km/h
975 13-04-2014 09:05:00 8.9 C 7.27 g/m*3 8.9 C 3.2 km/h
Sensor: Nr:Datum:Temp:Abs-Feuchte:Windchill:Wind:
Aussen-T/F 976 13-04-2014 09:10:00 9.1 C 7.19 g/m*3 9.1 C 4.8 km/h
977 13-04-2014 09:15:00 9.3 C 7.37 g/m*3 9.3 C 1.6 km/h
978 13-04-2014 09:20:00 9.3 C 7.28 g/m*3 9.3 C 4.8 km/h
979 13-04-2014 09:25:00 9.4 C 7.33 g/m*3 9.4 C 3.2 km/h
980 13-04-2014 09:30:00 9.6 C 7.33 g/m*3 9.6 C 4.8 km/h
981 13-04-2014 09:35:00 9.7 C 7.38 g/m*3 9.7 C 0 km/h
982 13-04-2014 09:40:00 9.7 C 7.47 g/m*3 9.7 C 0 km/h
983 13-04-2014 09:45:00 9.8 C 7.52 g/m*3 9.8 C 4.8 km/h
984 13-04-2014 09:50:00 10 C 7.33 g/m*3 10 C 4.8 km/h
985 13-04-2014 09:55:00 10.1 C 7.38 g/m*3 10.1 C 1.6 km/h
986 13-04-2014 10:00:00 10.3 C 7.37 g/m*3 10.3 C 1.6 km/h
987 13-04-2014 10:05:00 10.4 C 7.42 g/m*3 9.83 C 6.4 km/h
988 13-04-2014 10:10:00 10.6 C 7.42 g/m*3 10.6 C 3.2 km/h
989 13-04-2014 10:15:00 10.7 C 7.37 g/m*3 10.7 C 1.6 km/h
990 13-04-2014 10:20:00 10.8 C 7.51 g/m*3 10.8 C 3.2 km/h
991 13-04-2014 10:25:00 10.9 C 7.46 g/m*3 10.9 C 4.8 km/h
992 13-04-2014 10:30:00 11.1 C 7.35 g/m*3 11.1 C 4.8 km/h
993 13-04-2014 10:35:00 11.2 C 7.4 g/m*3 11.2 C 3.2 km/h
994 13-04-2014 10:40:00 11.3 C 7.45 g/m*3 11.3 C 0 km/h
995 13-04-2014 10:45:00 11.4 C 7.39 g/m*3 11.4 C 3.2 km/h
996 13-04-2014 10:50:00 11.6 C 7.48 g/m*3 11.6 C 1.6 km/h
997 13-04-2014 10:55:00 11.7 C 7.32 g/m*3 11.7 C 1.6 km/h
998 13-04-2014 11:00:00 11.9 C 7.63 g/m*3 11.9 C 3.2 km/h
999 13-04-2014 11:05:00 12.2 C 7.66 g/m*3 12.2 C 4.8 km/h
1000 13-04-2014 11:10:00 12.4 C 7.76 g/m*3 12.4 C 8.1 km/h
Sensor: Nr:Datum:Temp:Abs-Feuchte:Windchill:Wind:
Aussen-T/F 1001 13-04-2014 11:15:00 12.6 C 7.85 g/m*3 12.6 C 4.8 km/h
1002 13-04-2014 11:20:00 12.7 C 7.46 g/m*3 12.7 C 3.2 km/h
1003 13-04-2014 11:25:00 12.8 C 7.5 g/m*3 12.8 C 1.6 km/h
1004 13-04-2014 11:30:00 12.8 C 7.5 g/m*3 12.8 C 4.8 km/h
1005 13-04-2014 11:35:00 12.9 C 7.55 g/m*3 12.9 C 9.7 km/h
1006 13-04-2014 11:40:00 13 C 7.14 g/m*3 13 C 9.7 km/h
1007 13-04-2014 11:45:00 13.1 C 7.19 g/m*3 13.1 C 6.4 km/h
1008 13-04-2014 11:50:00 13.3 C 7.39 g/m*3 13.3 C 8.1 km/h
1009 13-04-2014 11:55:00 13.4 C 7.32 g/m*3 13.4 C 4.8 km/h
1010 13-04-2014 12:00:00 13.4 C 7.32 g/m*3 13.4 C 6.4 km/h
1011 13-04-2014 12:05:00 13.7 C 7.46 g/m*3 13.7 C 8.1 km/h
1012 13-04-2014 12:10:00 13.7 C 7.46 g/m*3 13.7 C 4.8 km/h
1013 13-04-2014 12:15:00 14 C 7.6 g/m*3 14 C 6.4 km/h
1014 13-04-2014 12:20:00 14.3 C 7.86 g/m*3 14.3 C 9.7 km/h
1015 13-04-2014 12:25:00 14.4 C 7.54 g/m*3 14.4 C 8.1 km/h
1016 13-04-2014 12:30:00 14.4 C 7.54 g/m*3 14.4 C 6.4 km/h
1017 13-04-2014 12:35:00 14.7 C 7.68 g/m*3 14.7 C 4.8 km/h
1018 13-04-2014 12:40:00 14.7 C 7.68 g/m*3 14.7 C 3.2 km/h
1019 13-04-2014 13:05:00 14.9 C 7.77 g/m*3 14.9 C 4.8 km/h
1020 13-04-2014 13:10:00 14.8 C 7.85 g/m*3 14.8 C 6.4 km/h
1021 13-04-2014 13:15:00 14.7 C 7.68 g/m*3 14.7 C 4.8 km/h
1022 13-04-2014 13:20:00 14.6 C 7.76 g/m*3 14.6 C 6.4 km/h
1023 13-04-2014 13:25:00 14.6 C 7.63 g/m*3 14.6 C 8.1 km/h
1024 13-04-2014 13:30:00 14.6 C 7.63 g/m*3 14.6 C 9.7 km/h
1025 13-04-2014 13:35:00 14.6 C 7.76 g/m*3 14.6 C 12.9 km/h
Sensor: Nr:Datum:Temp:Abs-Feuchte:Windchill:Wind:
Aussen-T/F 1026 13-04-2014 13:40:00 14.6 C 8.01 g/m*3 14.6 C 12.9 km/h
1027 13-04-2014 13:45:00 14.6 C 7.76 g/m*3 14.6 C 6.4 km/h
1028 13-04-2014 13:50:00 14.6 C 8.01 g/m*3 14.6 C 8.1 km/h
1029 13-04-2014 13:55:00 14.6 C 8.01 g/m*3 14.6 C 9.7 km/h
1030 13-04-2014 14:00:00 14.5 C 8.08 g/m*3 14.5 C 11.3 km/h
1031 13-04-2014 14:05:00 14.4 C 8.03 g/m*3 14.4 C 8.1 km/h
1032 13-04-2014 14:10:00 14.4 C 8.03 g/m*3 14.4 C 8.1 km/h
1033 13-04-2014 14:15:00 14.4 C 7.91 g/m*3 14.4 C 6.4 km/h
1034 13-04-2014 14:20:00 14.6 C 8.01 g/m*3 14.6 C 11.3 km/h
1035 13-04-2014 14:25:00 14.6 C 8.01 g/m*3 14.6 C 4.8 km/h
1036 13-04-2014 14:30:00 14.8 C 8.23 g/m*3 14.8 C 6.4 km/h
1037 13-04-2014 14:35:00 14.9 C 7.9 g/m*3 14.9 C 4.8 km/h
1038 13-04-2014 14:40:00 14.9 C 8.03 g/m*3 14.9 C 3.2 km/h
1039 13-04-2014 14:45:00 15 C 7.95 g/m*3 15 C 4.8 km/h
1040 13-04-2014 14:50:00 14.9 C 7.77 g/m*3 14.9 C 3.2 km/h
1041 13-04-2014 14:55:00 14.7 C 7.81 g/m*3 14.7 C 1.6 km/h
1042 13-04-2014 15:00:00 14.5 C 7.96 g/m*3 14.5 C 6.4 km/h
1043 13-04-2014 15:05:00 14.5 C 7.84 g/m*3 14.5 C 11.3 km/h
1044 13-04-2014 15:10:00 14.5 C 7.84 g/m*3 14.5 C 6.4 km/h
1045 13-04-2014 15:15:00 14.5 C 7.84 g/m*3 14.5 C 4.8 km/h
1046 13-04-2014 15:20:00 14.9 C 8.16 g/m*3 14.9 C 11.3 km/h
1047 13-04-2014 15:25:00 15.1 C 8.26 g/m*3 15.1 C 11.3 km/h
1048 13-04-2014 15:30:00 15.1 C 8.13 g/m*3 15.1 C 9.7 km/h
1049 13-04-2014 15:35:00 15.2 C 8.05 g/m*3 15.2 C 8.1 km/h
1050 13-04-2014 15:40:00 15.2 C 8.05 g/m*3 15.2 C 11.3 km/h
Sensor: Nr:Datum:Temp:Abs-Feuchte:Windchill:Wind:
Aussen-T/F 1051 13-04-2014 15:45:00 15.2 C 7.92 g/m*3 15.2 C 16.1 km/h
1052 13-04-2014 15:50:00 15.2 C 7.92 g/m*3 15.2 C 17.7 km/h
1053 13-04-2014 15:55:00 14.9 C 7.65 g/m*3 14.9 C 17.7 km/h
1054 13-04-2014 16:00:00 14.8 C 7.85 g/m*3 14.8 C 6.4 km/h
1055 13-04-2014 16:05:00 14.7 C 7.81 g/m*3 14.7 C 6.4 km/h
1056 13-04-2014 16:10:00 14.6 C 7.76 g/m*3 14.6 C 9.7 km/h
1057 13-04-2014 16:15:00 14.6 C 7.76 g/m*3 14.6 C 9.7 km/h
1058 13-04-2014 16:20:00 14.6 C 7.88 g/m*3 14.6 C 11.3 km/h
1059 13-04-2014 16:25:00 15 C 8.33 g/m*3 15 C 6.4 km/h
1060 13-04-2014 16:30:00 15.2 C 8.05 g/m*3 15.2 C 12.9 km/h
1061 13-04-2014 16:35:00 15.3 C 8.23 g/m*3 15.3 C 8.1 km/h
1062 13-04-2014 16:40:00 15.3 C 7.97 g/m*3 15.3 C 11.3 km/h
1063 13-04-2014 16:45:00 15.2 C 7.92 g/m*3 15.2 C 8.1 km/h
1064 13-04-2014 16:50:00 15 C 7.69 g/m*3 15 C 11.3 km/h
1065 13-04-2014 16:55:00 14.9 C 7.65 g/m*3 14.9 C 8.1 km/h
1066 13-04-2014 17:00:00 14.9 C 7.65 g/m*3 14.9 C 8.1 km/h
1067 13-04-2014 17:05:00 14.9 C 7.52 g/m*3 14.9 C 11.3 km/h
1068 13-04-2014 17:10:00 14.9 C 7.52 g/m*3 14.9 C 9.7 km/h
1069 13-04-2014 17:15:00 14.9 C 7.39 g/m*3 14.9 C 11.3 km/h
1070 13-04-2014 17:20:00 14.9 C 7.39 g/m*3 14.9 C 8.1 km/h
1071 13-04-2014 17:25:00 14.9 C 7.39 g/m*3 14.9 C 9.7 km/h
1072 13-04-2014 17:30:00 14.9 C 7.39 g/m*3 14.9 C 11.3 km/h
1073 13-04-2014 17:35:00 14.9 C 7.39 g/m*3 14.9 C 6.4 km/h
1074 13-04-2014 17:40:00 15.1 C 7.35 g/m*3 15.1 C 9.7 km/h
1075 13-04-2014 17:45:00 15.3 C 7.18 g/m*3 15.3 C 9.7 km/h
Sensor: Nr:Datum:Temp:Abs-Feuchte:Windchill:Wind:
Aussen-T/F 1076 13-04-2014 17:50:00 15.3 C 7.05 g/m*3 15.3 C 12.9 km/h
1077 13-04-2014 17:55:00 15.3 C 6.92 g/m*3 15.3 C 12.9 km/h
1078 13-04-2014 18:00:00 15.1 C 7.1 g/m*3 15.1 C 12.9 km/h
1079 13-04-2014 18:05:00 15.1 C 7.22 g/m*3 15.1 C 9.7 km/h
1080 13-04-2014 18:10:00 15.1 C 7.22 g/m*3 15.1 C 8.1 km/h
1081 13-04-2014 18:15:00 15.2 C 7.01 g/m*3 15.2 C 17.7 km/h
1082 13-04-2014 18:20:00 15.5 C 7.14 g/m*3 15.5 C 6.4 km/h
1083 13-04-2014 18:25:00 15.8 C 6.87 g/m*3 15.8 C 8.1 km/h
1084 13-04-2014 18:30:00 15.8 C 7 g/m*3 15.8 C 8.1 km/h
1085 13-04-2014 18:35:00 15.3 C 6.79 g/m*3 15.3 C 12.9 km/h
1086 13-04-2014 18:40:00 15 C 7.05 g/m*3 15 C 6.4 km/h
1087 13-04-2014 18:45:00 14.6 C 6.88 g/m*3 14.6 C 9.7 km/h
1088 13-04-2014 18:50:00 14.4 C 7.05 g/m*3 14.4 C 9.7 km/h
1089 13-04-2014 18:55:00 14.3 C 7 g/m*3 14.3 C 6.4 km/h
1090 13-04-2014 19:00:00 14.2 C 6.84 g/m*3 14.2 C 9.7 km/h
1091 13-04-2014 19:05:00 14.1 C 6.8 g/m*3 14.1 C 11.3 km/h
1092 13-04-2014 19:10:00 14.1 C 6.8 g/m*3 14.1 C 8.1 km/h
1093 13-04-2014 19:15:00 14.1 C 6.8 g/m*3 14.1 C 9.7 km/h
1094 13-04-2014 19:20:00 13.9 C 6.71 g/m*3 13.9 C 6.4 km/h
1095 13-04-2014 19:25:00 13.9 C 7.07 g/m*3 13.9 C 14.5 km/h
1096 13-04-2014 19:30:00 13.8 C 7.15 g/m*3 13.8 C 9.7 km/h
1097 13-04-2014 19:35:00 13.8 C 7.15 g/m*3 13.8 C 9.7 km/h
1098 13-04-2014 19:40:00 13.7 C 7.1 g/m*3 13.7 C 4.8 km/h
1099 13-04-2014 19:45:00 13.7 C 7.1 g/m*3 13.7 C 4.8 km/h
1100 13-04-2014 19:50:00 13.5 C 7.02 g/m*3 13.5 C 3.2 km/h
Sensor: Nr:Datum:Temp:Abs-Feuchte:Windchill:Wind:
Aussen-T/F 1101 13-04-2014 19:55:00 13.3 C 7.16 g/m*3 13.3 C 11.3 km/h
1102 13-04-2014 20:00:00 13.3 C 7.05 g/m*3 13.3 C 4.8 km/h
1103 13-04-2014 20:05:00 13.3 C 7.16 g/m*3 13.3 C 8.1 km/h
1104 13-04-2014 20:10:00 13.2 C 7.12 g/m*3 13.2 C 3.2 km/h
1105 13-04-2014 20:15:00 13.2 C 7.35 g/m*3 13.2 C 3.2 km/h
1106 13-04-2014 20:20:00 13.1 C 7.42 g/m*3 13.1 C 3.2 km/h
1107 13-04-2014 20:25:00 13.1 C 7.42 g/m*3 13.1 C 3.2 km/h
1108 13-04-2014 20:30:00 13.1 C 7.42 g/m*3 13.1 C 1.6 km/h
1109 13-04-2014 20:35:00 12.8 C 7.28 g/m*3 12.8 C 4.8 km/h
1110 13-04-2014 20:40:00 12.8 C 7.28 g/m*3 12.8 C 3.2 km/h
1111 13-04-2014 20:45:00 12.8 C 7.28 g/m*3 12.8 C 3.2 km/h
1112 13-04-2014 20:50:00 12.7 C 7.35 g/m*3 12.7 C 3.2 km/h
1113 13-04-2014 20:55:00 12.6 C 7.3 g/m*3 12.6 C 1.6 km/h
1114 13-04-2014 21:00:00 12.5 C 7.48 g/m*3 12.5 C 1.6 km/h
1115 13-04-2014 21:05:00 12.3 C 7.28 g/m*3 12.3 C 1.6 km/h
1116 13-04-2014 21:10:00 12.3 C 7.38 g/m*3 12.3 C 3.2 km/h
1117 13-04-2014 21:15:00 12.2 C 7.23 g/m*3 12.2 C 1.6 km/h
1118 13-04-2014 21:20:00 12.2 C 7.34 g/m*3 12.2 C 1.6 km/h
1119 13-04-2014 21:25:00 12.1 C 7.4 g/m*3 12.1 C 1.6 km/h
1120 13-04-2014 21:30:00 11.9 C 7.52 g/m*3 11.9 C 3.2 km/h
1121 13-04-2014 21:35:00 11.8 C 7.37 g/m*3 11.8 C 1.6 km/h
1122 13-04-2014 21:40:00 11.7 C 7.32 g/m*3 11.7 C 1.6 km/h
1123 13-04-2014 21:45:00 11.7 C 7.32 g/m*3 11.7 C 1.6 km/h
1124 13-04-2014 21:50:00 11.6 C 7.28 g/m*3 11.6 C 3.2 km/h
1125 13-04-2014 21:55:00 11.5 C 7.33 g/m*3 11.5 C 1.6 km/h
Sensor: Nr:Datum:Temp:Abs-Feuchte:Windchill:Wind:
Aussen-T/F 1126 13-04-2014 22:00:00 11.4 C 7.39 g/m*3 11.4 C 4.8 km/h
1127 13-04-2014 22:05:00 11.3 C 7.24 g/m*3 11.3 C 3.2 km/h
1128 13-04-2014 22:10:00 11.3 C 7.34 g/m*3 11.3 C 4.8 km/h
1129 13-04-2014 22:15:00 11.3 C 7.24 g/m*3 11.3 C 3.2 km/h
1130 13-04-2014 22:20:00 11.3 C 7.14 g/m*3 11.3 C 1.6 km/h
1131 13-04-2014 22:25:00 11.3 C 7.14 g/m*3 11.3 C 3.2 km/h
1132 13-04-2014 22:30:00 11.3 C 7.14 g/m*3 11.3 C 4.8 km/h
1133 13-04-2014 22:35:00 11.2 C 7.1 g/m*3 11.2 C 1.6 km/h
1134 13-04-2014 22:40:00 11.1 C 7.25 g/m*3 11.1 C 3.2 km/h
1135 13-04-2014 22:45:00 10.8 C 7.22 g/m*3 10.8 C 3.2 km/h
1136 13-04-2014 22:50:00 10.6 C 7.12 g/m*3 10.6 C 4.8 km/h
1137 13-04-2014 22:55:00 10.4 C 7.04 g/m*3 10.4 C 4.8 km/h
1138 13-04-2014 23:00:00 10.2 C 7.04 g/m*3 10.2 C 1.6 km/h
1139 13-04-2014 23:05:00 10.1 C 7.19 g/m*3 10.1 C 3.2 km/h
1140 13-04-2014 23:10:00 9.9 C 7.1 g/m*3 9.9 C 3.2 km/h
1141 13-04-2014 23:15:00 9.8 C 7.05 g/m*3 9.8 C 4.8 km/h
1142 13-04-2014 23:20:00 9.8 C 7.05 g/m*3 9.8 C 3.2 km/h
1143 13-04-2014 23:25:00 9.7 C 7.01 g/m*3 9.7 C 3.2 km/h
1144 13-04-2014 23:30:00 9.8 C 6.96 g/m*3 9.8 C 4.8 km/h
1145 13-04-2014 23:35:00 9.8 C 6.96 g/m*3 9.8 C 4.8 km/h
1146 13-04-2014 23:40:00 9.7 C 7.01 g/m*3 9.7 C 0 km/h
1147 13-04-2014 23:45:00 9.6 C 6.96 g/m*3 9.6 C 1.6 km/h
1148 13-04-2014 23:50:00 9.4 C 6.96 g/m*3 9.4 C 4.8 km/h
1149 13-04-2014 23:55:00 9.3 C 7.01 g/m*3 9.3 C 1.6 km/h
1150 14-04-2014 00:00:00 9.1 C 7.01 g/m*3 9.1 C 1.6 km/h
Sensor: Nr:Datum:Temp:Abs-Feuchte:Windchill:Wind:
Aussen-T/F 1151 14-04-2014 00:05:00 9 C 6.88 g/m*3 9 C 1.6 km/h
1152 14-04-2014 00:10:00 8.9 C 6.83 g/m*3 8.9 C 3.2 km/h
1153 14-04-2014 00:15:00 8.9 C 6.92 g/m*3 8.9 C 3.2 km/h
1154 14-04-2014 00:20:00 8.8 C 6.88 g/m*3 8.8 C 4.8 km/h
1155 14-04-2014 00:25:00 8.7 C 6.92 g/m*3 8.7 C 0 km/h
1156 14-04-2014 00:30:00 8.6 C 6.87 g/m*3 7.75 C 6.4 km/h
1157 14-04-2014 00:35:00 8.6 C 6.87 g/m*3 7.75 C 6.4 km/h
1158 14-04-2014 00:40:00 8.7 C 6.92 g/m*3 8.7 C 1.6 km/h
1159 14-04-2014 00:45:00 8.9 C 6.92 g/m*3 8.1 C 6.4 km/h
1160 14-04-2014 00:50:00 9 C 6.96 g/m*3 9 C 3.2 km/h
1161 14-04-2014 00:55:00 9.1 C 7.01 g/m*3 9.1 C 0 km/h
1162 14-04-2014 01:00:00 9.1 C 6.92 g/m*3 9.1 C 4.8 km/h
1163 14-04-2014 01:05:00 9.2 C 6.97 g/m*3 8.05 C 8.1 km/h
1164 14-04-2014 01:10:00 9.2 C 6.97 g/m*3 9.2 C 3.2 km/h
1165 14-04-2014 01:15:00 9.1 C 6.92 g/m*3 9.1 C 4.8 km/h
1166 14-04-2014 01:20:00 9.1 C 7.01 g/m*3 9.1 C 0 km/h
1167 14-04-2014 01:25:00 9.1 C 7.01 g/m*3 9.1 C 3.2 km/h
1168 14-04-2014 01:30:00 9.2 C 6.97 g/m*3 8.45 C 6.4 km/h
1169 14-04-2014 01:35:00 9.4 C 6.96 g/m*3 8.68 C 6.4 km/h
1170 14-04-2014 01:40:00 9.5 C 6.92 g/m*3 9.5 C 4.8 km/h
1171 14-04-2014 01:45:00 9.6 C 6.96 g/m*3 8.91 C 6.4 km/h
1172 14-04-2014 01:50:00 9.6 C 6.96 g/m*3 8.91 C 6.4 km/h
1173 14-04-2014 01:55:00 9.6 C 6.96 g/m*3 8.52 C 8.1 km/h
1174 14-04-2014 02:00:00 9.5 C 7.01 g/m*3 9.5 C 4.8 km/h
1175 14-04-2014 02:05:00 9.5 C 7.01 g/m*3 9.5 C 4.8 km/h
Sensor: Nr:Datum:Temp:Abs-Feuchte:Windchill:Wind:
Aussen-T/F 1176 14-04-2014 02:10:00 9.4 C 6.96 g/m*3 9.4 C 4.8 km/h
1177 14-04-2014 02:15:00 9.4 C 6.96 g/m*3 9.4 C 3.2 km/h
1178 14-04-2014 02:20:00 9.3 C 7.01 g/m*3 9.3 C 1.6 km/h
1179 14-04-2014 02:25:00 9 C 6.96 g/m*3 9 C 1.6 km/h
1180 14-04-2014 02:30:00 8.7 C 6.92 g/m*3 8.7 C 0 km/h
1181 14-04-2014 02:35:00 8.4 C 6.79 g/m*3 8.4 C 0 km/h
1182 14-04-2014 02:40:00 8.2 C 6.78 g/m*3 8.2 C 3.2 km/h
1183 14-04-2014 02:45:00 8.2 C 6.87 g/m*3 8.2 C 4.8 km/h
1184 14-04-2014 02:50:00 8.2 C 6.87 g/m*3 8.2 C 3.2 km/h
1185 14-04-2014 02:55:00 8.1 C 6.82 g/m*3 8.1 C 0 km/h
1186 14-04-2014 03:00:00 7.9 C 6.82 g/m*3 7.9 C 0 km/h
1187 14-04-2014 03:05:00 7.7 C 6.73 g/m*3 7.7 C 1.6 km/h
1188 14-04-2014 03:10:00 7.5 C 6.72 g/m*3 7.5 C 1.6 km/h
1189 14-04-2014 03:15:00 7.4 C 6.68 g/m*3 7.4 C 1.6 km/h
1190 14-04-2014 03:20:00 7.2 C 6.67 g/m*3 7.2 C 0 km/h
1191 14-04-2014 03:25:00 7.2 C 6.67 g/m*3 7.2 C 0 km/h
1192 14-04-2014 03:30:00 7.1 C 6.63 g/m*3 7.1 C 4.8 km/h
1193 14-04-2014 03:35:00 7.1 C 6.71 g/m*3 6.02 C 6.4 km/h
1194 14-04-2014 03:40:00 7.2 C 6.75 g/m*3 5.35 C 9.7 km/h
1195 14-04-2014 03:45:00 7.3 C 6.79 g/m*3 5.47 C 9.7 km/h
1196 14-04-2014 03:50:00 7.4 C 6.76 g/m*3 5.93 C 8.1 km/h
1197 14-04-2014 03:55:00 7.5 C 6.72 g/m*3 5.14 C 12.9 km/h
1198 14-04-2014 04:00:00 7.5 C 6.72 g/m*3 6.05 C 8.1 km/h
1199 14-04-2014 04:05:00 7.5 C 6.72 g/m*3 5.7 C 9.7 km/h
1200 14-04-2014 04:10:00 7.6 C 6.77 g/m*3 5.82 C 9.7 km/h
Sensor: Nr:Datum:Temp:Abs-Feuchte:Windchill:Wind:
Aussen-T/F 1201 14-04-2014 04:15:00 7.7 C 6.81 g/m*3 6.28 C 8.1 km/h
1202 14-04-2014 04:20:00 7.7 C 6.73 g/m*3 5.65 C 11.3 km/h
1203 14-04-2014 04:25:00 7.7 C 6.73 g/m*3 5.65 C 11.3 km/h
1204 14-04-2014 04:30:00 7.6 C 6.69 g/m*3 6.6 C 6.4 km/h
1205 14-04-2014 04:35:00 7.5 C 6.72 g/m*3 5.41 C 11.3 km/h
1206 14-04-2014 04:40:00 7.4 C 6.68 g/m*3 5.58 C 9.7 km/h
1207 14-04-2014 04:45:00 7.4 C 6.68 g/m*3 6.37 C 6.4 km/h
1208 14-04-2014 04:50:00 7.6 C 6.77 g/m*3 5.53 C 11.3 km/h
1209 14-04-2014 04:55:00 7.7 C 6.81 g/m*3 5.65 C 11.3 km/h
1210 14-04-2014 05:00:00 7.8 C 6.77 g/m*3 6.4 C 8.1 km/h
1211 14-04-2014 05:05:00 7.8 C 6.77 g/m*3 6.06 C 9.7 km/h
1212 14-04-2014 05:10:00 7.8 C 6.77 g/m*3 5.77 C 11.3 km/h
1213 14-04-2014 05:15:00 7.8 C 6.77 g/m*3 6.4 C 8.1 km/h
1214 14-04-2014 05:20:00 7.8 C 6.77 g/m*3 6.06 C 9.7 km/h
1215 14-04-2014 05:25:00 7.8 C 6.77 g/m*3 6.4 C 8.1 km/h
1216 14-04-2014 05:30:00 7.8 C 6.77 g/m*3 6.4 C 8.1 km/h
1217 14-04-2014 05:35:00 7.8 C 6.77 g/m*3 6.4 C 8.1 km/h
1218 14-04-2014 05:40:00 7.9 C 6.82 g/m*3 6.18 C 9.7 km/h
1219 14-04-2014 05:45:00 8 C 6.78 g/m*3 6.3 C 9.7 km/h
1220 14-04-2014 05:50:00 8.1 C 6.82 g/m*3 5.64 C 14.5 km/h
1221 14-04-2014 05:55:00 8.1 C 6.82 g/m*3 6.75 C 8.1 km/h
1222 14-04-2014 06:00:00 8.2 C 6.87 g/m*3 6.54 C 9.7 km/h
1223 14-04-2014 06:05:00 8.3 C 6.83 g/m*3 6.66 C 9.7 km/h
1224 14-04-2014 06:10:00 8.3 C 6.83 g/m*3 6.66 C 9.7 km/h
1225 14-04-2014 06:15:00 8.3 C 6.83 g/m*3 6.12 C 12.9 km/h
Sensor: Nr:Datum:Temp:Abs-Feuchte:Windchill:Wind:
Aussen-T/F 1226 14-04-2014 06:20:00 8.4 C 6.87 g/m*3 7.52 C 6.4 km/h
1227 14-04-2014 06:25:00 8.4 C 6.87 g/m*3 6.78 C 9.7 km/h
1228 14-04-2014 06:30:00 8.5 C 6.92 g/m*3 7.64 C 6.4 km/h
1229 14-04-2014 06:35:00 8.5 C 6.92 g/m*3 7.64 C 6.4 km/h
1230 14-04-2014 06:40:00 8.5 C 6.92 g/m*3 7.22 C 8.1 km/h
1231 14-04-2014 06:45:00 8.6 C 6.96 g/m*3 7.34 C 8.1 km/h
1232 14-04-2014 06:50:00 8.6 C 6.96 g/m*3 7.75 C 6.4 km/h
1233 14-04-2014 06:55:00 8.6 C 6.96 g/m*3 8.6 C 4.8 km/h
1234 14-04-2014 07:00:00 8.6 C 6.96 g/m*3 8.6 C 4.8 km/h
1235 14-04-2014 07:05:00 8.5 C 6.92 g/m*3 6.9 C 9.7 km/h
1236 14-04-2014 07:10:00 8.5 C 6.92 g/m*3 8.5 C 4.8 km/h
1237 14-04-2014 07:15:00 8.6 C 6.96 g/m*3 7.34 C 8.1 km/h
1238 14-04-2014 07:20:00 8.6 C 6.96 g/m*3 8.6 C 3.2 km/h
1239 14-04-2014 07:25:00 8.6 C 6.96 g/m*3 7.34 C 8.1 km/h
1240 14-04-2014 07:30:00 8.6 C 6.96 g/m*3 7.75 C 6.4 km/h
1241 14-04-2014 07:35:00 8.6 C 6.96 g/m*3 8.6 C 4.8 km/h
1242 14-04-2014 07:40:00 8.6 C 6.96 g/m*3 7.34 C 8.1 km/h
1243 14-04-2014 07:45:00 8.7 C 7.01 g/m*3 8.7 C 3.2 km/h
1244 14-04-2014 07:50:00 8.7 C 7.01 g/m*3 7.46 C 8.1 km/h
1245 14-04-2014 07:55:00 8.7 C 7.09 g/m*3 7.46 C 8.1 km/h
1246 14-04-2014 08:00:00 8.7 C 7.09 g/m*3 7.13 C 9.7 km/h
1247 14-04-2014 08:05:00 8.7 C 7.09 g/m*3 6.85 C 11.3 km/h
1248 14-04-2014 08:10:00 8.7 C 7.09 g/m*3 7.46 C 8.1 km/h
1249 14-04-2014 08:15:00 8.7 C 7.09 g/m*3 7.87 C 6.4 km/h
1250 14-04-2014 08:20:00 8.8 C 7.14 g/m*3 7.58 C 8.1 km/h
Sensor: Nr:Datum:Temp:Abs-Feuchte:Windchill:Wind:
Aussen-T/F 1251 14-04-2014 08:25:00 8.8 C 7.14 g/m*3 7.58 C 8.1 km/h
1252 14-04-2014 08:30:00 8.9 C 7.1 g/m*3 7.37 C 9.7 km/h
1253 14-04-2014 08:35:00 8.9 C 7.18 g/m*3 7.09 C 11.3 km/h
1254 14-04-2014 08:40:00 8.9 C 7.18 g/m*3 8.1 C 6.4 km/h
1255 14-04-2014 08:45:00 8.9 C 7.18 g/m*3 7.69 C 8.1 km/h
1256 14-04-2014 08:50:00 9 C 7.05 g/m*3 7.49 C 9.7 km/h
1257 14-04-2014 08:55:00 9.2 C 6.97 g/m*3 7.73 C 9.7 km/h
1258 14-04-2014 09:00:00 9.4 C 6.96 g/m*3 8.28 C 8.1 km/h
1259 14-04-2014 09:05:00 9.5 C 7.1 g/m*3 8.4 C 8.1 km/h
1260 14-04-2014 09:10:00 9.4 C 7.42 g/m*3 9.4 C 3.2 km/h
1261 14-04-2014 09:15:00 9.4 C 7.42 g/m*3 9.4 C 3.2 km/h
1262 14-04-2014 09:20:00 9.5 C 7.46 g/m*3 9.5 C 3.2 km/h
1263 14-04-2014 09:25:00 9.6 C 7.42 g/m*3 9.6 C 3.2 km/h
1264 14-04-2014 09:30:00 9.7 C 6.82 g/m*3 7.41 C 16.1 km/h
1265 14-04-2014 09:35:00 9.9 C 6.82 g/m*3 8.3 C 11.3 km/h
1266 14-04-2014 09:40:00 10.2 C 6.85 g/m*3 8.43 C 12.9 km/h
1267 14-04-2014 09:45:00 10.3 C 6.9 g/m*3 9.04 C 9.7 km/h
1268 14-04-2014 09:50:00 10.4 C 6.55 g/m*3 8.67 C 12.9 km/h
1269 14-04-2014 09:55:00 10.6 C 6.73 g/m*3 9.14 C 11.3 km/h
1270 14-04-2014 10:00:00 10.7 C 6.78 g/m*3 8.84 C 14.5 km/h
1271 14-04-2014 10:05:00 10.8 C 6.42 g/m*3 7.79 C 27.4 km/h
1272 14-04-2014 10:10:00 10.9 C 6.56 g/m*3 8.9 C 16.1 km/h
1273 14-04-2014 10:15:00 11 C 6.21 g/m*3 9.4 C 12.9 km/h
1274 14-04-2014 10:20:00 11.1 C 6.45 g/m*3 11.1 C 19.3 km/h
1275 14-04-2014 10:25:00 11 C 6.51 g/m*3 9.21 C 14.5 km/h
Sensor: Nr:Datum:Temp:Abs-Feuchte:Windchill:Wind:
Aussen-T/F 1276 14-04-2014 10:30:00 10.7 C 6.78 g/m*3 8.65 C 16.1 km/h
1277 14-04-2014 10:35:00 10.4 C 6.84 g/m*3 7.8 C 20.9 km/h
1278 14-04-2014 10:40:00 10.1 C 6.81 g/m*3 7.57 C 19.3 km/h
1279 14-04-2014 10:45:00 9.8 C 6.87 g/m*3 8.75 C 8.1 km/h
1280 14-04-2014 10:50:00 9.8 C 6.77 g/m*3 7.36 C 17.7 km/h
1281 14-04-2014 10:55:00 9.6 C 6.78 g/m*3 7.7 C 12.9 km/h
1282 14-04-2014 11:00:00 9.4 C 6.87 g/m*3 8.28 C 8.1 km/h
1283 14-04-2014 11:05:00 9.3 C 6.92 g/m*3 7.85 C 9.7 km/h
1284 14-04-2014 11:10:00 9.2 C 6.79 g/m*3 8.45 C 6.4 km/h
1285 14-04-2014 11:15:00 9.3 C 7.01 g/m*3 9.3 C 1.6 km/h
1286 14-04-2014 11:20:00 9.4 C 7.05 g/m*3 8.68 C 6.4 km/h
1287 14-04-2014 11:25:00 9.9 C 6.91 g/m*3 8.56 C 9.7 km/h
1288 14-04-2014 11:30:00 10.4 C 6.84 g/m*3 8.9 C 11.3 km/h
1289 14-04-2014 11:35:00 10.7 C 7.17 g/m*3 8.84 C 14.5 km/h
1290 14-04-2014 11:40:00 10.7 C 6.97 g/m*3 9.04 C 12.9 km/h
1291 14-04-2014 11:45:00 10.6 C 6.64 g/m*3 7.78 C 24.1 km/h
1292 14-04-2014 11:50:00 10.3 C 6.8 g/m*3 8.78 C 11.3 km/h
1293 14-04-2014 11:55:00 10.1 C 6.81 g/m*3 8.54 C 11.3 km/h
1294 14-04-2014 12:00:00 10.1 C 6.81 g/m*3 8.54 C 11.3 km/h
1295 14-04-2014 12:05:00 10.2 C 6.85 g/m*3 8.43 C 12.9 km/h
1296 14-04-2014 12:10:00 10.7 C 6.38 g/m*3 8.65 C 16.1 km/h
1297 14-04-2014 12:15:00 11.2 C 6.49 g/m*3 11.2 C 14.5 km/h
1298 14-04-2014 12:20:00 11.6 C 6.24 g/m*3 11.6 C 16.1 km/h
1299 14-04-2014 12:25:00 11.7 C 6.07 g/m*3 11.7 C 19.3 km/h
1300 14-04-2014 12:30:00 11.7 C 6.28 g/m*3 11.7 C 17.7 km/h
Sensor: Nr:Datum:Temp:Abs-Feuchte:Windchill:Wind:
Aussen-T/F 1301 14-04-2014 12:35:00 11.8 C 6.31 g/m*3 11.8 C 17.7 km/h
1302 14-04-2014 12:40:00 11.9 C 6.25 g/m*3 11.9 C 11.3 km/h
1303 14-04-2014 12:45:00 12 C 6.18 g/m*3 12 C 25.7 km/h
1304 14-04-2014 12:50:00 12 C 6.07 g/m*3 12 C 22.5 km/h
1305 14-04-2014 12:55:00 11.9 C 5.93 g/m*3 11.9 C 11.3 km/h
1306 14-04-2014 13:00:00 11.9 C 6.14 g/m*3 11.9 C 11.3 km/h
1307 14-04-2014 13:05:00 12.1 C 6.01 g/m*3 12.1 C 19.3 km/h
1308 14-04-2014 13:10:00 12.4 C 6.01 g/m*3 12.4 C 16.1 km/h
1309 14-04-2014 13:15:00 12.5 C 6.05 g/m*3 12.5 C 22.5 km/h
1310 14-04-2014 13:20:00 12.6 C 5.97 g/m*3 12.6 C 12.9 km/h
1311 14-04-2014 13:25:00 12.7 C 6.23 g/m*3 12.7 C 17.7 km/h
1312 14-04-2014 13:30:00 13 C 6.24 g/m*3 13 C 11.3 km/h
1313 14-04-2014 13:35:00 13.4 C 6.28 g/m*3 13.4 C 12.9 km/h
1314 14-04-2014 13:40:00 13.6 C 6.12 g/m*3 13.6 C 14.5 km/h
1315 14-04-2014 13:45:00 13.2 C 6.09 g/m*3 13.2 C 24.1 km/h
1316 14-04-2014 13:50:00 13.2 C 5.86 g/m*3 13.2 C 20.9 km/h
1317 14-04-2014 13:55:00 13.4 C 5.81 g/m*3 13.4 C 20.9 km/h
1318 14-04-2014 14:00:00 13.5 C 5.73 g/m*3 13.5 C 22.5 km/h
1319 14-04-2014 14:05:00 13.7 C 5.8 g/m*3 13.7 C 20.9 km/h
1320 14-04-2014 14:10:00 13.8 C 5.84 g/m*3 13.8 C 22.5 km/h
1321 14-04-2014 14:15:00 13.9 C 6.11 g/m*3 13.9 C 19.3 km/h
1322 14-04-2014 14:20:00 14.2 C 5.62 g/m*3 14.2 C 24.1 km/h
1323 14-04-2014 14:25:00 13.8 C 5.72 g/m*3 13.8 C 19.3 km/h
1324 14-04-2014 14:30:00 13.4 C 5.7 g/m*3 13.4 C 29 km/h
1325 14-04-2014 14:35:00 12.7 C 6.23 g/m*3 12.7 C 45 km/h
Sensor: Nr:Datum:Temp:Abs-Feuchte:Windchill:Wind:
Aussen-T/F 1326 14-04-2014 14:40:00 12.3 C 6.08 g/m*3 12.3 C 16.1 km/h
1327 14-04-2014 14:45:00 12.7 C 6.46 g/m*3 12.7 C 8.1 km/h
1328 14-04-2014 14:50:00 13.3 C 6.35 g/m*3 13.3 C 16.1 km/h
1329 14-04-2014 14:55:00 13.4 C 6.16 g/m*3 13.4 C 16.1 km/h
1330 14-04-2014 15:00:00 14.3 C 6.63 g/m*3 14.3 C 16.1 km/h
1331 14-04-2014 15:05:00 14.3 C 6.14 g/m*3 14.3 C 17.7 km/h
1332 14-04-2014 15:10:00 13.8 C 5.84 g/m*3 13.8 C 22.5 km/h
1333 14-04-2014 15:15:00 13.8 C 5.72 g/m*3 13.8 C 27.4 km/h
1334 14-04-2014 15:20:00 14.1 C 5.58 g/m*3 14.1 C 16.1 km/h
1335 14-04-2014 15:25:00 14 C 5.79 g/m*3 14 C 33.8 km/h
1336 14-04-2014 15:30:00 13.6 C 5.88 g/m*3 13.6 C 24.1 km/h
1337 14-04-2014 15:35:00 12.7 C 6.01 g/m*3 12.7 C 29 km/h
1338 14-04-2014 15:40:00 11.9 C 5.61 g/m*3 11.9 C 27.4 km/h
1339 14-04-2014 15:45:00 11.7 C 5.96 g/m*3 11.7 C 19.3 km/h
1340 14-04-2014 15:50:00 11.8 C 6 g/m*3 11.8 C 25.7 km/h
1341 14-04-2014 15:55:00 12.5 C 6.27 g/m*3 12.5 C 14.5 km/h
1342 14-04-2014 16:00:00 12.8 C 6.38 g/m*3 12.8 C 19.3 km/h
1343 14-04-2014 16:05:00 13.2 C 6.54 g/m*3 13.2 C 16.1 km/h
1344 14-04-2014 16:10:00 13.2 C 6.32 g/m*3 13.2 C 27.4 km/h
1345 14-04-2014 16:15:00 12.8 C 6.16 g/m*3 12.8 C 19.3 km/h
1346 14-04-2014 16:20:00 13 C 6.69 g/m*3 13 C 16.1 km/h
1347 14-04-2014 16:25:00 13.5 C 6.43 g/m*3 13.5 C 17.7 km/h
1348 14-04-2014 16:30:00 13.9 C 6.59 g/m*3 13.9 C 14.5 km/h
1349 14-04-2014 16:35:00 13.6 C 6.36 g/m*3 13.6 C 22.5 km/h
1350 14-04-2014 16:40:00 12.6 C 6.31 g/m*3 12.6 C 27.4 km/h
Sensor: Nr:Datum:Temp:Abs-Feuchte:Windchill:Wind:
Aussen-T/F 1351 14-04-2014 16:45:00 11.8 C 6.31 g/m*3 11.8 C 17.7 km/h
1352 14-04-2014 16:50:00 11.9 C 6.25 g/m*3 11.9 C 19.3 km/h
1353 14-04-2014 16:55:00 12.4 C 6.45 g/m*3 12.4 C 11.3 km/h
1354 14-04-2014 17:00:00 12.8 C 6.27 g/m*3 12.8 C 16.1 km/h
1355 14-04-2014 17:05:00 13.1 C 6.62 g/m*3 13.1 C 17.7 km/h
1356 14-04-2014 17:10:00 13.2 C 5.97 g/m*3 13.2 C 20.9 km/h
1357 14-04-2014 17:15:00 13.1 C 6.05 g/m*3 13.1 C 22.5 km/h
1358 14-04-2014 17:20:00 13.3 C 6.24 g/m*3 13.3 C 12.9 km/h
1359 14-04-2014 17:25:00 13.6 C 6.12 g/m*3 13.6 C 19.3 km/h
1360 14-04-2014 17:30:00 13.7 C 6.28 g/m*3 13.7 C 17.7 km/h
1361 14-04-2014 17:35:00 13.9 C 6.11 g/m*3 13.9 C 20.9 km/h
1362 14-04-2014 17:40:00 13.9 C 5.87 g/m*3 13.9 C 17.7 km/h
1363 14-04-2014 17:45:00 13.4 C 5.7 g/m*3 13.4 C 19.3 km/h
1364 14-04-2014 17:50:00 12.9 C 5.75 g/m*3 12.9 C 16.1 km/h
1365 14-04-2014 17:55:00 12.9 C 5.64 g/m*3 12.9 C 22.5 km/h
1366 14-04-2014 18:00:00 12.6 C 5.75 g/m*3 12.6 C 24.1 km/h
1367 14-04-2014 18:05:00 12.7 C 5.79 g/m*3 12.7 C 16.1 km/h
1368 14-04-2014 18:10:00 13.1 C 5.93 g/m*3 13.1 C 22.5 km/h
1369 14-04-2014 18:15:00 13.3 C 6.01 g/m*3 13.3 C 20.9 km/h
1370 14-04-2014 18:20:00 13.3 C 5.66 g/m*3 13.3 C 25.7 km/h
1371 14-04-2014 18:25:00 13.2 C 5.86 g/m*3 13.2 C 14.5 km/h
1372 14-04-2014 18:30:00 12.9 C 5.75 g/m*3 12.9 C 16.1 km/h
1373 14-04-2014 18:35:00 12.8 C 5.49 g/m*3 12.8 C 20.9 km/h
1374 14-04-2014 18:40:00 12.6 C 5.75 g/m*3 12.6 C 22.5 km/h
1375 14-04-2014 18:45:00 12.2 C 5.61 g/m*3 12.2 C 19.3 km/h
Sensor: Nr:Datum:Temp:Abs-Feuchte:Windchill:Wind:
Aussen-T/F 1376 14-04-2014 18:50:00 12.2 C 5.61 g/m*3 12.2 C 9.7 km/h
1377 14-04-2014 18:55:00 12.3 C 5.86 g/m*3 12.3 C 12.9 km/h
1378 14-04-2014 19:00:00 12.6 C 5.53 g/m*3 12.6 C 19.3 km/h
1379 14-04-2014 19:05:00 12.5 C 5.39 g/m*3 12.5 C 22.5 km/h
1380 14-04-2014 19:10:00 12.4 C 5.35 g/m*3 12.4 C 14.5 km/h
1381 14-04-2014 19:15:00 12.4 C 5.03 g/m*3 12.4 C 35.4 km/h
1382 14-04-2014 19:20:00 12.1 C 4.83 g/m*3 12.1 C 16.1 km/h
1383 14-04-2014 19:25:00 11.9 C 4.98 g/m*3 11.9 C 19.3 km/h
1384 14-04-2014 19:30:00 11.7 C 5.02 g/m*3 11.7 C 24.1 km/h
1385 14-04-2014 19:35:00 11.3 C 5.3 g/m*3 11.3 C 20.9 km/h
1386 14-04-2014 19:40:00 11.2 C 5.47 g/m*3 11.2 C 17.7 km/h
1387 14-04-2014 19:45:00 10.7 C 6.09 g/m*3 8.18 C 20.9 km/h
1388 14-04-2014 19:50:00 10.3 C 6.03 g/m*3 8.34 C 14.5 km/h
1389 14-04-2014 19:55:00 10.1 C 6.05 g/m*3 8.54 C 11.3 km/h
1390 14-04-2014 20:00:00 9.8 C 6.03 g/m*3 8.75 C 8.1 km/h
1391 14-04-2014 20:05:00 9.5 C 6.01 g/m*3 7.82 C 11.3 km/h
1392 14-04-2014 20:10:00 9.3 C 6.02 g/m*3 7.58 C 11.3 km/h
1393 14-04-2014 20:15:00 9.3 C 6.29 g/m*3 5.98 C 25.7 km/h
1394 14-04-2014 20:20:00 8.3 C 6.49 g/m*3 4.2 C 32.2 km/h
1395 14-04-2014 20:25:00 7.7 C 6.41 g/m*3 4.93 C 16.1 km/h
1396 14-04-2014 20:30:00 7.3 C 6.4 g/m*3 5.16 C 11.3 km/h
1397 14-04-2014 20:35:00 7.3 C 6.4 g/m*3 6.25 C 6.4 km/h
1398 14-04-2014 20:40:00 6.8 C 6.35 g/m*3 6.8 C 4.8 km/h
1399 14-04-2014 20:45:00 6.8 C 6.35 g/m*3 6.8 C 3.2 km/h
1400 14-04-2014 20:50:00 6.8 C 6.42 g/m*3 6.8 C 4.8 km/h
Sensor: Nr:Datum:Temp:Abs-Feuchte:Windchill:Wind:
Aussen-T/F 1401 14-04-2014 20:55:00 6.7 C 6.31 g/m*3 6.7 C 1.6 km/h
1402 14-04-2014 21:00:00 6.7 C 6.31 g/m*3 6.7 C 4.8 km/h
1403 14-04-2014 21:05:00 6.6 C 6.34 g/m*3 4.63 C 9.7 km/h
1404 14-04-2014 21:10:00 6.6 C 6.34 g/m*3 5.44 C 6.4 km/h
1405 14-04-2014 21:15:00 6.6 C 6.42 g/m*3 6.6 C 4.8 km/h
1406 14-04-2014 21:20:00 6.6 C 6.34 g/m*3 6.6 C 3.2 km/h
1407 14-04-2014 21:25:00 6.6 C 6.34 g/m*3 6.6 C 3.2 km/h
1408 14-04-2014 21:30:00 6.6 C 6.34 g/m*3 6.6 C 1.6 km/h
1409 14-04-2014 21:35:00 6.6 C 6.34 g/m*3 3.36 C 17.7 km/h
1410 14-04-2014 21:55:00 6.4 C 6.26 g/m*3 4.39 C 9.7 km/h
1411 14-04-2014 22:00:00 6.3 C 6.22 g/m*3 5.1 C 6.4 km/h
1412 14-04-2014 22:05:00 6.2 C 6.18 g/m*3 6.2 C 3.2 km/h
1413 14-04-2014 22:10:00 6.1 C 6.21 g/m*3 6.1 C 4.8 km/h
1414 14-04-2014 22:15:00 5.9 C 6.13 g/m*3 5.9 C 3.2 km/h
1415 14-04-2014 22:20:00 5.7 C 6.12 g/m*3 4.4 C 6.4 km/h
1416 14-04-2014 22:25:00 5.7 C 6.12 g/m*3 5.7 C 4.8 km/h
1417 14-04-2014 22:30:00 5.7 C 6.05 g/m*3 4.4 C 6.4 km/h
1418 14-04-2014 22:35:00 5.7 C 6.05 g/m*3 3.56 C 9.7 km/h
1419 14-04-2014 22:40:00 5.8 C 5.95 g/m*3 3.68 C 9.7 km/h
1420 14-04-2014 22:45:00 5.9 C 5.91 g/m*3 4.63 C 6.4 km/h
1421 14-04-2014 22:50:00 5.9 C 5.91 g/m*3 4.63 C 6.4 km/h
1422 14-04-2014 22:55:00 5.9 C 6.06 g/m*3 5.9 C 3.2 km/h
1423 14-04-2014 23:00:00 5.8 C 6.16 g/m*3 5.8 C 1.6 km/h
1424 14-04-2014 23:05:00 5.8 C 6.16 g/m*3 5.8 C 1.6 km/h
1425 14-04-2014 23:10:00 5.8 C 6.16 g/m*3 5.8 C 1.6 km/h
Sensor: Nr:Datum:Temp:Abs-Feuchte:Windchill:Wind:
Aussen-T/F 1426 14-04-2014 23:15:00 5.7 C 6.12 g/m*3 5.7 C 4.8 km/h
1427 14-04-2014 23:20:00 5.7 C 6.12 g/m*3 5.7 C 1.6 km/h
1428 14-04-2014 23:25:00 5.6 C 6.15 g/m*3 5.6 C 1.6 km/h
1429 14-04-2014 23:30:00 5.5 C 6.11 g/m*3 5.5 C 1.6 km/h
1430 14-04-2014 23:35:00 5.4 C 6.14 g/m*3 5.4 C 1.6 km/h
1431 14-04-2014 23:40:00 5.4 C 6.14 g/m*3 5.4 C 4.8 km/h
1432 14-04-2014 23:45:00 5.4 C 6.14 g/m*3 5.4 C 3.2 km/h
1433 14-04-2014 23:50:00 5.5 C 6.18 g/m*3 5.5 C 0 km/h
1434 14-04-2014 23:55:00 5.6 C 6.22 g/m*3 5.6 C 3.2 km/h
1435 15-04-2014 00:00:00 5.8 C 6.3 g/m*3 5.8 C 4.8 km/h
1436 15-04-2014 00:05:00 5.9 C 6.27 g/m*3 5.9 C 3.2 km/h
1437 15-04-2014 00:10:00 6.1 C 6.36 g/m*3 6.1 C 3.2 km/h
1438 15-04-2014 00:15:00 6.2 C 6.32 g/m*3 4.98 C 6.4 km/h
1439 15-04-2014 00:20:00 6.3 C 6.29 g/m*3 3.96 C 11.3 km/h
1440 15-04-2014 00:25:00 6.3 C 6.29 g/m*3 3.96 C 11.3 km/h
1441 15-04-2014 00:30:00 6.3 C 6.22 g/m*3 6.3 C 4.8 km/h
1442 15-04-2014 00:35:00 6.2 C 6.1 g/m*3 4.52 C 8.1 km/h
1443 15-04-2014 00:40:00 6.2 C 6.1 g/m*3 4.52 C 8.1 km/h
1444 15-04-2014 00:45:00 6.1 C 6.06 g/m*3 4.86 C 6.4 km/h
1445 15-04-2014 00:50:00 6 C 5.88 g/m*3 6 C 3.2 km/h
1446 15-04-2014 00:55:00 6 C 5.95 g/m*3 6 C 1.6 km/h
1447 15-04-2014 01:00:00 5.9 C 5.91 g/m*3 4.63 C 6.4 km/h
1448 15-04-2014 01:05:00 5.9 C 5.98 g/m*3 4.63 C 6.4 km/h
1449 15-04-2014 01:10:00 5.9 C 5.98 g/m*3 5.9 C 3.2 km/h
1450 15-04-2014 01:15:00 5.9 C 6.06 g/m*3 5.9 C 3.2 km/h
Sensor: Nr:Datum:Temp:Abs-Feuchte:Windchill:Wind:
Aussen-T/F 1451 15-04-2014 01:20:00 5.7 C 5.98 g/m*3 5.7 C 3.2 km/h
1452 15-04-2014 01:25:00 5.6 C 6.01 g/m*3 5.6 C 3.2 km/h
1453 15-04-2014 01:30:00 5.4 C 5.93 g/m*3 5.4 C 4.8 km/h
1454 15-04-2014 01:35:00 5.5 C 5.97 g/m*3 3.7 C 8.1 km/h
1455 15-04-2014 01:40:00 5.5 C 5.97 g/m*3 3.32 C 9.7 km/h
1456 15-04-2014 01:45:00 5.5 C 5.9 g/m*3 3.7 C 8.1 km/h
1457 15-04-2014 01:50:00 5.6 C 5.87 g/m*3 3.44 C 9.7 km/h
1458 15-04-2014 01:55:00 5.5 C 5.83 g/m*3 3.32 C 9.7 km/h
1459 15-04-2014 02:00:00 5.4 C 5.79 g/m*3 4.06 C 6.4 km/h
1460 15-04-2014 02:05:00 5.4 C 5.79 g/m*3 3.2 C 9.7 km/h
1461 15-04-2014 02:10:00 5.3 C 5.75 g/m*3 3.46 C 8.1 km/h
1462 15-04-2014 02:15:00 5.3 C 5.82 g/m*3 5.3 C 3.2 km/h
1463 15-04-2014 02:20:00 5.2 C 5.78 g/m*3 5.2 C 4.8 km/h
1464 15-04-2014 02:25:00 5 C 5.78 g/m*3 5 C 3.2 km/h
1465 15-04-2014 02:30:00 4.9 C 5.74 g/m*3 4.9 C 4.8 km/h
1466 15-04-2014 02:35:00 4.8 C 5.7 g/m*3 4.8 C 3.2 km/h
1467 15-04-2014 02:40:00 4.8 C 5.7 g/m*3 4.8 C 3.2 km/h
1468 15-04-2014 02:45:00 4.7 C 5.66 g/m*3 4.7 C 4.8 km/h
1469 15-04-2014 02:50:00 4.7 C 5.66 g/m*3 4.7 C 4.8 km/h
1470 15-04-2014 02:55:00 4.8 C 5.77 g/m*3 4.8 C 3.2 km/h
1471 15-04-2014 03:00:00 4.7 C 5.73 g/m*3 4.7 C 0 km/h
1472 15-04-2014 03:05:00 4.7 C 5.73 g/m*3 4.7 C 0 km/h
1473 15-04-2014 03:10:00 4.8 C 5.83 g/m*3 4.8 C 3.2 km/h
1474 15-04-2014 03:15:00 4.8 C 5.83 g/m*3 4.8 C 3.2 km/h
1475 15-04-2014 03:20:00 4.8 C 5.77 g/m*3 4.8 C 3.2 km/h
Sensor: Nr:Datum:Temp:Abs-Feuchte:Windchill:Wind:
Aussen-T/F 1476 15-04-2014 03:25:00 4.7 C 5.66 g/m*3 4.7 C 3.2 km/h
1477 15-04-2014 03:30:00 4.6 C 5.69 g/m*3 4.6 C 3.2 km/h
1478 15-04-2014 03:35:00 4.6 C 5.69 g/m*3 4.6 C 1.6 km/h
1479 15-04-2014 03:55:00 4.1 C 5.57 g/m*3 4.1 C 0 km/h
1480 15-04-2014 04:00:00 4.1 C 5.63 g/m*3 4.1 C 0 km/h
1481 15-04-2014 04:05:00 4.1 C 5.63 g/m*3 2.55 C 6.4 km/h
1482 15-04-2014 04:10:00 4.2 C 5.67 g/m*3 4.2 C 3.2 km/h
1483 15-04-2014 04:15:00 4.1 C 5.63 g/m*3 4.1 C 3.2 km/h
1484 15-04-2014 04:20:00 4.1 C 5.63 g/m*3 4.1 C 3.2 km/h
1485 15-04-2014 04:25:00 4.1 C 5.63 g/m*3 4.1 C 3.2 km/h
1486 15-04-2014 04:30:00 4.1 C 5.63 g/m*3 4.1 C 1.6 km/h
1487 15-04-2014 04:35:00 4 C 5.59 g/m*3 4 C 0 km/h
1488 15-04-2014 04:40:00 3.9 C 5.56 g/m*3 3.9 C 3.2 km/h
1489 15-04-2014 04:45:00 3.9 C 5.56 g/m*3 3.9 C 1.6 km/h
1490 15-04-2014 04:50:00 3.9 C 5.62 g/m*3 3.9 C 4.8 km/h
1491 15-04-2014 04:55:00 4 C 5.59 g/m*3 4 C 3.2 km/h
1492 15-04-2014 05:00:00 3.9 C 5.62 g/m*3 3.9 C 3.2 km/h
1493 15-04-2014 05:05:00 3.9 C 5.62 g/m*3 3.9 C 3.2 km/h
1494 15-04-2014 05:10:00 3.9 C 5.62 g/m*3 3.9 C 4.8 km/h
1495 15-04-2014 05:15:00 3.9 C 5.62 g/m*3 2.32 C 6.4 km/h
1496 15-04-2014 05:20:00 3.9 C 5.62 g/m*3 3.9 C 3.2 km/h
1497 15-04-2014 05:25:00 4 C 5.66 g/m*3 1.93 C 8.1 km/h
1498 15-04-2014 05:30:00 3.9 C 5.62 g/m*3 3.9 C 4.8 km/h
1499 15-04-2014 05:35:00 3.9 C 5.56 g/m*3 2.32 C 6.4 km/h
1500 15-04-2014 05:40:00 3.9 C 5.62 g/m*3 3.9 C 1.6 km/h
Sensor: Nr:Datum:Temp:Abs-Feuchte:Windchill:Wind:
Aussen-T/F 1501 15-04-2014 05:45:00 3.9 C 5.62 g/m*3 3.9 C 3.2 km/h
1502 15-04-2014 05:50:00 3.9 C 5.62 g/m*3 3.9 C 3.2 km/h
1503 15-04-2014 05:55:00 4 C 5.66 g/m*3 4 C 3.2 km/h
1504 15-04-2014 06:00:00 4.1 C 5.7 g/m*3 4.1 C 3.2 km/h
1505 15-04-2014 06:05:00 4.1 C 5.7 g/m*3 4.1 C 1.6 km/h
1506 15-04-2014 06:10:00 4.2 C 5.73 g/m*3 4.2 C 3.2 km/h
1507 15-04-2014 06:15:00 4.2 C 5.73 g/m*3 4.2 C 3.2 km/h
1508 15-04-2014 06:20:00 4.2 C 5.73 g/m*3 4.2 C 1.6 km/h
1509 15-04-2014 06:25:00 4.2 C 5.73 g/m*3 4.2 C 0 km/h
1510 15-04-2014 06:30:00 4.2 C 5.73 g/m*3 4.2 C 4.8 km/h
1511 15-04-2014 06:35:00 4.2 C 5.67 g/m*3 2.17 C 8.1 km/h
1512 15-04-2014 06:40:00 4.2 C 5.67 g/m*3 4.2 C 1.6 km/h
1513 15-04-2014 06:45:00 4.1 C 5.63 g/m*3 4.1 C 0 km/h
1514 15-04-2014 06:50:00 3.9 C 5.62 g/m*3 3.9 C 1.6 km/h
1515 15-04-2014 06:55:00 3.9 C 5.62 g/m*3 3.9 C 1.6 km/h
1516 15-04-2014 07:00:00 3.9 C 5.62 g/m*3 3.9 C 3.2 km/h
1517 15-04-2014 07:05:00 4 C 5.66 g/m*3 2.44 C 6.4 km/h
1518 15-04-2014 07:10:00 4 C 5.66 g/m*3 4 C 1.6 km/h
1519 15-04-2014 07:15:00 3.9 C 5.62 g/m*3 3.9 C 4.8 km/h
1520 15-04-2014 07:20:00 3.9 C 5.62 g/m*3 3.9 C 3.2 km/h
1521 15-04-2014 07:25:00 3.9 C 5.62 g/m*3 1.82 C 8.1 km/h
1522 15-04-2014 07:30:00 3.9 C 5.62 g/m*3 3.9 C 3.2 km/h
1523 15-04-2014 07:35:00 4.1 C 5.7 g/m*3 4.1 C 1.6 km/h
1524 15-04-2014 07:40:00 4.1 C 5.7 g/m*3 4.1 C 3.2 km/h
1525 15-04-2014 07:45:00 4.1 C 5.7 g/m*3 1.31 C 11.3 km/h
Sensor: Nr:Datum:Temp:Abs-Feuchte:Windchill:Wind:
Aussen-T/F 1526 15-04-2014 07:50:00 4.1 C 5.7 g/m*3 4.1 C 4.8 km/h
1527 15-04-2014 07:55:00 4.3 C 5.71 g/m*3 2.29 C 8.1 km/h
1528 15-04-2014 08:00:00 4.3 C 5.71 g/m*3 4.3 C 4.8 km/h
1529 15-04-2014 08:55:00 5.5 C 5.97 g/m*3 2.44 C 14.5 km/h
1530 15-04-2014 09:00:00 5.7 C 6.05 g/m*3 2.69 C 14.5 km/h
1531 15-04-2014 09:05:00 5.8 C 6.02 g/m*3 3.07 C 12.9 km/h
1532 15-04-2014 09:10:00 5.9 C 5.98 g/m*3 2.48 C 17.7 km/h
1533 15-04-2014 09:15:00 6.1 C 6.06 g/m*3 4.4 C 8.1 km/h
1534 15-04-2014 09:20:00 6.1 C 6.06 g/m*3 4.4 C 8.1 km/h
1535 15-04-2014 09:25:00 6.2 C 6.1 g/m*3 4.15 C 9.7 km/h
1536 15-04-2014 09:30:00 6.3 C 6.07 g/m*3 3.43 C 14.5 km/h
1537 15-04-2014 09:35:00 6.3 C 6.07 g/m*3 3.68 C 12.9 km/h
1538 15-04-2014 09:40:00 6.3 C 6 g/m*3 4.27 C 9.7 km/h
1539 15-04-2014 09:45:00 6.4 C 5.89 g/m*3 4.08 C 11.3 km/h
1540 15-04-2014 09:50:00 6.4 C 5.89 g/m*3 4.39 C 9.7 km/h
1541 15-04-2014 09:55:00 6.6 C 5.89 g/m*3 4.63 C 9.7 km/h
1542 15-04-2014 10:00:00 6.6 C 5.89 g/m*3 4.63 C 9.7 km/h
1543 15-04-2014 10:05:00 6.7 C 5.93 g/m*3 4.44 C 11.3 km/h
1544 15-04-2014 10:10:00 6.9 C 6.08 g/m*3 4.68 C 11.3 km/h
1545 15-04-2014 10:15:00 7 C 5.97 g/m*3 5.11 C 9.7 km/h
1546 15-04-2014 10:20:00 7.1 C 5.93 g/m*3 4.65 C 12.9 km/h
1547 15-04-2014 10:25:00 7.2 C 6.04 g/m*3 5.04 C 11.3 km/h
1548 15-04-2014 10:30:00 7.4 C 5.88 g/m*3 5.58 C 9.7 km/h
1549 15-04-2014 10:35:00 7.5 C 5.76 g/m*3 5.14 C 12.9 km/h
1550 15-04-2014 10:40:00 7.5 C 5.76 g/m*3 5.41 C 11.3 km/h
Sensor: Nr:Datum:Temp:Abs-Feuchte:Windchill:Wind:
Aussen-T/F 1551 15-04-2014 10:45:00 7.4 C 5.49 g/m*3 5.28 C 11.3 km/h
1552 15-04-2014 10:50:00 7.4 C 5.49 g/m*3 5.58 C 9.7 km/h
1553 15-04-2014 10:55:00 7.3 C 5.61 g/m*3 4.9 C 12.9 km/h
1554 15-04-2014 11:00:00 7.2 C 5.49 g/m*3 5.04 C 11.3 km/h
1555 15-04-2014 11:05:00 6.9 C 5.39 g/m*3 5.34 C 8.1 km/h
1556 15-04-2014 11:10:00 6.8 C 5.58 g/m*3 4.56 C 11.3 km/h
1557 15-04-2014 11:15:00 6.8 C 5.66 g/m*3 5.22 C 8.1 km/h
1558 15-04-2014 11:20:00 6.8 C 5.66 g/m*3 4.56 C 11.3 km/h
1559 15-04-2014 11:25:00 7 C 5.66 g/m*3 5.46 C 8.1 km/h
1560 15-04-2014 11:30:00 7.1 C 5.77 g/m*3 5.58 C 8.1 km/h
1561 15-04-2014 11:35:00 7.2 C 5.81 g/m*3 5.04 C 11.3 km/h
1562 15-04-2014 11:40:00 7.6 C 5.88 g/m*3 5.02 C 14.5 km/h
1563 15-04-2014 11:45:00 7.7 C 5.68 g/m*3 5.38 C 12.9 km/h
1564 15-04-2014 11:50:00 7.6 C 5.32 g/m*3 5.82 C 9.7 km/h
1565 15-04-2014 11:55:00 7.4 C 5.17 g/m*3 4.78 C 14.5 km/h
1566 15-04-2014 12:00:00 7.4 C 5.25 g/m*3 5.93 C 8.1 km/h
1567 15-04-2014 12:05:00 7.4 C 5.25 g/m*3 5.93 C 8.1 km/h
1568 15-04-2014 12:10:00 7.5 C 5.28 g/m*3 6.48 C 6.4 km/h
1569 15-04-2014 12:15:00 7.7 C 5.43 g/m*3 7.7 C 4.8 km/h
1570 15-04-2014 12:20:00 8 C 5.7 g/m*3 6.64 C 8.1 km/h
1571 15-04-2014 12:25:00 8.3 C 5.39 g/m*3 5.89 C 14.5 km/h
1572 15-04-2014 12:30:00 8.4 C 5.85 g/m*3 7.11 C 8.1 km/h
1573 15-04-2014 12:35:00 8.4 C 5.85 g/m*3 7.11 C 8.1 km/h
1574 15-04-2014 12:40:00 8.5 C 5.29 g/m*3 5.92 C 16.1 km/h
1575 15-04-2014 12:45:00 8.2 C 5.28 g/m*3 5.18 C 19.3 km/h
Sensor: Nr:Datum:Temp:Abs-Feuchte:Windchill:Wind:
Aussen-T/F 1576 15-04-2014 12:50:00 8.1 C 5.16 g/m*3 5.87 C 12.9 km/h
1577 15-04-2014 12:55:00 8 C 5.13 g/m*3 6.01 C 11.3 km/h
1578 15-04-2014 13:00:00 8.2 C 5.28 g/m*3 6.25 C 11.3 km/h
1579 15-04-2014 13:05:00 8.8 C 5.57 g/m*3 6.97 C 11.3 km/h
1580 15-04-2014 13:10:00 9.3 C 5.48 g/m*3 7.33 C 12.9 km/h
1581 15-04-2014 13:15:00 9.4 C 4.97 g/m*3 8.28 C 8.1 km/h
1582 15-04-2014 13:20:00 9.4 C 5.06 g/m*3 7.7 C 11.3 km/h
1583 15-04-2014 13:25:00 9.4 C 5.52 g/m*3 8.68 C 6.4 km/h
1584 15-04-2014 13:30:00 9.4 C 5.25 g/m*3 7.97 C 9.7 km/h
1585 15-04-2014 13:35:00 9.6 C 5.31 g/m*3 8.91 C 6.4 km/h
1586 15-04-2014 13:40:00 9.6 C 5.4 g/m*3 7.7 C 12.9 km/h
1587 15-04-2014 13:45:00 9.3 C 5.3 g/m*3 7.85 C 9.7 km/h
1588 15-04-2014 13:50:00 9.1 C 5.41 g/m*3 7.93 C 8.1 km/h
1589 15-04-2014 13:55:00 8.9 C 5.17 g/m*3 6.85 C 12.9 km/h
1590 15-04-2014 14:00:00 8.9 C 5.26 g/m*3 7.09 C 11.3 km/h
1591 15-04-2014 14:05:00 9.2 C 5.18 g/m*3 6.99 C 14.5 km/h
1592 15-04-2014 14:10:00 9.6 C 5.5 g/m*3 8.21 C 9.7 km/h
1593 15-04-2014 14:15:00 10.2 C 5.42 g/m*3 9.6 C 6.4 km/h
1594 15-04-2014 14:20:00 10.3 C 5.46 g/m*3 8.78 C 11.3 km/h
1595 15-04-2014 14:25:00 9.9 C 5.32 g/m*3 8.3 C 11.3 km/h
1596 15-04-2014 14:30:00 9.4 C 5.06 g/m*3 7.46 C 12.9 km/h
1597 15-04-2014 14:35:00 9.1 C 5.23 g/m*3 7.61 C 9.7 km/h
1598 15-04-2014 14:40:00 8.9 C 4.99 g/m*3 7.09 C 11.3 km/h
1599 15-04-2014 14:45:00 8.9 C 5.26 g/m*3 7.69 C 8.1 km/h
1600 15-04-2014 14:50:00 9.1 C 5.23 g/m*3 7.61 C 9.7 km/h
Sensor: Nr:Datum:Temp:Abs-Feuchte:Windchill:Wind:
Aussen-T/F 1601 15-04-2014 14:55:00 9.3 C 5.21 g/m*3 6.73 C 17.7 km/h
1602 15-04-2014 15:00:00 9.4 C 5.06 g/m*3 7.24 C 14.5 km/h
1603 15-04-2014 15:05:00 9.6 C 5.31 g/m*3 8.21 C 9.7 km/h
1604 15-04-2014 15:10:00 9.8 C 5.2 g/m*3 7.54 C 16.1 km/h
1605 15-04-2014 15:15:00 9.7 C 5.16 g/m*3 8.63 C 8.1 km/h
1606 15-04-2014 15:20:00 9.6 C 5.04 g/m*3 7.48 C 14.5 km/h
1607 15-04-2014 15:25:00 9.4 C 5.16 g/m*3 7.24 C 14.5 km/h
1608 15-04-2014 15:30:00 9.4 C 5.16 g/m*3 8.28 C 8.1 km/h
1609 15-04-2014 15:35:00 9.4 C 5.34 g/m*3 7.7 C 11.3 km/h
1610 15-04-2014 15:40:00 9.3 C 5.3 g/m*3 7.58 C 11.3 km/h
1611 15-04-2014 15:45:00 9.3 C 5.12 g/m*3 7.85 C 9.7 km/h
1612 15-04-2014 15:50:00 9.2 C 5.09 g/m*3 7.73 C 9.7 km/h
1613 15-04-2014 15:55:00 9.2 C 5.09 g/m*3 8.05 C 8.1 km/h
1614 15-04-2014 16:00:00 9.3 C 5.3 g/m*3 8.16 C 8.1 km/h
1615 15-04-2014 16:05:00 9.4 C 5.34 g/m*3 8.28 C 8.1 km/h
1616 15-04-2014 16:10:00 9.4 C 5.25 g/m*3 8.68 C 6.4 km/h
1617 15-04-2014 16:15:00 9.4 C 5.25 g/m*3 8.68 C 6.4 km/h
1618 15-04-2014 16:20:00 9.7 C 5.35 g/m*3 8.33 C 9.7 km/h
1619 15-04-2014 16:25:00 9.7 C 5.35 g/m*3 8.06 C 11.3 km/h
1620 15-04-2014 16:30:00 9.6 C 5.13 g/m*3 8.91 C 6.4 km/h
1621 15-04-2014 16:35:00 9.6 C 5.13 g/m*3 9.6 C 4.8 km/h
1622 15-04-2014 16:40:00 9.5 C 5.19 g/m*3 8.4 C 8.1 km/h
1623 15-04-2014 16:45:00 9.5 C 5.19 g/m*3 8.4 C 8.1 km/h
1624 15-04-2014 16:50:00 9.8 C 5.01 g/m*3 7.73 C 14.5 km/h
1625 15-04-2014 16:55:00 9.8 C 5.1 g/m*3 7.94 C 12.9 km/h
Sensor: Nr:Datum:Temp:Abs-Feuchte:Windchill:Wind:
Aussen-T/F 1626 15-04-2014 17:00:00 9.8 C 5.29 g/m*3 8.45 C 9.7 km/h
1627 15-04-2014 17:05:00 9.9 C 5.23 g/m*3 7.66 C 16.1 km/h
1628 15-04-2014 17:10:00 10.1 C 5.39 g/m*3 8.54 C 11.3 km/h
1629 15-04-2014 17:15:00 10.1 C 5.11 g/m*3 7.28 C 22.5 km/h
1630 15-04-2014 17:20:00 10 C 5.17 g/m*3 8.68 C 9.7 km/h
1631 15-04-2014 17:25:00 10.1 C 5.11 g/m*3 8.31 C 12.9 km/h
1632 15-04-2014 17:30:00 10.1 C 5.2 g/m*3 8.31 C 12.9 km/h
1633 15-04-2014 17:35:00 10.2 C 5.33 g/m*3 8.66 C 11.3 km/h
1634 15-04-2014 17:40:00 10.2 C 5.23 g/m*3 8.92 C 9.7 km/h
1635 15-04-2014 17:45:00 10.2 C 5.14 g/m*3 9.22 C 8.1 km/h
1636 15-04-2014 17:50:00 10.2 C 5.23 g/m*3 8.03 C 16.1 km/h
1637 15-04-2014 17:55:00 10.2 C 5.14 g/m*3 8.03 C 16.1 km/h
1638 15-04-2014 18:00:00 10.3 C 5.17 g/m*3 7.82 C 19.3 km/h
1639 15-04-2014 18:05:00 10.2 C 5.33 g/m*3 8.66 C 11.3 km/h
1640 15-04-2014 18:10:00 10.1 C 5.39 g/m*3 8.31 C 12.9 km/h
1641 15-04-2014 18:15:00 10.4 C 5.4 g/m*3 8.9 C 11.3 km/h
1642 15-04-2014 18:20:00 10.6 C 5.56 g/m*3 9.4 C 9.7 km/h
1643 15-04-2014 18:25:00 11.2 C 5.68 g/m*3 11.2 C 8.1 km/h
1644 15-04-2014 18:30:00 11.1 C 5.34 g/m*3 11.1 C 12.9 km/h
1645 15-04-2014 18:35:00 11.1 C 5.34 g/m*3 11.1 C 12.9 km/h
1646 15-04-2014 18:55:00 10.1 C 9.46 g/m*3 8.8 C 9.7 km/h
1647 15-04-2014 19:00:00 10 C 9.4 g/m*3 10 C 4.8 km/h
1648 15-04-2014 19:05:00 10 C 9.4 g/m*3 8.99 C 8.1 km/h
1649 15-04-2014 19:10:00 10 C 9.4 g/m*3 10 C 4.8 km/h
1650 15-04-2014 19:15:00 9.7 C 9.22 g/m*3 8.33 C 9.7 km/h
Sensor: Nr:Datum:Temp:Abs-Feuchte:Windchill:Wind:
Aussen-T/F 1651 15-04-2014 19:20:00 9.7 C 9.22 g/m*3 9.02 C 6.4 km/h
1652 15-04-2014 19:25:00 9.6 C 5.31 g/m*3 8.52 C 8.1 km/h
1653 15-04-2014 19:30:00 9.5 C 5.37 g/m*3 9.5 C 4.8 km/h
1654 15-04-2014 19:35:00 9.5 C 5.46 g/m*3 9.5 C 3.2 km/h
1655 15-04-2014 19:40:00 9.5 C 5.37 g/m*3 9.5 C 3.2 km/h
1656 15-04-2014 19:45:00 9.4 C 5.34 g/m*3 9.4 C 3.2 km/h
1657 15-04-2014 19:50:00 9.4 C 5.52 g/m*3 9.4 C 0 km/h
1658 15-04-2014 19:55:00 9.4 C 5.52 g/m*3 9.4 C 4.8 km/h
1659 15-04-2014 20:00:00 9.1 C 5.41 g/m*3 7.93 C 8.1 km/h
1660 15-04-2014 20:05:00 9.1 C 5.23 g/m*3 7.93 C 8.1 km/h
1661 15-04-2014 20:10:00 9.1 C 5.23 g/m*3 9.1 C 3.2 km/h
1662 15-04-2014 20:15:00 9.1 C 5.32 g/m*3 9.1 C 3.2 km/h
1663 15-04-2014 20:20:00 9.1 C 5.32 g/m*3 9.1 C 4.8 km/h
1664 15-04-2014 20:25:00 9.1 C 5.59 g/m*3 9.1 C 0 km/h
1665 15-04-2014 20:30:00 9 C 5.55 g/m*3 8.21 C 6.4 km/h
1666 15-04-2014 20:35:00 9 C 5.55 g/m*3 9 C 3.2 km/h
1667 15-04-2014 20:40:00 8.8 C 5.48 g/m*3 8.8 C 0 km/h
1668 15-04-2014 20:45:00 8.8 C 5.48 g/m*3 8.8 C 1.6 km/h
1669 16-04-2014 11:50:00 9.6 C 5.95 g/m*3 8.21 C 9.7 km/h
1670 16-04-2014 11:55:00 10 C 6.01 g/m*3 10 C 3.2 km/h
1671 16-04-2014 12:00:00 10.1 C 5.86 g/m*3 10.1 C 3.2 km/h
1672 16-04-2014 12:05:00 10.3 C 5.94 g/m*3 9.72 C 6.4 km/h
1673 16-04-2014 12:10:00 10.4 C 5.59 g/m*3 9.46 C 8.1 km/h
1674 16-04-2014 12:15:00 10.6 C 5.56 g/m*3 10.6 C 4.8 km/h
1675 16-04-2014 12:20:00 10.7 C 5.5 g/m*3 8.84 C 14.5 km/h
Sensor: Nr:Datum:Temp:Abs-Feuchte:Windchill:Wind:
Aussen-T/F 1676 16-04-2014 12:25:00 10.8 C 5.24 g/m*3 9.64 C 9.7 km/h
1677 16-04-2014 12:30:00 11.1 C 5.74 g/m*3 11.1 C 6.4 km/h
1678 16-04-2014 12:35:00 11.7 C 5.33 g/m*3 11.7 C 8.1 km/h
1679 16-04-2014 12:40:00 12 C 5.54 g/m*3 12 C 11.3 km/h
1680 16-04-2014 12:45:00 12.3 C 5.21 g/m*3 12.3 C 8.1 km/h
1681 16-04-2014 12:50:00 12.7 C 5.57 g/m*3 12.7 C 12.9 km/h
1682 16-04-2014 12:55:00 12.9 C 5.52 g/m*3 12.9 C 12.9 km/h
1683 16-04-2014 13:00:00 13.2 C 5.51 g/m*3 13.2 C 16.1 km/h
1684 16-04-2014 13:05:00 13.4 C 5.7 g/m*3 13.4 C 8.1 km/h
1685 16-04-2014 13:10:00 13.5 C 5.38 g/m*3 13.5 C 11.3 km/h
1686 16-04-2014 13:15:00 13.6 C 5.41 g/m*3 13.6 C 11.3 km/h
1687 16-04-2014 13:20:00 13.6 C 5.77 g/m*3 13.6 C 11.3 km/h
1688 16-04-2014 13:25:00 13.8 C 5.72 g/m*3 13.8 C 8.1 km/h
1689 16-04-2014 13:30:00 14 C 5.67 g/m*3 14 C 11.3 km/h
1690 16-04-2014 13:35:00 14.2 C 5.25 g/m*3 14.2 C 6.4 km/h
1691 16-04-2014 13:40:00 14.3 C 5.41 g/m*3 14.3 C 8.1 km/h
1692 16-04-2014 13:45:00 14.2 C 5.49 g/m*3 14.2 C 6.4 km/h
1693 16-04-2014 13:50:00 14.4 C 5.69 g/m*3 14.4 C 9.7 km/h
1694 16-04-2014 13:55:00 14.6 C 5.26 g/m*3 14.6 C 6.4 km/h
1695 16-04-2014 14:00:00 14.6 C 5.13 g/m*3 14.6 C 4.8 km/h
1696 16-04-2014 14:05:00 14.6 C 5.88 g/m*3 14.6 C 6.4 km/h
1697 16-04-2014 14:10:00 14.8 C 5.7 g/m*3 14.8 C 9.7 km/h
1698 16-04-2014 14:15:00 14.9 C 5.1 g/m*3 14.9 C 12.9 km/h
1699 16-04-2014 14:20:00 15.1 C 5.68 g/m*3 15.1 C 8.1 km/h
1700 16-04-2014 14:25:00 15.3 C 5.62 g/m*3 15.3 C 11.3 km/h
Sensor: Nr:Datum:Temp:Abs-Feuchte:Windchill:Wind:
Aussen-T/F 1701 16-04-2014 14:30:00 15.5 C 5.42 g/m*3 15.5 C 8.1 km/h
1702 16-04-2014 14:35:00 15.4 C 5.78 g/m*3 15.4 C 11.3 km/h
1703 16-04-2014 14:40:00 15.3 C 5.35 g/m*3 15.3 C 9.7 km/h
1704 16-04-2014 14:45:00 15.4 C 5.26 g/m*3 15.4 C 9.7 km/h
1705 16-04-2014 14:50:00 15.2 C 5.19 g/m*3 15.2 C 19.3 km/h
1706 16-04-2014 14:55:00 15.2 C 5.32 g/m*3 15.2 C 11.3 km/h
1707 16-04-2014 15:00:00 15.4 C 5.52 g/m*3 15.4 C 11.3 km/h
1708 16-04-2014 15:05:00 15.7 C 5.62 g/m*3 15.7 C 11.3 km/h
1709 16-04-2014 15:10:00 15.7 C 5.35 g/m*3 15.7 C 9.7 km/h
1710 16-04-2014 15:15:00 15.6 C 5.19 g/m*3 15.6 C 6.4 km/h
1711 16-04-2014 15:20:00 15.6 C 5.05 g/m*3 15.6 C 6.4 km/h
1712 16-04-2014 15:25:00 15.9 C 5.42 g/m*3 15.9 C 9.7 km/h
1713 16-04-2014 15:30:00 16 C 5.45 g/m*3 16 C 9.7 km/h
1714 16-04-2014 15:35:00 16.1 C 5.89 g/m*3 16.1 C 9.7 km/h
1715 16-04-2014 15:40:00 16.3 C 5.55 g/m*3 16.3 C 9.7 km/h
1716 16-04-2014 15:45:00 16.2 C 5.38 g/m*3 16.2 C 9.7 km/h
1717 16-04-2014 15:50:00 16.1 C 5.21 g/m*3 16.1 C 12.9 km/h
1718 16-04-2014 15:55:00 16.2 C 5.93 g/m*3 16.2 C 4.8 km/h
1719 16-04-2014 16:00:00 16.3 C 5.27 g/m*3 16.3 C 11.3 km/h
1720 16-04-2014 16:05:00 16.6 C 5.51 g/m*3 16.6 C 8.1 km/h
1721 16-04-2014 16:10:00 16.9 C 5.75 g/m*3 16.9 C 11.3 km/h
1722 16-04-2014 16:15:00 16.8 C 5.15 g/m*3 16.8 C 11.3 km/h
1723 16-04-2014 16:20:00 16.9 C 5.47 g/m*3 16.9 C 12.9 km/h
1724 16-04-2014 16:25:00 16.9 C 5.32 g/m*3 16.9 C 12.9 km/h
1725 16-04-2014 16:30:00 16.9 C 5.32 g/m*3 16.9 C 6.4 km/h
Sensor: Nr:Datum:Temp:Abs-Feuchte:Windchill:Wind:
Aussen-T/F 1726 16-04-2014 16:35:00 16.9 C 5.18 g/m*3 16.9 C 9.7 km/h
1727 16-04-2014 16:40:00 16.7 C 5.12 g/m*3 16.7 C 6.4 km/h
1728 16-04-2014 16:45:00 16.4 C 5.16 g/m*3 16.4 C 12.9 km/h
1729 16-04-2014 16:50:00 16.4 C 5.02 g/m*3 16.4 C 8.1 km/h
1730 16-04-2014 16:55:00 16.6 C 5.23 g/m*3 16.6 C 6.4 km/h
1731 16-04-2014 17:00:00 16.6 C 5.51 g/m*3 16.6 C 12.9 km/h
1732 16-04-2014 17:05:00 16.8 C 5.29 g/m*3 16.8 C 9.7 km/h
1733 16-04-2014 17:10:00 17 C 5.5 g/m*3 17 C 8.1 km/h
1734 16-04-2014 17:15:00 16.9 C 5.18 g/m*3 16.9 C 14.5 km/h
1735 16-04-2014 17:20:00 16.8 C 5 g/m*3 16.8 C 14.5 km/h
1736 16-04-2014 17:25:00 16.8 C 5.29 g/m*3 16.8 C 8.1 km/h
1737 16-04-2014 17:30:00 16.9 C 5.32 g/m*3 16.9 C 11.3 km/h
1738 16-04-2014 17:35:00 16.9 C 5.32 g/m*3 16.9 C 16.1 km/h
1739 16-04-2014 17:40:00 16.8 C 5.43 g/m*3 16.8 C 9.7 km/h
1740 16-04-2014 17:45:00 16.9 C 5.03 g/m*3 16.9 C 11.3 km/h
1741 16-04-2014 17:50:00 16.7 C 4.97 g/m*3 16.7 C 8.1 km/h
1742 16-04-2014 17:55:00 16.7 C 5.26 g/m*3 16.7 C 9.7 km/h
1743 16-04-2014 18:00:00 16.7 C 5.4 g/m*3 16.7 C 12.9 km/h
1744 16-04-2014 18:05:00 16.7 C 5.12 g/m*3 16.7 C 11.3 km/h
1745 16-04-2014 18:10:00 16.7 C 5.26 g/m*3 16.7 C 8.1 km/h
1746 16-04-2014 18:15:00 16.8 C 5.15 g/m*3 16.8 C 9.7 km/h
1747 16-04-2014 18:20:00 16.9 C 5.47 g/m*3 16.9 C 6.4 km/h
1748 16-04-2014 18:25:00 16.8 C 5.29 g/m*3 16.8 C 8.1 km/h
1749 16-04-2014 18:30:00 16.6 C 5.09 g/m*3 16.6 C 9.7 km/h
1750 16-04-2014 18:35:00 16.5 C 5.06 g/m*3 16.5 C 6.4 km/h
Sensor: Nr:Datum:Temp:Abs-Feuchte:Windchill:Wind:
Aussen-T/F 1751 16-04-2014 18:40:00 16.6 C 4.94 g/m*3 16.6 C 8.1 km/h
1752 16-04-2014 18:45:00 16.5 C 5.2 g/m*3 16.5 C 11.3 km/h
1753 16-04-2014 18:50:00 16.4 C 5.02 g/m*3 16.4 C 9.7 km/h
1754 16-04-2014 18:55:00 16.5 C 4.91 g/m*3 16.5 C 6.4 km/h
1755 16-04-2014 19:00:00 16.7 C 5.26 g/m*3 16.7 C 6.4 km/h
1756 16-04-2014 19:05:00 16.6 C 5.23 g/m*3 16.6 C 6.4 km/h
1757 16-04-2014 19:10:00 16.3 C 5.27 g/m*3 16.3 C 6.4 km/h
1758 16-04-2014 19:15:00 16.1 C 5.21 g/m*3 16.1 C 8.1 km/h
1759 16-04-2014 19:20:00 16 C 5.31 g/m*3 16 C 9.7 km/h
1760 16-04-2014 19:25:00 16 C 5.04 g/m*3 16 C 9.7 km/h
1761 16-04-2014 19:30:00 15.8 C 5.12 g/m*3 15.8 C 11.3 km/h
1762 16-04-2014 19:35:00 15.5 C 5.02 g/m*3 15.5 C 8.1 km/h
1763 16-04-2014 19:40:00 15.3 C 5.09 g/m*3 15.3 C 4.8 km/h
1764 16-04-2014 19:45:00 15.1 C 5.16 g/m*3 15.1 C 3.2 km/h
1765 16-04-2014 19:50:00 14.9 C 5.23 g/m*3 14.9 C 3.2 km/h
1766 16-04-2014 19:55:00 14.7 C 5.54 g/m*3 14.7 C 3.2 km/h
1767 16-04-2014 20:00:00 14.3 C 5.77 g/m*3 14.3 C 0 km/h
1768 16-04-2014 20:05:00 13.5 C 5.85 g/m*3 13.5 C 3.2 km/h
1769 16-04-2014 20:10:00 12.6 C 5.86 g/m*3 12.6 C 3.2 km/h
1770 16-04-2014 20:15:00 11.8 C 5.79 g/m*3 11.8 C 4.8 km/h
1771 16-04-2014 20:20:00 11.3 C 5.81 g/m*3 11.3 C 3.2 km/h
1772 16-04-2014 20:25:00 10.9 C 5.57 g/m*3 10.9 C 4.8 km/h
1773 16-04-2014 20:30:00 10.6 C 5.56 g/m*3 10.6 C 3.2 km/h
1774 16-04-2014 20:35:00 10.3 C 5.55 g/m*3 10.3 C 4.8 km/h
1775 16-04-2014 20:40:00 10 C 5.64 g/m*3 10 C 4.8 km/h
Sensor: Nr:Datum:Temp:Abs-Feuchte:Windchill:Wind:
Aussen-T/F 1776 16-04-2014 20:45:00 9.7 C 5.53 g/m*3 9.02 C 6.4 km/h
1777 16-04-2014 20:50:00 9.4 C 5.43 g/m*3 9.4 C 4.8 km/h
1778 16-04-2014 20:55:00 9.2 C 5.45 g/m*3 9.2 C 4.8 km/h
1779 16-04-2014 21:00:00 9.1 C 5.5 g/m*3 8.33 C 6.4 km/h
1780 16-04-2014 21:05:00 8.9 C 5.43 g/m*3 8.9 C 4.8 km/h
1781 16-04-2014 21:10:00 8.8 C 5.48 g/m*3 8.8 C 4.8 km/h
1782 16-04-2014 21:15:00 8.8 C 5.57 g/m*3 8.8 C 4.8 km/h
1783 16-04-2014 21:20:00 8.7 C 5.53 g/m*3 7.87 C 6.4 km/h
1784 16-04-2014 21:25:00 8.6 C 5.41 g/m*3 8.6 C 4.8 km/h
1785 16-04-2014 21:30:00 8.5 C 5.38 g/m*3 8.5 C 4.8 km/h
1786 16-04-2014 21:35:00 8.4 C 5.43 g/m*3 8.4 C 4.8 km/h
1787 16-04-2014 21:40:00 8.3 C 5.39 g/m*3 8.3 C 4.8 km/h
1788 16-04-2014 21:45:00 8.2 C 5.36 g/m*3 8.2 C 4.8 km/h
1789 16-04-2014 21:50:00 8.2 C 5.36 g/m*3 8.2 C 4.8 km/h
1790 16-04-2014 21:55:00 8.1 C 5.41 g/m*3 8.1 C 4.8 km/h
1791 16-04-2014 22:00:00 8.1 C 5.41 g/m*3 8.1 C 4.8 km/h
1792 16-04-2014 22:05:00 8 C 5.37 g/m*3 8 C 4.8 km/h
1793 16-04-2014 22:10:00 7.9 C 5.34 g/m*3 7.9 C 4.8 km/h
1794 16-04-2014 22:15:00 7.8 C 5.47 g/m*3 7.8 C 4.8 km/h
1795 16-04-2014 22:20:00 7.8 C 5.55 g/m*3 7.8 C 4.8 km/h
1796 16-04-2014 22:25:00 7.7 C 5.35 g/m*3 7.7 C 4.8 km/h
1797 16-04-2014 22:30:00 7.7 C 5.43 g/m*3 7.7 C 4.8 km/h
1798 16-04-2014 22:35:00 7.6 C 5.48 g/m*3 7.6 C 3.2 km/h
1799 16-04-2014 22:40:00 7.6 C 5.48 g/m*3 7.6 C 4.8 km/h
1800 16-04-2014 22:45:00 7.4 C 5.41 g/m*3 7.4 C 4.8 km/h
Sensor: Nr:Datum:Temp:Abs-Feuchte:Windchill:Wind:
Aussen-T/F 1801 16-04-2014 22:50:00 7.3 C 5.45 g/m*3 7.3 C 4.8 km/h
1802 16-04-2014 22:55:00 7.2 C 5.65 g/m*3 7.2 C 4.8 km/h
1803 16-04-2014 23:00:00 7.2 C 5.42 g/m*3 7.2 C 4.8 km/h
1804 16-04-2014 23:05:00 7.1 C 5.54 g/m*3 7.1 C 3.2 km/h
1805 16-04-2014 23:10:00 6.9 C 5.47 g/m*3 6.9 C 4.8 km/h
1806 16-04-2014 23:15:00 6.9 C 5.47 g/m*3 6.9 C 3.2 km/h
1807 16-04-2014 23:20:00 6.8 C 5.43 g/m*3 6.8 C 3.2 km/h
1808 16-04-2014 23:25:00 6.7 C 5.39 g/m*3 6.7 C 3.2 km/h
1809 16-04-2014 23:30:00 6.7 C 5.39 g/m*3 6.7 C 1.6 km/h
1810 16-04-2014 23:35:00 6.6 C 5.36 g/m*3 6.6 C 3.2 km/h
1811 16-04-2014 23:40:00 6.6 C 5.51 g/m*3 6.6 C 1.6 km/h
1812 16-04-2014 23:45:00 6.5 C 5.47 g/m*3 6.5 C 0 km/h
1813 16-04-2014 23:50:00 6.4 C 5.36 g/m*3 6.4 C 1.6 km/h
1814 16-04-2014 23:55:00 6.3 C 5.4 g/m*3 6.3 C 0 km/h
1815 17-04-2014 00:00:00 6.2 C 5.37 g/m*3 6.2 C 0 km/h
1816 17-04-2014 00:05:00 6.1 C 5.33 g/m*3 6.1 C 0 km/h
1817 17-04-2014 00:10:00 5.9 C 5.26 g/m*3 5.9 C 0 km/h
1818 17-04-2014 00:15:00 5.8 C 5.3 g/m*3 5.8 C 0 km/h
1819 17-04-2014 00:20:00 5.8 C 5.37 g/m*3 5.8 C 0 km/h
1820 17-04-2014 00:25:00 5.7 C 5.41 g/m*3 5.7 C 0 km/h
1821 17-04-2014 00:30:00 5.6 C 5.37 g/m*3 5.6 C 0 km/h
1822 17-04-2014 00:35:00 5.5 C 5.34 g/m*3 5.5 C 0 km/h
1823 17-04-2014 00:40:00 5.4 C 5.37 g/m*3 5.4 C 0 km/h
1824 17-04-2014 00:45:00 5.3 C 5.34 g/m*3 5.3 C 0 km/h
1825 17-04-2014 00:50:00 5.3 C 5.27 g/m*3 5.3 C 0 km/h
Sensor: Nr:Datum:Temp:Abs-Feuchte:Windchill:Wind:
Aussen-T/F 1826 17-04-2014 00:55:00 5.2 C 5.23 g/m*3 5.2 C 0 km/h
1827 17-04-2014 01:00:00 5.2 C 5.3 g/m*3 5.2 C 0 km/h
1828 17-04-2014 01:05:00 5.2 C 5.37 g/m*3 5.2 C 0 km/h
1829 17-04-2014 01:10:00 5.1 C 5.27 g/m*3 5.1 C 0 km/h
1830 17-04-2014 01:15:00 5 C 5.3 g/m*3 5 C 0 km/h
1831 17-04-2014 01:20:00 4.9 C 5.27 g/m*3 4.9 C 0 km/h
1832 17-04-2014 01:25:00 4.9 C 5.27 g/m*3 4.9 C 0 km/h
1833 17-04-2014 01:30:00 4.8 C 5.23 g/m*3 4.8 C 0 km/h
1834 17-04-2014 01:35:00 4.8 C 5.23 g/m*3 4.8 C 0 km/h
1835 17-04-2014 01:40:00 4.7 C 5.26 g/m*3 4.7 C 0 km/h
1836 17-04-2014 01:45:00 4.6 C 5.23 g/m*3 4.6 C 0 km/h
1837 17-04-2014 01:50:00 4.6 C 5.29 g/m*3 4.6 C 0 km/h
1838 17-04-2014 01:55:00 4.5 C 5.26 g/m*3 4.5 C 0 km/h
1839 17-04-2014 02:00:00 4.4 C 5.16 g/m*3 4.4 C 0 km/h
1840 17-04-2014 02:05:00 4.3 C 5.12 g/m*3 4.3 C 0 km/h
1841 17-04-2014 02:10:00 4.3 C 5.19 g/m*3 4.3 C 0 km/h
1842 17-04-2014 02:15:00 4.3 C 5.19 g/m*3 4.3 C 0 km/h
1843 17-04-2014 02:20:00 4.2 C 5.22 g/m*3 4.2 C 0 km/h
1844 17-04-2014 02:25:00 4.2 C 5.22 g/m*3 4.2 C 0 km/h
1845 17-04-2014 02:30:00 4.1 C 5.18 g/m*3 4.1 C 0 km/h
1846 17-04-2014 02:35:00 4 C 5.15 g/m*3 4 C 0 km/h
1847 17-04-2014 02:40:00 3.9 C 5.18 g/m*3 3.9 C 0 km/h
1848 17-04-2014 02:45:00 3.8 C 5.14 g/m*3 3.8 C 0 km/h
1849 17-04-2014 02:50:00 3.8 C 5.14 g/m*3 3.8 C 1.6 km/h
1850 17-04-2014 02:55:00 3.7 C 5.17 g/m*3 3.7 C 3.2 km/h
Sensor: Nr:Datum:Temp:Abs-Feuchte:Windchill:Wind:
Aussen-T/F 1851 17-04-2014 03:00:00 3.7 C 5.23 g/m*3 3.7 C 3.2 km/h
1852 17-04-2014 03:05:00 3.6 C 5.2 g/m*3 3.6 C 1.6 km/h
1853 17-04-2014 03:10:00 3.6 C 5.32 g/m*3 3.6 C 0 km/h
1854 17-04-2014 03:15:00 3.6 C 5.32 g/m*3 3.6 C 0 km/h
1855 17-04-2014 03:20:00 3.5 C 5.29 g/m*3 3.5 C 0 km/h
1856 17-04-2014 03:25:00 3.4 C 5.25 g/m*3 3.4 C 0 km/h
1857 17-04-2014 03:30:00 3.3 C 5.22 g/m*3 3.3 C 0 km/h
1858 17-04-2014 03:35:00 3.3 C 5.22 g/m*3 3.3 C 0 km/h
1859 17-04-2014 03:40:00 3.3 C 5.22 g/m*3 3.3 C 0 km/h
1860 17-04-2014 03:45:00 3.2 C 5.18 g/m*3 3.2 C 0 km/h
1861 17-04-2014 03:50:00 3.2 C 5.24 g/m*3 3.2 C 0 km/h
1862 17-04-2014 03:55:00 3.1 C 5.21 g/m*3 3.1 C 0 km/h
1863 17-04-2014 04:00:00 3 C 5.17 g/m*3 3 C 0 km/h
1864 17-04-2014 04:05:00 2.9 C 5.14 g/m*3 2.9 C 0 km/h
1865 17-04-2014 04:10:00 2.8 C 5.1 g/m*3 2.8 C 0 km/h
1866 17-04-2014 04:15:00 2.8 C 5.1 g/m*3 2.8 C 0 km/h
1867 17-04-2014 04:20:00 2.7 C 5.07 g/m*3 2.7 C 0 km/h
1868 17-04-2014 04:25:00 2.7 C 5.07 g/m*3 2.7 C 0 km/h
1869 17-04-2014 04:30:00 2.6 C 5.03 g/m*3 2.6 C 0 km/h
1870 17-04-2014 04:35:00 2.5 C 5 g/m*3 2.5 C 0 km/h
1871 17-04-2014 04:40:00 2.4 C 4.97 g/m*3 2.4 C 0 km/h
1872 17-04-2014 04:45:00 2.3 C 4.99 g/m*3 2.3 C 0 km/h
1873 17-04-2014 04:50:00 2.3 C 4.99 g/m*3 2.3 C 0 km/h
1874 17-04-2014 04:55:00 2.3 C 5.05 g/m*3 2.3 C 0 km/h
1875 17-04-2014 05:00:00 2.2 C 4.96 g/m*3 2.2 C 0 km/h
Sensor: Nr:Datum:Temp:Abs-Feuchte:Windchill:Wind:
Aussen-T/F 1876 17-04-2014 05:05:00 2.1 C 4.92 g/m*3 2.1 C 0 km/h
1877 17-04-2014 05:10:00 2.1 C 4.92 g/m*3 2.1 C 0 km/h
1878 17-04-2014 05:15:00 1.9 C 4.91 g/m*3 1.9 C 0 km/h
1879 17-04-2014 05:20:00 1.9 C 4.91 g/m*3 1.9 C 0 km/h
1880 17-04-2014 05:25:00 1.8 C 4.88 g/m*3 1.8 C 0 km/h
1881 17-04-2014 05:30:00 1.8 C 4.93 g/m*3 1.8 C 0 km/h
1882 17-04-2014 05:35:00 1.8 C 4.93 g/m*3 1.8 C 1.6 km/h
1883 17-04-2014 05:40:00 1.8 C 4.93 g/m*3 1.8 C 0 km/h
1884 17-04-2014 05:45:00 1.8 C 4.93 g/m*3 1.8 C 0 km/h
1885 17-04-2014 05:50:00 1.7 C 4.9 g/m*3 1.7 C 0 km/h
1886 17-04-2014 05:55:00 1.7 C 4.9 g/m*3 1.7 C 0 km/h
1887 17-04-2014 06:00:00 1.7 C 4.95 g/m*3 1.7 C 0 km/h
1888 17-04-2014 06:05:00 1.7 C 4.95 g/m*3 1.7 C 0 km/h
1889 17-04-2014 06:10:00 1.7 C 4.95 g/m*3 1.7 C 0 km/h
1890 17-04-2014 06:15:00 1.6 C 4.92 g/m*3 1.6 C 0 km/h
1891 17-04-2014 06:20:00 1.6 C 4.92 g/m*3 1.6 C 0 km/h
1892 17-04-2014 06:25:00 1.5 C 4.89 g/m*3 1.5 C 0 km/h
1893 17-04-2014 06:30:00 1.5 C 4.89 g/m*3 1.5 C 0 km/h
1894 17-04-2014 06:35:00 1.4 C 4.85 g/m*3 1.4 C 0 km/h
1895 17-04-2014 06:40:00 1.4 C 4.85 g/m*3 1.4 C 0 km/h
1896 17-04-2014 06:45:00 1.3 C 4.82 g/m*3 1.3 C 0 km/h
1897 17-04-2014 06:50:00 1.3 C 4.82 g/m*3 1.3 C 0 km/h
1898 17-04-2014 06:55:00 1.3 C 4.82 g/m*3 1.3 C 0 km/h
1899 17-04-2014 07:00:00 1.3 C 4.82 g/m*3 1.3 C 0 km/h
1900 17-04-2014 07:05:00 1.3 C 4.87 g/m*3 1.3 C 0 km/h
Sensor: Nr:Datum:Temp:Abs-Feuchte:Windchill:Wind:
Aussen-T/F 1901 17-04-2014 07:10:00 1.3 C 4.87 g/m*3 1.3 C 0 km/h
1902 17-04-2014 07:15:00 1.3 C 4.87 g/m*3 1.3 C 0 km/h
1903 17-04-2014 07:20:00 1.3 C 4.87 g/m*3 1.3 C 0 km/h
1904 17-04-2014 07:25:00 1.3 C 4.87 g/m*3 1.3 C 0 km/h
1905 17-04-2014 07:30:00 1.4 C 4.91 g/m*3 1.4 C 0 km/h
1906 17-04-2014 07:35:00 1.4 C 4.91 g/m*3 1.4 C 0 km/h
1907 17-04-2014 07:40:00 1.4 C 4.91 g/m*3 1.4 C 0 km/h
1908 17-04-2014 07:45:00 1.5 C 4.94 g/m*3 1.5 C 0 km/h
1909 17-04-2014 07:50:00 1.6 C 4.97 g/m*3 1.6 C 0 km/h
1910 17-04-2014 07:55:00 1.6 C 4.97 g/m*3 1.6 C 0 km/h
1911 17-04-2014 08:00:00 1.6 C 4.97 g/m*3 1.6 C 0 km/h
1912 17-04-2014 08:05:00 1.7 C 5.01 g/m*3 1.7 C 0 km/h
1913 17-04-2014 08:10:00 1.7 C 5.01 g/m*3 1.7 C 0 km/h
1914 17-04-2014 08:15:00 1.8 C 5.04 g/m*3 1.8 C 0 km/h
1915 17-04-2014 08:20:00 1.9 C 5.08 g/m*3 1.9 C 0 km/h
1916 17-04-2014 08:25:00 1.9 C 5.08 g/m*3 1.9 C 0 km/h
1917 17-04-2014 08:30:00 2.1 C 5.15 g/m*3 2.1 C 0 km/h
1918 17-04-2014 08:35:00 2.2 C 5.18 g/m*3 2.2 C 0 km/h
1919 17-04-2014 08:40:00 2.4 C 5.25 g/m*3 2.4 C 0 km/h
1920 17-04-2014 08:45:00 2.5 C 5.23 g/m*3 2.5 C 0 km/h
1921 17-04-2014 08:50:00 2.7 C 5.3 g/m*3 2.7 C 0 km/h
1922 17-04-2014 08:55:00 2.8 C 5.34 g/m*3 2.8 C 0 km/h
1923 17-04-2014 09:00:00 2.9 C 5.37 g/m*3 2.9 C 0 km/h
1924 17-04-2014 09:05:00 3.1 C 5.45 g/m*3 3.1 C 1.6 km/h
1925 17-04-2014 09:10:00 3.3 C 5.46 g/m*3 3.3 C 0 km/h
Sensor: Nr:Datum:Temp:Abs-Feuchte:Windchill:Wind:
Aussen-T/F 1926 17-04-2014 09:15:00 3.6 C 5.51 g/m*3 3.6 C 0 km/h
1927 17-04-2014 09:20:00 3.8 C 5.52 g/m*3 3.8 C 0 km/h
1928 17-04-2014 09:25:00 4.1 C 5.57 g/m*3 4.1 C 0 km/h
1929 17-04-2014 09:30:00 4.3 C 5.64 g/m*3 4.3 C 0 km/h
1930 17-04-2014 09:35:00 4.5 C 5.65 g/m*3 4.5 C 1.6 km/h
1931 17-04-2014 09:40:00 4.8 C 5.7 g/m*3 4.8 C 0 km/h
1932 17-04-2014 09:45:00 5 C 5.71 g/m*3 5 C 0 km/h
1933 17-04-2014 09:50:00 5.3 C 5.82 g/m*3 5.3 C 0 km/h
1934 17-04-2014 09:55:00 5.5 C 5.83 g/m*3 5.5 C 0 km/h
1935 17-04-2014 10:00:00 5.7 C 5.91 g/m*3 5.7 C 1.6 km/h
1936 17-04-2014 10:05:00 5.9 C 5.98 g/m*3 5.9 C 1.6 km/h
1937 17-04-2014 10:10:00 6.2 C 5.96 g/m*3 6.2 C 1.6 km/h
1938 17-04-2014 10:15:00 6.5 C 6.07 g/m*3 6.5 C 0 km/h
1939 17-04-2014 10:20:00 6.8 C 6.12 g/m*3 6.8 C 0 km/h
1940 17-04-2014 10:25:00 6.9 C 6 g/m*3 6.9 C 0 km/h
1941 17-04-2014 10:30:00 7.2 C 6.2 g/m*3 7.2 C 0 km/h
1942 17-04-2014 10:35:00 7.4 C 6.12 g/m*3 7.4 C 0 km/h
1943 17-04-2014 10:40:00 7.6 C 6.2 g/m*3 7.6 C 0 km/h
1944 17-04-2014 10:45:00 7.8 C 6.37 g/m*3 7.8 C 0 km/h
1945 17-04-2014 10:50:00 8.1 C 6.24 g/m*3 8.1 C 1.6 km/h
1946 17-04-2014 10:55:00 8.4 C 6.11 g/m*3 8.4 C 0 km/h
1947 17-04-2014 11:00:00 8.6 C 6.27 g/m*3 8.6 C 0 km/h
1948 17-04-2014 11:05:00 8.8 C 6.09 g/m*3 8.8 C 0 km/h
1949 17-04-2014 11:10:00 9 C 5.91 g/m*3 9 C 0 km/h
1950 17-04-2014 11:15:00 9.4 C 5.97 g/m*3 9.4 C 3.2 km/h
Sensor: Nr:Datum:Temp:Abs-Feuchte:Windchill:Wind:
Aussen-T/F 1951 17-04-2014 11:20:00 9.8 C 6.03 g/m*3 9.8 C 3.2 km/h
1952 17-04-2014 11:25:00 10.2 C 6.09 g/m*3 9.22 C 8.1 km/h
1953 17-04-2014 11:30:00 10.8 C 5.83 g/m*3 9.93 C 8.1 km/h
1954 17-04-2014 11:35:00 11.4 C 5.75 g/m*3 11.4 C 4.8 km/h
1955 17-04-2014 11:40:00 11.7 C 5.86 g/m*3 11.7 C 8.1 km/h
1956 17-04-2014 11:45:00 11.9 C 5.51 g/m*3 11.9 C 4.8 km/h
1957 17-04-2014 11:50:00 12.3 C 5.75 g/m*3 12.3 C 8.1 km/h
1958 17-04-2014 11:55:00 12.4 C 5.57 g/m*3 12.4 C 9.7 km/h
1959 17-04-2014 12:00:00 12.6 C 5.53 g/m*3 12.6 C 11.3 km/h
1960 17-04-2014 12:05:00 12.9 C 5.41 g/m*3 12.9 C 4.8 km/h
1961 17-04-2014 12:10:00 12.9 C 5.18 g/m*3 12.9 C 12.9 km/h
1962 17-04-2014 12:15:00 13.1 C 5.71 g/m*3 13.1 C 4.8 km/h
1963 17-04-2014 12:20:00 13.5 C 5.38 g/m*3 13.5 C 6.4 km/h
1964 17-04-2014 12:25:00 13.6 C 5.65 g/m*3 13.6 C 6.4 km/h
1965 17-04-2014 12:30:00 13.8 C 5.6 g/m*3 13.8 C 8.1 km/h
1966 17-04-2014 12:35:00 14 C 5.67 g/m*3 14 C 11.3 km/h
1967 17-04-2014 12:40:00 14.3 C 5.77 g/m*3 14.3 C 6.4 km/h
1968 17-04-2014 12:45:00 14.3 C 5.41 g/m*3 14.3 C 8.1 km/h
1969 17-04-2014 12:50:00 14.3 C 5.28 g/m*3 14.3 C 6.4 km/h
1970 17-04-2014 12:55:00 14.7 C 5.41 g/m*3 14.7 C 8.1 km/h
1971 17-04-2014 13:00:00 15 C 5.51 g/m*3 15 C 8.1 km/h
1972 17-04-2014 13:05:00 15.3 C 5.35 g/m*3 15.3 C 6.4 km/h
1973 17-04-2014 13:10:00 15.3 C 5.22 g/m*3 15.3 C 8.1 km/h
1974 17-04-2014 13:15:00 15.3 C 5.22 g/m*3 15.3 C 8.1 km/h
1975 17-04-2014 13:20:00 15.4 C 5.39 g/m*3 15.4 C 11.3 km/h
Sensor: Nr:Datum:Temp:Abs-Feuchte:Windchill:Wind:
Aussen-T/F 1976 17-04-2014 13:25:00 15.6 C 5.45 g/m*3 15.6 C 11.3 km/h
1977 17-04-2014 13:30:00 15.6 C 5.05 g/m*3 15.6 C 8.1 km/h
1978 17-04-2014 13:35:00 15.7 C 5.22 g/m*3 15.7 C 8.1 km/h
1979 17-04-2014 13:40:00 15.8 C 5.25 g/m*3 15.8 C 9.7 km/h
1980 17-04-2014 13:45:00 15.9 C 5.01 g/m*3 15.9 C 9.7 km/h
1981 17-04-2014 13:50:00 15.7 C 5.22 g/m*3 15.7 C 6.4 km/h
1982 17-04-2014 13:55:00 15.8 C 4.85 g/m*3 15.8 C 8.1 km/h
1983 17-04-2014 14:00:00 15.9 C 5.42 g/m*3 15.9 C 6.4 km/h
1984 17-04-2014 14:05:00 16 C 5.45 g/m*3 16 C 6.4 km/h
1985 17-04-2014 14:10:00 16 C 5.18 g/m*3 16 C 6.4 km/h
1986 17-04-2014 14:15:00 15.9 C 5.01 g/m*3 15.9 C 6.4 km/h
1987 17-04-2014 14:20:00 16.1 C 5.35 g/m*3 16.1 C 8.1 km/h
1988 17-04-2014 14:25:00 16.2 C 5.38 g/m*3 16.2 C 4.8 km/h
1989 17-04-2014 14:30:00 16.1 C 5.07 g/m*3 16.1 C 4.8 km/h
1990 17-04-2014 14:35:00 16.3 C 5.83 g/m*3 16.3 C 6.4 km/h
1991 17-04-2014 14:40:00 16.5 C 5.34 g/m*3 16.5 C 8.1 km/h
1992 17-04-2014 14:45:00 16.4 C 4.75 g/m*3 16.4 C 9.7 km/h
1993 17-04-2014 14:50:00 16.3 C 5.27 g/m*3 16.3 C 4.8 km/h
1994 17-04-2014 14:55:00 16.2 C 5.1 g/m*3 16.2 C 4.8 km/h
1995 17-04-2014 15:00:00 16.5 C 5.06 g/m*3 16.5 C 6.4 km/h
1996 17-04-2014 15:05:00 16.6 C 4.94 g/m*3 16.6 C 8.1 km/h
1997 17-04-2014 15:10:00 16.5 C 5.2 g/m*3 16.5 C 6.4 km/h
1998 17-04-2014 15:15:00 16.5 C 5.62 g/m*3 16.5 C 11.3 km/h
1999 17-04-2014 15:20:00 16.7 C 5.54 g/m*3 16.7 C 3.2 km/h
2000 17-04-2014 15:25:00 16.8 C 5.72 g/m*3 16.8 C 4.8 km/h
Sensor: Nr:Datum:Temp:Abs-Feuchte:Windchill:Wind:
Aussen-T/F 2001 17-04-2014 15:30:00 16.8 C 5.15 g/m*3 16.8 C 4.8 km/h
2002 17-04-2014 15:35:00 16.9 C 5.47 g/m*3 16.9 C 4.8 km/h
2003 17-04-2014 15:40:00 17.2 C 5.56 g/m*3 17.2 C 6.4 km/h
2004 17-04-2014 15:45:00 17.7 C 6.04 g/m*3 17.7 C 6.4 km/h
2005 17-04-2014 15:50:00 17.8 C 5.46 g/m*3 17.8 C 3.2 km/h
2006 17-04-2014 15:55:00 17.8 C 5.16 g/m*3 17.8 C 8.1 km/h
2007 17-04-2014 16:00:00 18 C 6.14 g/m*3 18 C 6.4 km/h
2008 17-04-2014 16:05:00 18.2 C 5.44 g/m*3 18.2 C 6.4 km/h
2009 17-04-2014 16:10:00 18.6 C 6.05 g/m*3 18.6 C 4.8 km/h
2010 17-04-2014 16:15:00 18.6 C 5.89 g/m*3 18.6 C 8.1 km/h
2011 17-04-2014 16:20:00 18.6 C 5.41 g/m*3 18.6 C 6.4 km/h
2012 17-04-2014 16:25:00 18.8 C 5.31 g/m*3 18.8 C 8.1 km/h
2013 17-04-2014 16:30:00 18.9 C 5.51 g/m*3 18.9 C 11.3 km/h
2014 17-04-2014 16:35:00 18.9 C 5.51 g/m*3 18.9 C 14.5 km/h
2015 17-04-2014 16:40:00 19.2 C 5.61 g/m*3 19.2 C 12.9 km/h
2016 17-04-2014 16:45:00 19.1 C 4.75 g/m*3 19.1 C 11.3 km/h
2017 17-04-2014 16:50:00 19 C 4.89 g/m*3 19 C 16.1 km/h
2018 17-04-2014 16:55:00 19.2 C 5.11 g/m*3 19.2 C 16.1 km/h
2019 17-04-2014 17:00:00 19.4 C 5.17 g/m*3 19.4 C 8.1 km/h
2020 17-04-2014 17:05:00 19.4 C 5.17 g/m*3 19.4 C 9.7 km/h
2021 17-04-2014 17:10:00 19.6 C 5.23 g/m*3 19.6 C 9.7 km/h
2022 17-04-2014 17:15:00 19.4 C 5.17 g/m*3 19.4 C 12.9 km/h
2023 17-04-2014 17:20:00 19.4 C 5.34 g/m*3 19.4 C 12.9 km/h
2024 17-04-2014 17:25:00 19.4 C 5.17 g/m*3 19.4 C 14.5 km/h
2025 17-04-2014 17:30:00 19.5 C 5.03 g/m*3 19.5 C 8.1 km/h
Sensor: Nr:Datum:Temp:Abs-Feuchte:Windchill:Wind:
Aussen-T/F 2026 17-04-2014 17:35:00 19.5 C 5.54 g/m*3 19.5 C 9.7 km/h
2027 17-04-2014 17:40:00 19.5 C 5.2 g/m*3 19.5 C 8.1 km/h
2028 17-04-2014 17:45:00 19.6 C 5.06 g/m*3 19.6 C 8.1 km/h
2029 17-04-2014 17:50:00 19.4 C 5.17 g/m*3 19.4 C 6.4 km/h
2030 17-04-2014 17:55:00 19.6 C 5.23 g/m*3 19.6 C 9.7 km/h
2031 17-04-2014 18:00:00 19.6 C 5.57 g/m*3 19.6 C 6.4 km/h
2032 17-04-2014 18:05:00 19.6 C 5.57 g/m*3 19.6 C 8.1 km/h
2033 17-04-2014 18:10:00 19.7 C 4.92 g/m*3 19.7 C 11.3 km/h
2034 17-04-2014 18:15:00 19.7 C 5.26 g/m*3 19.7 C 1.6 km/h
2035 17-04-2014 18:20:00 19.7 C 5.6 g/m*3 19.7 C 3.2 km/h
2036 17-04-2014 18:25:00 19.6 C 5.06 g/m*3 19.6 C 8.1 km/h
2037 17-04-2014 18:30:00 19.5 C 5.2 g/m*3 19.5 C 4.8 km/h
2038 17-04-2014 18:35:00 19.5 C 5.2 g/m*3 19.5 C 6.4 km/h
2039 17-04-2014 18:40:00 19.5 C 5.37 g/m*3 19.5 C 4.8 km/h
2040 17-04-2014 18:45:00 19.4 C 6.01 g/m*3 19.4 C 3.2 km/h
2041 17-04-2014 18:50:00 19.3 C 5.47 g/m*3 19.3 C 1.6 km/h
2042 17-04-2014 18:55:00 19.4 C 5.67 g/m*3 19.4 C 0 km/h
2043 17-04-2014 19:00:00 19.3 C 5.47 g/m*3 19.3 C 1.6 km/h
2044 17-04-2014 19:05:00 19.3 C 5.64 g/m*3 19.3 C 4.8 km/h
2045 17-04-2014 19:10:00 19.2 C 5.94 g/m*3 19.2 C 4.8 km/h
2046 17-04-2014 19:15:00 18.7 C 6.08 g/m*3 18.7 C 4.8 km/h
2047 17-04-2014 19:20:00 17.9 C 6.57 g/m*3 17.9 C 1.6 km/h
2048 17-04-2014 19:25:00 16.9 C 6.33 g/m*3 16.9 C 0 km/h
2049 17-04-2014 19:30:00 16.1 C 6.58 g/m*3 16.1 C 1.6 km/h
2050 17-04-2014 19:35:00 15.3 C 6.53 g/m*3 15.3 C 3.2 km/h
Sensor: Nr:Datum:Temp:Abs-Feuchte:Windchill:Wind:
Aussen-T/F 2051 17-04-2014 19:40:00 14.7 C 6.55 g/m*3 14.7 C 4.8 km/h
2052 17-04-2014 19:45:00 14.2 C 6.59 g/m*3 14.2 C 4.8 km/h
2053 17-04-2014 19:50:00 13.8 C 6.43 g/m*3 13.8 C 4.8 km/h
2054 17-04-2014 19:55:00 13.6 C 6.59 g/m*3 13.6 C 4.8 km/h
2055 17-04-2014 20:00:00 13.3 C 6.59 g/m*3 13.3 C 4.8 km/h
2056 17-04-2014 20:05:00 13.1 C 6.39 g/m*3 13.1 C 4.8 km/h
2057 17-04-2014 20:10:00 12.9 C 6.31 g/m*3 12.9 C 3.2 km/h
2058 17-04-2014 20:15:00 12.8 C 6.27 g/m*3 12.8 C 4.8 km/h
2059 17-04-2014 20:20:00 12.7 C 6.23 g/m*3 12.7 C 4.8 km/h
2060 17-04-2014 20:25:00 12.6 C 6.31 g/m*3 12.6 C 4.8 km/h
2061 17-04-2014 20:30:00 12.5 C 6.27 g/m*3 12.5 C 3.2 km/h
2062 17-04-2014 20:35:00 12.4 C 6.23 g/m*3 12.4 C 3.2 km/h
2063 17-04-2014 20:40:00 12.3 C 6.3 g/m*3 12.3 C 3.2 km/h
2064 17-04-2014 20:45:00 12.2 C 6.26 g/m*3 12.2 C 3.2 km/h
2065 17-04-2014 20:50:00 12.2 C 6.37 g/m*3 12.2 C 1.6 km/h
2066 17-04-2014 20:55:00 12.2 C 6.26 g/m*3 12.2 C 0 km/h
2067 17-04-2014 21:00:00 12.1 C 6.33 g/m*3 12.1 C 0 km/h
2068 17-04-2014 21:05:00 12 C 6.29 g/m*3 12 C 1.6 km/h
2069 17-04-2014 21:10:00 12 C 6.29 g/m*3 12 C 1.6 km/h
2070 17-04-2014 21:15:00 12.1 C 5.9 g/m*3 12.1 C 1.6 km/h
2071 17-04-2014 21:20:00 12.3 C 6.19 g/m*3 12.3 C 1.6 km/h
2072 17-04-2014 21:25:00 12.4 C 5.9 g/m*3 12.4 C 4.8 km/h
2073 17-04-2014 21:30:00 12.6 C 5.86 g/m*3 12.6 C 1.6 km/h
2074 17-04-2014 21:35:00 12.6 C 5.86 g/m*3 12.6 C 1.6 km/h
2075 17-04-2014 21:40:00 12.7 C 5.68 g/m*3 12.7 C 3.2 km/h
Sensor: Nr:Datum:Temp:Abs-Feuchte:Windchill:Wind:
Aussen-T/F 2076 17-04-2014 21:45:00 12.8 C 5.94 g/m*3 12.8 C 4.8 km/h
2077 17-04-2014 21:50:00 12.9 C 5.64 g/m*3 12.9 C 3.2 km/h
2078 17-04-2014 21:55:00 13.1 C 5.71 g/m*3 13.1 C 6.4 km/h
2079 17-04-2014 22:00:00 13 C 5.78 g/m*3 13 C 1.6 km/h
2080 17-04-2014 22:05:00 12.9 C 5.86 g/m*3 12.9 C 3.2 km/h
2081 17-04-2014 22:10:00 12.8 C 5.6 g/m*3 12.8 C 6.4 km/h
2082 17-04-2014 22:15:00 12.9 C 5.75 g/m*3 12.9 C 3.2 km/h
2083 17-04-2014 22:20:00 12.9 C 5.64 g/m*3 12.9 C 1.6 km/h
2084 17-04-2014 22:25:00 12.9 C 5.64 g/m*3 12.9 C 3.2 km/h
2085 17-04-2014 22:30:00 13 C 5.56 g/m*3 13 C 1.6 km/h
2086 17-04-2014 22:35:00 13 C 5.9 g/m*3 13 C 4.8 km/h
2087 17-04-2014 22:40:00 12.9 C 5.75 g/m*3 12.9 C 4.8 km/h
2088 17-04-2014 22:45:00 12.9 C 5.64 g/m*3 12.9 C 1.6 km/h
2089 17-04-2014 22:50:00 12.9 C 5.75 g/m*3 12.9 C 3.2 km/h
2090 17-04-2014 22:55:00 12.9 C 5.64 g/m*3 12.9 C 3.2 km/h
2091 17-04-2014 23:00:00 12.9 C 5.75 g/m*3 12.9 C 3.2 km/h
2092 17-04-2014 23:05:00 12.8 C 5.6 g/m*3 12.8 C 6.4 km/h
2093 17-04-2014 23:10:00 12.8 C 6.05 g/m*3 12.8 C 4.8 km/h
2094 17-04-2014 23:15:00 12.7 C 5.79 g/m*3 12.7 C 1.6 km/h
2095 17-04-2014 23:20:00 12.6 C 6.08 g/m*3 12.6 C 3.2 km/h
2096 17-04-2014 23:25:00 12.6 C 5.97 g/m*3 12.6 C 3.2 km/h
2097 17-04-2014 23:30:00 12.5 C 5.61 g/m*3 12.5 C 3.2 km/h
2098 17-04-2014 23:35:00 12.7 C 6.23 g/m*3 12.7 C 1.6 km/h
2099 17-04-2014 23:40:00 12.5 C 6.27 g/m*3 12.5 C 1.6 km/h
2100 17-04-2014 23:45:00 12.3 C 6.19 g/m*3 12.3 C 1.6 km/h
Sensor: Nr:Datum:Temp:Abs-Feuchte:Windchill:Wind:
Aussen-T/F 2101 17-04-2014 23:50:00 12.2 C 6.37 g/m*3 12.2 C 0 km/h
2102 17-04-2014 23:55:00 12.1 C 6.43 g/m*3 12.1 C 0 km/h
2103 18-04-2014 00:00:00 11.9 C 6.46 g/m*3 11.9 C 1.6 km/h
2104 18-04-2014 00:05:00 11.8 C 6.21 g/m*3 11.8 C 0 km/h
2105 18-04-2014 00:10:00 11.7 C 6.28 g/m*3 11.7 C 1.6 km/h
2106 18-04-2014 00:15:00 11.7 C 6.28 g/m*3 11.7 C 1.6 km/h
2107 18-04-2014 00:20:00 11.7 C 6.48 g/m*3 11.7 C 3.2 km/h
2108 18-04-2014 00:25:00 11.6 C 6.03 g/m*3 11.6 C 4.8 km/h
2109 18-04-2014 00:30:00 11.7 C 6.38 g/m*3 11.7 C 3.2 km/h
2110 18-04-2014 00:35:00 11.7 C 6.28 g/m*3 11.7 C 3.2 km/h
2111 18-04-2014 00:40:00 11.8 C 6.21 g/m*3 11.8 C 8.1 km/h
2112 18-04-2014 00:45:00 11.8 C 6.31 g/m*3 11.8 C 3.2 km/h
2113 18-04-2014 00:50:00 11.8 C 5.89 g/m*3 11.8 C 3.2 km/h
2114 18-04-2014 00:55:00 12 C 6.39 g/m*3 12 C 3.2 km/h
2115 18-04-2014 01:00:00 11.9 C 6.67 g/m*3 11.9 C 4.8 km/h
2116 18-04-2014 01:05:00 11.9 C 6.67 g/m*3 11.9 C 1.6 km/h
2117 18-04-2014 01:10:00 12 C 6.29 g/m*3 12 C 8.1 km/h
2118 18-04-2014 01:15:00 12.2 C 6.69 g/m*3 12.2 C 4.8 km/h
2119 18-04-2014 01:20:00 12.1 C 6.76 g/m*3 12.1 C 4.8 km/h
2120 18-04-2014 01:25:00 11.9 C 7.52 g/m*3 11.9 C 1.6 km/h
2121 18-04-2014 01:30:00 11.4 C 7.8 g/m*3 11.4 C 3.2 km/h
2122 18-04-2014 01:35:00 10.9 C 7.86 g/m*3 10.04 C 8.1 km/h
2123 18-04-2014 01:40:00 10.6 C 7.91 g/m*3 9.69 C 8.1 km/h
2124 18-04-2014 01:45:00 10.3 C 7.66 g/m*3 9.72 C 6.4 km/h
2125 18-04-2014 01:50:00 10.6 C 7.61 g/m*3 10.6 C 3.2 km/h
Sensor: Nr:Datum:Temp:Abs-Feuchte:Windchill:Wind:
Aussen-T/F 2126 18-04-2014 01:55:00 10.8 C 7.31 g/m*3 10.29 C 6.4 km/h
2127 18-04-2014 02:00:00 10.8 C 7.71 g/m*3 10.8 C 3.2 km/h
2128 18-04-2014 02:05:00 10.7 C 7.86 g/m*3 10.7 C 4.8 km/h
2129 18-04-2014 02:10:00 10.4 C 7.71 g/m*3 10.4 C 4.8 km/h
2130 18-04-2014 02:15:00 10.3 C 7.76 g/m*3 10.3 C 0 km/h
2131 18-04-2014 02:20:00 10.3 C 7.76 g/m*3 10.3 C 4.8 km/h
2132 18-04-2014 02:25:00 10.2 C 7.42 g/m*3 9.6 C 6.4 km/h
2133 18-04-2014 02:30:00 10.6 C 7.03 g/m*3 10.6 C 4.8 km/h
2134 18-04-2014 02:35:00 11.1 C 7.05 g/m*3 11.1 C 6.4 km/h
2135 18-04-2014 02:40:00 11.4 C 6.88 g/m*3 11.4 C 9.7 km/h
2136 18-04-2014 02:45:00 11.7 C 7.01 g/m*3 11.7 C 9.7 km/h
2137 18-04-2014 02:50:00 11.9 C 6.99 g/m*3 11.9 C 11.3 km/h
2138 18-04-2014 02:55:00 12 C 7.03 g/m*3 12 C 12.9 km/h
2139 18-04-2014 03:00:00 12 C 7.14 g/m*3 12 C 9.7 km/h
2140 18-04-2014 03:05:00 11.9 C 7.2 g/m*3 11.9 C 6.4 km/h
2141 18-04-2014 03:10:00 11.9 C 7.31 g/m*3 11.9 C 11.3 km/h
2142 18-04-2014 03:15:00 11.8 C 7.37 g/m*3 11.8 C 12.9 km/h
2143 18-04-2014 03:20:00 11.7 C 7.43 g/m*3 11.7 C 6.4 km/h
2144 18-04-2014 03:25:00 11.7 C 7.53 g/m*3 11.7 C 9.7 km/h
2145 18-04-2014 03:30:00 11.6 C 7.59 g/m*3 11.6 C 8.1 km/h
2146 18-04-2014 03:35:00 11.4 C 7.49 g/m*3 11.4 C 14.5 km/h
2147 18-04-2014 03:40:00 11.3 C 7.55 g/m*3 11.3 C 14.5 km/h
2148 18-04-2014 03:45:00 11.2 C 7.6 g/m*3 11.2 C 12.9 km/h
2149 18-04-2014 03:50:00 11.1 C 7.55 g/m*3 11.1 C 8.1 km/h
2150 18-04-2014 03:55:00 11.1 C 7.66 g/m*3 11.1 C 14.5 km/h
Sensor: Nr:Datum:Temp:Abs-Feuchte:Windchill:Wind:
Aussen-T/F 2151 18-04-2014 04:00:00 10.9 C 7.66 g/m*3 9.51 C 11.3 km/h
2152 18-04-2014 04:05:00 10.8 C 7.71 g/m*3 9.16 C 12.9 km/h
2153 18-04-2014 04:10:00 10.7 C 7.76 g/m*3 9.52 C 9.7 km/h
2154 18-04-2014 04:15:00 10.6 C 7.71 g/m*3 9.14 C 11.3 km/h
2155 18-04-2014 04:20:00 10.4 C 7.71 g/m*3 8.28 C 16.1 km/h
2156 18-04-2014 04:25:00 10.2 C 7.71 g/m*3 8.92 C 9.7 km/h
2157 18-04-2014 04:30:00 10 C 7.71 g/m*3 7.98 C 14.5 km/h
2158 18-04-2014 04:35:00 9.8 C 7.7 g/m*3 9.14 C 6.4 km/h
2159 18-04-2014 04:40:00 9.7 C 7.65 g/m*3 7.82 C 12.9 km/h
2160 18-04-2014 04:45:00 9.6 C 7.69 g/m*3 8.21 C 9.7 km/h
2161 18-04-2014 04:50:00 9.5 C 7.74 g/m*3 9.5 C 3.2 km/h
2162 18-04-2014 04:55:00 9.4 C 7.69 g/m*3 7.97 C 9.7 km/h
2163 18-04-2014 05:00:00 9.2 C 7.59 g/m*3 6.99 C 14.5 km/h
2164 18-04-2014 05:05:00 9.1 C 7.54 g/m*3 7.61 C 9.7 km/h
2165 18-04-2014 05:10:00 9 C 7.58 g/m*3 8.21 C 6.4 km/h
2166 18-04-2014 05:15:00 8.9 C 7.53 g/m*3 7.69 C 8.1 km/h
2167 18-04-2014 05:20:00 8.8 C 7.49 g/m*3 7.25 C 9.7 km/h
2168 18-04-2014 05:25:00 8.8 C 7.49 g/m*3 8.8 C 4.8 km/h
2169 18-04-2014 05:30:00 8.8 C 7.57 g/m*3 8.8 C 4.8 km/h
2170 18-04-2014 05:35:00 8.7 C 7.52 g/m*3 8.7 C 4.8 km/h
2171 18-04-2014 05:40:00 8.7 C 7.52 g/m*3 7.46 C 8.1 km/h
2172 18-04-2014 05:45:00 8.6 C 7.56 g/m*3 7.75 C 6.4 km/h
2173 18-04-2014 05:50:00 8.6 C 7.56 g/m*3 7.34 C 8.1 km/h
2174 18-04-2014 05:55:00 8.5 C 7.51 g/m*3 8.5 C 4.8 km/h
2175 18-04-2014 06:00:00 8.4 C 7.47 g/m*3 8.4 C 3.2 km/h
Sensor: Nr:Datum:Temp:Abs-Feuchte:Windchill:Wind:
Aussen-T/F 2176 18-04-2014 06:05:00 8.4 C 7.38 g/m*3 7.52 C 6.4 km/h
2177 18-04-2014 06:10:00 8.4 C 7.38 g/m*3 6.49 C 11.3 km/h
2178 18-04-2014 06:15:00 8.4 C 7.47 g/m*3 7.52 C 6.4 km/h
2179 18-04-2014 06:20:00 8.4 C 7.47 g/m*3 7.52 C 6.4 km/h
2180 18-04-2014 06:25:00 8.4 C 7.47 g/m*3 7.52 C 6.4 km/h
2181 18-04-2014 06:30:00 8.4 C 7.47 g/m*3 7.52 C 6.4 km/h
2182 18-04-2014 06:35:00 8.4 C 7.47 g/m*3 6.01 C 14.5 km/h
2183 18-04-2014 06:40:00 8.4 C 7.47 g/m*3 6.78 C 9.7 km/h
2184 18-04-2014 06:45:00 8.4 C 7.38 g/m*3 7.11 C 8.1 km/h
2185 18-04-2014 06:50:00 8.4 C 7.38 g/m*3 6.78 C 9.7 km/h
2186 18-04-2014 06:55:00 8.4 C 7.38 g/m*3 7.52 C 6.4 km/h
2187 18-04-2014 07:00:00 8.4 C 7.38 g/m*3 7.52 C 6.4 km/h
2188 18-04-2014 07:05:00 8.4 C 7.3 g/m*3 7.52 C 6.4 km/h
2189 18-04-2014 07:10:00 8.3 C 7.25 g/m*3 6.12 C 12.9 km/h
2190 18-04-2014 07:15:00 8.3 C 7.16 g/m*3 6.99 C 8.1 km/h
2191 18-04-2014 07:20:00 8.3 C 7.16 g/m*3 6.37 C 11.3 km/h
2192 18-04-2014 07:25:00 8.3 C 7.16 g/m*3 7.41 C 6.4 km/h
2193 18-04-2014 07:30:00 8.3 C 7.16 g/m*3 7.41 C 6.4 km/h
2194 18-04-2014 07:35:00 8.3 C 7.16 g/m*3 7.41 C 6.4 km/h
2195 18-04-2014 07:40:00 8.4 C 7.21 g/m*3 7.11 C 8.1 km/h
2196 18-04-2014 07:45:00 8.5 C 7.26 g/m*3 6.9 C 9.7 km/h
2197 18-04-2014 07:50:00 8.6 C 7.05 g/m*3 6.48 C 12.9 km/h
2198 18-04-2014 07:55:00 8.5 C 7 g/m*3 6.9 C 9.7 km/h
2199 18-04-2014 08:00:00 8.4 C 6.96 g/m*3 7.52 C 6.4 km/h
2200 18-04-2014 08:05:00 8.4 C 6.87 g/m*3 7.11 C 8.1 km/h
Sensor: Nr:Datum:Temp:Abs-Feuchte:Windchill:Wind:
Aussen-T/F 2201 18-04-2014 08:10:00 8.4 C 6.87 g/m*3 6.78 C 9.7 km/h
2202 18-04-2014 08:15:00 8.4 C 6.87 g/m*3 6.24 C 12.9 km/h
2203 18-04-2014 08:20:00 8.3 C 6.83 g/m*3 6.66 C 9.7 km/h
2204 18-04-2014 08:25:00 8.3 C 6.74 g/m*3 5.68 C 16.1 km/h
2205 18-04-2014 08:30:00 8.3 C 6.74 g/m*3 5.68 C 16.1 km/h
2206 18-04-2014 08:35:00 8.5 C 6.83 g/m*3 6.61 C 11.3 km/h
2207 18-04-2014 08:40:00 8.7 C 6.92 g/m*3 6.38 C 14.5 km/h
2208 18-04-2014 08:45:00 8.9 C 6.92 g/m*3 7.37 C 9.7 km/h
2209 18-04-2014 08:50:00 9 C 6.88 g/m*3 6.75 C 14.5 km/h
2210 18-04-2014 08:55:00 8.9 C 6.83 g/m*3 6.42 C 16.1 km/h
2211 18-04-2014 09:00:00 8.9 C 6.83 g/m*3 6.85 C 12.9 km/h
2212 18-04-2014 09:05:00 8.8 C 6.79 g/m*3 6.5 C 14.5 km/h
2213 18-04-2014 09:10:00 9 C 6.26 g/m*3 6.54 C 16.1 km/h
2214 18-04-2014 09:15:00 9 C 6.17 g/m*3 6.03 C 20.9 km/h
2215 18-04-2014 09:20:00 9 C 6.35 g/m*3 7.49 C 9.7 km/h
2216 18-04-2014 09:25:00 9 C 6.17 g/m*3 6.54 C 16.1 km/h
2217 18-04-2014 09:30:00 9 C 6.17 g/m*3 6.54 C 16.1 km/h
2218 18-04-2014 09:35:00 9.1 C 6.21 g/m*3 6.87 C 14.5 km/h
2219 18-04-2014 09:40:00 9.2 C 6.34 g/m*3 7.46 C 11.3 km/h
2220 18-04-2014 09:45:00 9.2 C 6.34 g/m*3 7.21 C 12.9 km/h
2221 18-04-2014 09:50:00 9.3 C 6.38 g/m*3 6.73 C 17.7 km/h
2222 18-04-2014 09:55:00 9.2 C 6.34 g/m*3 7.21 C 12.9 km/h
2223 18-04-2014 10:00:00 9.1 C 6.12 g/m*3 6.87 C 14.5 km/h
2224 18-04-2014 10:05:00 9.3 C 6.38 g/m*3 6.92 C 16.1 km/h
2225 18-04-2014 10:10:00 9.3 C 6.02 g/m*3 6.92 C 16.1 km/h
Sensor: Nr:Datum:Temp:Abs-Feuchte:Windchill:Wind:
Aussen-T/F 2226 18-04-2014 10:15:00 9.5 C 6.1 g/m*3 6.98 C 17.7 km/h
2227 18-04-2014 10:20:00 9.6 C 6.23 g/m*3 7.48 C 14.5 km/h
2228 18-04-2014 10:25:00 9.6 C 6.14 g/m*3 6.5 C 24.1 km/h
2229 18-04-2014 10:30:00 9.4 C 6.42 g/m*3 6.86 C 17.7 km/h
2230 18-04-2014 10:35:00 9 C 6.44 g/m*3 7.21 C 11.3 km/h
2231 18-04-2014 10:40:00 8.8 C 6.53 g/m*3 6.97 C 11.3 km/h
2232 18-04-2014 10:45:00 8.9 C 6.57 g/m*3 7.37 C 9.7 km/h
2233 18-04-2014 10:50:00 9.1 C 6.65 g/m*3 7.61 C 9.7 km/h
2234 18-04-2014 10:55:00 9.1 C 6.65 g/m*3 8.33 C 6.4 km/h
2235 18-04-2014 11:00:00 9.2 C 6.52 g/m*3 7.21 C 12.9 km/h
2236 18-04-2014 11:05:00 9.4 C 6.6 g/m*3 7.04 C 16.1 km/h
2237 18-04-2014 11:10:00 9.5 C 6.64 g/m*3 8.4 C 8.1 km/h
2238 18-04-2014 11:15:00 9.6 C 6.6 g/m*3 8.21 C 9.7 km/h
2239 18-04-2014 11:20:00 9.7 C 6.55 g/m*3 8.63 C 8.1 km/h
2240 18-04-2014 11:25:00 9.8 C 6.49 g/m*3 8.45 C 9.7 km/h
2241 18-04-2014 11:30:00 9.9 C 6.54 g/m*3 7.32 C 19.3 km/h
2242 18-04-2014 11:35:00 10 C 6.48 g/m*3 7.98 C 14.5 km/h
2243 18-04-2014 11:40:00 9.8 C 6.49 g/m*3 7.36 C 17.7 km/h
2244 18-04-2014 11:45:00 9.4 C 6.42 g/m*3 7.46 C 12.9 km/h
2245 18-04-2014 11:50:00 8.9 C 6.57 g/m*3 7.09 C 11.3 km/h
2246 18-04-2014 11:55:00 8.7 C 6.57 g/m*3 7.87 C 6.4 km/h
2247 18-04-2014 12:00:00 8.7 C 6.57 g/m*3 7.13 C 9.7 km/h
2248 18-04-2014 12:05:00 8.9 C 6.75 g/m*3 8.1 C 6.4 km/h
2249 18-04-2014 12:10:00 9.3 C 6.74 g/m*3 7.58 C 11.3 km/h
2250 18-04-2014 12:15:00 9.6 C 6.41 g/m*3 7.29 C 16.1 km/h
Sensor: Nr:Datum:Temp:Abs-Feuchte:Windchill:Wind:
Aussen-T/F 2251 18-04-2014 12:20:00 9.8 C 6.49 g/m*3 7.73 C 14.5 km/h
2252 18-04-2014 12:25:00 9.7 C 6.55 g/m*3 7.82 C 12.9 km/h
2253 18-04-2014 12:30:00 9.7 C 6.45 g/m*3 6.77 C 22.5 km/h
2254 18-04-2014 12:35:00 10.2 C 6.95 g/m*3 8.22 C 14.5 km/h
2255 18-04-2014 12:40:00 10.7 C 6.68 g/m*3 8.84 C 14.5 km/h
2256 18-04-2014 12:45:00 10.9 C 6.56 g/m*3 9.08 C 14.5 km/h
2257 18-04-2014 12:50:00 11.2 C 6.49 g/m*3 11.2 C 12.9 km/h
2258 18-04-2014 12:55:00 11.4 C 6.77 g/m*3 11.4 C 11.3 km/h
2259 18-04-2014 13:00:00 11.5 C 6.4 g/m*3 11.5 C 16.1 km/h
2260 18-04-2014 13:05:00 11.9 C 6.25 g/m*3 11.9 C 14.5 km/h
2261 18-04-2014 13:10:00 12.2 C 6.37 g/m*3 12.2 C 16.1 km/h
2262 18-04-2014 13:15:00 12.5 C 6.16 g/m*3 12.5 C 14.5 km/h
2263 18-04-2014 13:20:00 12.5 C 6.05 g/m*3 12.5 C 17.7 km/h
2264 18-04-2014 13:25:00 12.2 C 5.94 g/m*3 12.2 C 14.5 km/h
2265 18-04-2014 13:30:00 12.1 C 6.33 g/m*3 12.1 C 14.5 km/h
2266 18-04-2014 13:35:00 12.3 C 6.08 g/m*3 12.3 C 11.3 km/h
2267 18-04-2014 13:40:00 12.4 C 6.12 g/m*3 12.4 C 9.7 km/h
2268 18-04-2014 13:45:00 12.8 C 5.94 g/m*3 12.8 C 17.7 km/h
2269 18-04-2014 13:50:00 12.9 C 5.97 g/m*3 12.9 C 14.5 km/h
2270 18-04-2014 13:55:00 13.2 C 5.97 g/m*3 13.2 C 19.3 km/h
2271 18-04-2014 14:00:00 13.2 C 5.51 g/m*3 13.2 C 22.5 km/h
2272 18-04-2014 14:05:00 12.9 C 5.75 g/m*3 12.9 C 12.9 km/h
2273 18-04-2014 14:10:00 13.1 C 5.82 g/m*3 13.1 C 16.1 km/h
2274 18-04-2014 14:15:00 13.3 C 5.66 g/m*3 13.3 C 11.3 km/h
2275 18-04-2014 14:20:00 13.3 C 5.78 g/m*3 13.3 C 9.7 km/h
Sensor: Nr:Datum:Temp:Abs-Feuchte:Windchill:Wind:
Aussen-T/F 2276 18-04-2014 14:25:00 13.6 C 5.41 g/m*3 13.6 C 12.9 km/h
2277 18-04-2014 14:30:00 13.4 C 5.58 g/m*3 13.4 C 14.5 km/h
2278 18-04-2014 14:35:00 13.4 C 5.81 g/m*3 13.4 C 16.1 km/h
2279 18-04-2014 14:40:00 13.2 C 5.4 g/m*3 13.2 C 14.5 km/h
2280 18-04-2014 14:45:00 13.1 C 5.48 g/m*3 13.1 C 14.5 km/h
2281 18-04-2014 14:50:00 13.6 C 5.77 g/m*3 13.6 C 22.5 km/h
2282 18-04-2014 14:55:00 13.8 C 5.48 g/m*3 13.8 C 11.3 km/h
2283 18-04-2014 15:00:00 14.2 C 5.62 g/m*3 14.2 C 16.1 km/h
2284 18-04-2014 15:05:00 13.7 C 4.97 g/m*3 13.7 C 16.1 km/h
2285 18-04-2014 15:10:00 13.3 C 5.08 g/m*3 13.3 C 20.9 km/h
2286 18-04-2014 15:15:00 13.3 C 5.43 g/m*3 13.3 C 16.1 km/h
2287 18-04-2014 15:20:00 13.4 C 5.23 g/m*3 13.4 C 19.3 km/h
2288 18-04-2014 15:25:00 13.2 C 5.17 g/m*3 13.2 C 20.9 km/h
2289 18-04-2014 15:30:00 13.4 C 5.11 g/m*3 13.4 C 17.7 km/h
2290 18-04-2014 15:35:00 13.9 C 5.27 g/m*3 13.9 C 11.3 km/h
2291 18-04-2014 15:40:00 14.3 C 5.16 g/m*3 14.3 C 19.3 km/h
2292 18-04-2014 15:45:00 13.7 C 4.5 g/m*3 13.7 C 17.7 km/h
2293 18-04-2014 15:50:00 13.3 C 4.62 g/m*3 13.3 C 16.1 km/h
2294 18-04-2014 15:55:00 13.5 C 4.91 g/m*3 13.5 C 20.9 km/h
2295 18-04-2014 16:00:00 14.1 C 4.98 g/m*3 14.1 C 19.3 km/h
2296 18-04-2014 16:05:00 14.1 C 5.1 g/m*3 14.1 C 14.5 km/h
2297 18-04-2014 16:10:00 14.3 C 4.91 g/m*3 14.3 C 14.5 km/h
2298 18-04-2014 16:15:00 14.6 C 4.88 g/m*3 14.6 C 20.9 km/h
2299 18-04-2014 16:20:00 14.8 C 4.94 g/m*3 14.8 C 16.1 km/h
2300 18-04-2014 16:25:00 14.8 C 4.69 g/m*3 14.8 C 17.7 km/h
Sensor: Nr:Datum:Temp:Abs-Feuchte:Windchill:Wind:
Aussen-T/F 2301 18-04-2014 16:30:00 14.8 C 4.69 g/m*3 14.8 C 16.1 km/h
2302 18-04-2014 16:35:00 14.8 C 4.56 g/m*3 14.8 C 19.3 km/h
2303 18-04-2014 16:40:00 14.7 C 4.53 g/m*3 14.7 C 20.9 km/h
2304 18-04-2014 16:45:00 14.7 C 4.78 g/m*3 14.7 C 12.9 km/h
2305 18-04-2014 16:50:00 14.4 C 4.7 g/m*3 14.4 C 16.1 km/h
2306 18-04-2014 16:55:00 14.5 C 5.1 g/m*3 14.5 C 19.3 km/h
2307 18-04-2014 17:00:00 14.6 C 4.88 g/m*3 14.6 C 20.9 km/h
2308 18-04-2014 17:05:00 14.1 C 4.98 g/m*3 14.1 C 16.1 km/h
2309 18-04-2014 17:10:00 14.2 C 5.01 g/m*3 14.2 C 12.9 km/h
2310 18-04-2014 17:15:00 14.3 C 5.16 g/m*3 14.3 C 11.3 km/h
2311 18-04-2014 17:20:00 14.5 C 4.85 g/m*3 14.5 C 19.3 km/h
2312 18-04-2014 17:25:00 14.4 C 4.82 g/m*3 14.4 C 22.5 km/h
2313 18-04-2014 17:30:00 14.3 C 4.79 g/m*3 14.3 C 19.3 km/h
2314 18-04-2014 17:35:00 14.4 C 4.7 g/m*3 14.4 C 17.7 km/h
2315 18-04-2014 17:40:00 14.2 C 4.64 g/m*3 14.2 C 17.7 km/h
2316 18-04-2014 17:45:00 13.4 C 4.77 g/m*3 13.4 C 16.1 km/h
2317 18-04-2014 17:50:00 13.4 C 4.77 g/m*3 13.4 C 14.5 km/h
2318 18-04-2014 17:55:00 13.8 C 4.89 g/m*3 13.8 C 17.7 km/h
2319 18-04-2014 18:00:00 13.9 C 4.92 g/m*3 13.9 C 16.1 km/h
2320 18-04-2014 18:05:00 14 C 4.82 g/m*3 14 C 12.9 km/h
2321 18-04-2014 18:10:00 13.9 C 4.92 g/m*3 13.9 C 19.3 km/h
2322 18-04-2014 18:15:00 13.8 C 5 g/m*3 13.8 C 24.1 km/h
2323 18-04-2014 18:20:00 13.7 C 4.97 g/m*3 13.7 C 16.1 km/h
2324 18-04-2014 18:25:00 13.9 C 5.04 g/m*3 13.9 C 12.9 km/h
2325 18-04-2014 18:30:00 13.7 C 4.74 g/m*3 13.7 C 17.7 km/h
Sensor: Nr:Datum:Temp:Abs-Feuchte:Windchill:Wind:
Aussen-T/F 2326 18-04-2014 18:35:00 13.7 C 4.86 g/m*3 13.7 C 12.9 km/h
2327 18-04-2014 18:40:00 13.9 C 4.92 g/m*3 13.9 C 12.9 km/h
2328 18-04-2014 18:45:00 14.1 C 4.98 g/m*3 14.1 C 12.9 km/h
2329 18-04-2014 18:50:00 14.2 C 4.88 g/m*3 14.2 C 12.9 km/h
2330 18-04-2014 18:55:00 14.1 C 4.73 g/m*3 14.1 C 8.1 km/h
2331 18-04-2014 19:00:00 13.9 C 4.8 g/m*3 13.9 C 11.3 km/h
2332 18-04-2014 19:05:00 13.8 C 4.77 g/m*3 13.8 C 9.7 km/h
2333 18-04-2014 19:10:00 13.7 C 4.86 g/m*3 13.7 C 17.7 km/h
2334 18-04-2014 19:15:00 13.7 C 4.97 g/m*3 13.7 C 11.3 km/h
2335 18-04-2014 19:20:00 13.7 C 4.74 g/m*3 13.7 C 9.7 km/h
2336 18-04-2014 19:25:00 13.6 C 4.59 g/m*3 13.6 C 11.3 km/h
2337 18-04-2014 19:30:00 13.3 C 4.74 g/m*3 13.3 C 6.4 km/h
2338 18-04-2014 19:35:00 13.2 C 4.71 g/m*3 13.2 C 8.1 km/h
2339 18-04-2014 19:40:00 12.9 C 4.85 g/m*3 12.9 C 6.4 km/h
2340 18-04-2014 19:45:00 12.5 C 4.84 g/m*3 12.5 C 8.1 km/h
2341 18-04-2014 19:50:00 12.2 C 4.86 g/m*3 12.2 C 6.4 km/h
2342 18-04-2014 19:55:00 11.8 C 4.84 g/m*3 11.8 C 8.1 km/h
2343 18-04-2014 20:00:00 11.6 C 4.78 g/m*3 11.6 C 11.3 km/h
2344 18-04-2014 20:05:00 11.4 C 4.93 g/m*3 11.4 C 4.8 km/h
2345 18-04-2014 20:10:00 11.2 C 5.17 g/m*3 11.2 C 0 km/h
2346 18-04-2014 20:15:00 10.7 C 5.21 g/m*3 10.7 C 3.2 km/h
2347 18-04-2014 20:20:00 10.4 C 5.01 g/m*3 10.4 C 4.8 km/h
2348 18-04-2014 20:25:00 10.3 C 5.17 g/m*3 10.3 C 0 km/h
2349 18-04-2014 20:30:00 10.1 C 5.2 g/m*3 10.1 C 0 km/h
2350 18-04-2014 20:35:00 9.8 C 5.29 g/m*3 9.8 C 0 km/h
Sensor: Nr:Datum:Temp:Abs-Feuchte:Windchill:Wind:
Aussen-T/F 2351 18-04-2014 20:40:00 9.6 C 5.4 g/m*3 9.6 C 0 km/h
2352 18-04-2014 20:45:00 9.3 C 5.39 g/m*3 9.3 C 1.6 km/h
2353 18-04-2014 20:50:00 9.2 C 5.45 g/m*3 9.2 C 0 km/h
2354 18-04-2014 20:55:00 9 C 5.47 g/m*3 9 C 1.6 km/h
2355 18-04-2014 21:00:00 8.8 C 5.48 g/m*3 8.8 C 0 km/h
2356 18-04-2014 21:05:00 8.8 C 5.57 g/m*3 8.8 C 1.6 km/h
2357 18-04-2014 21:10:00 8.7 C 5.62 g/m*3 8.7 C 0 km/h
2358 18-04-2014 21:15:00 8.7 C 5.62 g/m*3 8.7 C 0 km/h
2359 18-04-2014 21:20:00 8.7 C 5.62 g/m*3 8.7 C 0 km/h
2360 18-04-2014 21:25:00 8.7 C 5.62 g/m*3 8.7 C 0 km/h
2361 18-04-2014 21:30:00 8.7 C 5.71 g/m*3 8.7 C 0 km/h
2362 18-04-2014 21:35:00 8.7 C 5.71 g/m*3 8.7 C 1.6 km/h
2363 18-04-2014 21:40:00 8.6 C 5.67 g/m*3 8.6 C 4.8 km/h
2364 18-04-2014 21:45:00 8.6 C 5.76 g/m*3 8.6 C 1.6 km/h
2365 18-04-2014 21:50:00 8.8 C 5.66 g/m*3 8.8 C 4.8 km/h
2366 18-04-2014 21:55:00 8.9 C 5.69 g/m*3 8.9 C 3.2 km/h
2367 18-04-2014 22:00:00 9 C 5.73 g/m*3 9 C 3.2 km/h
2368 18-04-2014 22:05:00 9 C 5.82 g/m*3 9 C 3.2 km/h
2369 18-04-2014 22:10:00 8.9 C 5.78 g/m*3 8.9 C 1.6 km/h
2370 18-04-2014 22:15:00 8.7 C 5.88 g/m*3 8.7 C 0 km/h
2371 18-04-2014 22:20:00 8.3 C 5.82 g/m*3 8.3 C 4.8 km/h
2372 18-04-2014 22:25:00 8.2 C 5.86 g/m*3 8.2 C 0 km/h
2373 18-04-2014 22:30:00 8 C 5.87 g/m*3 8 C 0 km/h
2374 18-04-2014 22:35:00 7.9 C 5.91 g/m*3 7.9 C 1.6 km/h
2375 18-04-2014 22:40:00 7.8 C 5.88 g/m*3 7.8 C 0 km/h
Sensor: Nr:Datum:Temp:Abs-Feuchte:Windchill:Wind:
Aussen-T/F 2376 18-04-2014 22:45:00 7.7 C 5.92 g/m*3 7.7 C 3.2 km/h
2377 18-04-2014 22:50:00 7.6 C 5.88 g/m*3 7.6 C 1.6 km/h
2378 18-04-2014 22:55:00 7.4 C 5.81 g/m*3 7.4 C 3.2 km/h
2379 18-04-2014 23:00:00 7.3 C 5.85 g/m*3 7.3 C 3.2 km/h
2380 18-04-2014 23:05:00 7.3 C 5.85 g/m*3 7.3 C 3.2 km/h
2381 18-04-2014 23:10:00 7.2 C 5.89 g/m*3 7.2 C 3.2 km/h
2382 18-04-2014 23:15:00 7.1 C 5.85 g/m*3 7.1 C 3.2 km/h
2383 18-04-2014 23:20:00 7.1 C 5.93 g/m*3 7.1 C 1.6 km/h
2384 18-04-2014 23:25:00 7.2 C 6.04 g/m*3 7.2 C 0 km/h
2385 18-04-2014 23:30:00 7.3 C 6 g/m*3 7.3 C 0 km/h
2386 18-04-2014 23:35:00 7.4 C 6.04 g/m*3 7.4 C 0 km/h
2387 18-04-2014 23:40:00 7.4 C 6.04 g/m*3 7.4 C 0 km/h
2388 18-04-2014 23:45:00 7.6 C 6.2 g/m*3 7.6 C 1.6 km/h
2389 18-04-2014 23:50:00 7.6 C 6.2 g/m*3 7.6 C 0 km/h
2390 18-04-2014 23:55:00 7.7 C 6.24 g/m*3 7.7 C 0 km/h
2391 19-04-2014 00:00:00 7.7 C 6.16 g/m*3 7.7 C 0 km/h
2392 19-04-2014 00:05:00 7.7 C 6.16 g/m*3 7.7 C 0 km/h
2393 19-04-2014 00:10:00 7.8 C 6.2 g/m*3 7.8 C 0 km/h
2394 19-04-2014 00:15:00 7.8 C 6.2 g/m*3 7.8 C 0 km/h
2395 19-04-2014 00:20:00 7.8 C 6.2 g/m*3 7.8 C 0 km/h
2396 19-04-2014 00:25:00 7.8 C 6.2 g/m*3 7.8 C 0 km/h
2397 19-04-2014 00:30:00 7.7 C 6.16 g/m*3 7.7 C 0 km/h
2398 19-04-2014 00:35:00 7.7 C 6.16 g/m*3 7.7 C 0 km/h
2399 19-04-2014 00:40:00 7.7 C 6.16 g/m*3 7.7 C 0 km/h
2400 19-04-2014 00:45:00 7.7 C 6.24 g/m*3 7.7 C 0 km/h
Sensor: Nr:Datum:Temp:Abs-Feuchte:Windchill:Wind:
Aussen-T/F 2401 19-04-2014 00:50:00 7.7 C 6.24 g/m*3 7.7 C 0 km/h
2402 19-04-2014 00:55:00 7.6 C 6.2 g/m*3 7.6 C 0 km/h
2403 19-04-2014 01:00:00 7.6 C 6.2 g/m*3 7.6 C 0 km/h
2404 19-04-2014 01:05:00 7.4 C 6.2 g/m*3 7.4 C 0 km/h
2405 19-04-2014 01:10:00 7.3 C 6.16 g/m*3 7.3 C 0 km/h
2406 19-04-2014 01:15:00 7.2 C 6.12 g/m*3 7.2 C 0 km/h
2407 19-04-2014 01:20:00 7.1 C 6.08 g/m*3 7.1 C 0 km/h
2408 19-04-2014 01:25:00 6.9 C 6.08 g/m*3 6.9 C 1.6 km/h
2409 19-04-2014 01:30:00 6.8 C 6.04 g/m*3 6.8 C 0 km/h
2410 19-04-2014 01:35:00 6.6 C 6.04 g/m*3 6.6 C 1.6 km/h
2411 19-04-2014 01:40:00 6.4 C 5.96 g/m*3 6.4 C 1.6 km/h
2412 19-04-2014 01:45:00 6.3 C 6 g/m*3 6.3 C 1.6 km/h
2413 19-04-2014 01:50:00 6.2 C 5.96 g/m*3 6.2 C 3.2 km/h
2414 19-04-2014 01:55:00 6.1 C 5.99 g/m*3 6.1 C 3.2 km/h
2415 19-04-2014 02:00:00 6 C 5.95 g/m*3 6 C 1.6 km/h
2416 19-04-2014 02:05:00 6 C 6.02 g/m*3 6 C 3.2 km/h
2417 19-04-2014 02:10:00 5.9 C 5.91 g/m*3 5.9 C 1.6 km/h
2418 19-04-2014 02:15:00 5.9 C 5.91 g/m*3 5.9 C 1.6 km/h
2419 19-04-2014 02:20:00 5.9 C 5.98 g/m*3 5.9 C 3.2 km/h
2420 19-04-2014 02:25:00 5.8 C 5.95 g/m*3 5.8 C 1.6 km/h
2421 19-04-2014 02:30:00 5.8 C 5.95 g/m*3 5.8 C 1.6 km/h
2422 19-04-2014 02:35:00 5.8 C 5.95 g/m*3 5.8 C 3.2 km/h
2423 19-04-2014 02:40:00 5.8 C 5.95 g/m*3 5.8 C 3.2 km/h
2424 19-04-2014 02:45:00 5.8 C 5.95 g/m*3 5.8 C 3.2 km/h
2425 19-04-2014 02:50:00 5.7 C 5.91 g/m*3 5.7 C 1.6 km/h
Sensor: Nr:Datum:Temp:Abs-Feuchte:Windchill:Wind:
Aussen-T/F 2426 19-04-2014 02:55:00 5.6 C 5.94 g/m*3 5.6 C 0 km/h
2427 19-04-2014 03:00:00 5.4 C 5.86 g/m*3 5.4 C 0 km/h
2428 19-04-2014 03:05:00 5.3 C 5.89 g/m*3 5.3 C 1.6 km/h
2429 19-04-2014 03:10:00 5.3 C 5.89 g/m*3 5.3 C 1.6 km/h
2430 19-04-2014 03:15:00 5.3 C 5.89 g/m*3 5.3 C 1.6 km/h
2431 19-04-2014 03:20:00 5.2 C 5.85 g/m*3 5.2 C 3.2 km/h
2432 19-04-2014 03:25:00 5.2 C 5.85 g/m*3 5.2 C 1.6 km/h
2433 19-04-2014 03:30:00 5.1 C 5.81 g/m*3 5.1 C 1.6 km/h
2434 19-04-2014 03:35:00 5.1 C 5.88 g/m*3 5.1 C 1.6 km/h
2435 19-04-2014 03:40:00 4.9 C 5.81 g/m*3 4.9 C 3.2 km/h
2436 19-04-2014 03:45:00 4.9 C 5.81 g/m*3 4.9 C 1.6 km/h
2437 19-04-2014 03:50:00 4.9 C 5.87 g/m*3 4.9 C 0 km/h
2438 19-04-2014 03:55:00 5.1 C 5.95 g/m*3 5.1 C 0 km/h
2439 19-04-2014 04:00:00 5.2 C 5.99 g/m*3 5.2 C 0 km/h
2440 19-04-2014 04:05:00 5.3 C 6.03 g/m*3 5.3 C 0 km/h
2441 19-04-2014 04:10:00 5.4 C 6.07 g/m*3 5.4 C 1.6 km/h
2442 19-04-2014 04:15:00 5.4 C 6 g/m*3 5.4 C 0 km/h
2443 19-04-2014 04:20:00 5.4 C 6 g/m*3 5.4 C 0 km/h
2444 19-04-2014 04:25:00 5.4 C 6 g/m*3 5.4 C 0 km/h
2445 19-04-2014 04:30:00 5.3 C 5.96 g/m*3 5.3 C 0 km/h
2446 19-04-2014 04:35:00 5.2 C 5.92 g/m*3 5.2 C 0 km/h
2447 19-04-2014 04:40:00 5 C 5.84 g/m*3 5 C 0 km/h
2448 19-04-2014 04:45:00 4.9 C 5.81 g/m*3 4.9 C 0 km/h
2449 19-04-2014 04:50:00 4.8 C 5.77 g/m*3 4.8 C 1.6 km/h
2450 19-04-2014 04:55:00 4.7 C 5.8 g/m*3 4.7 C 1.6 km/h
Sensor: Nr:Datum:Temp:Abs-Feuchte:Windchill:Wind:
Aussen-T/F 2451 19-04-2014 05:00:00 4.6 C 5.76 g/m*3 4.6 C 1.6 km/h
2452 19-04-2014 05:05:00 4.5 C 5.72 g/m*3 4.5 C 0 km/h
2453 19-04-2014 05:10:00 4.4 C 5.75 g/m*3 4.4 C 0 km/h
2454 19-04-2014 05:15:00 4.3 C 5.71 g/m*3 4.3 C 1.6 km/h
2455 19-04-2014 05:20:00 4.2 C 5.67 g/m*3 4.2 C 0 km/h
2456 19-04-2014 05:25:00 4.1 C 5.63 g/m*3 4.1 C 0 km/h
2457 19-04-2014 05:30:00 4 C 5.66 g/m*3 4 C 0 km/h
2458 19-04-2014 05:35:00 3.9 C 5.62 g/m*3 3.9 C 1.6 km/h
2459 19-04-2014 05:40:00 3.9 C 5.62 g/m*3 3.9 C 0 km/h
2460 19-04-2014 05:45:00 4 C 5.72 g/m*3 4 C 0 km/h
2461 19-04-2014 05:50:00 4 C 5.72 g/m*3 4 C 0 km/h
2462 19-04-2014 05:55:00 4 C 5.72 g/m*3 4 C 0 km/h
2463 19-04-2014 06:00:00 4 C 5.72 g/m*3 4 C 0 km/h
2464 19-04-2014 06:05:00 4.1 C 5.76 g/m*3 4.1 C 0 km/h
2465 19-04-2014 06:10:00 4 C 5.72 g/m*3 4 C 0 km/h
2466 19-04-2014 06:15:00 4 C 5.72 g/m*3 4 C 0 km/h
2467 19-04-2014 06:20:00 4.1 C 5.76 g/m*3 4.1 C 0 km/h
2468 19-04-2014 06:25:00 4.1 C 5.82 g/m*3 4.1 C 0 km/h
2469 19-04-2014 06:30:00 4.1 C 5.82 g/m*3 4.1 C 0 km/h
2470 19-04-2014 06:35:00 4.1 C 5.82 g/m*3 4.1 C 0 km/h
2471 19-04-2014 06:40:00 4.1 C 5.82 g/m*3 4.1 C 0 km/h
2472 19-04-2014 06:45:00 4.1 C 5.82 g/m*3 4.1 C 0 km/h
2473 19-04-2014 06:50:00 4.1 C 5.82 g/m*3 4.1 C 0 km/h
2474 19-04-2014 06:55:00 4.2 C 5.86 g/m*3 4.2 C 0 km/h
2475 19-04-2014 07:00:00 4.2 C 5.86 g/m*3 4.2 C 0 km/h
Sensor: Nr:Datum:Temp:Abs-Feuchte:Windchill:Wind:
Aussen-T/F 2476 19-04-2014 07:05:00 4.2 C 5.86 g/m*3 4.2 C 0 km/h
2477 19-04-2014 07:10:00 4.2 C 5.86 g/m*3 4.2 C 0 km/h
2478 19-04-2014 07:15:00 4.3 C 5.9 g/m*3 4.3 C 0 km/h
2479 19-04-2014 07:20:00 4.3 C 5.9 g/m*3 4.3 C 0 km/h
2480 19-04-2014 07:25:00 4.3 C 5.9 g/m*3 4.3 C 0 km/h
2481 19-04-2014 07:30:00 4.4 C 5.94 g/m*3 4.4 C 0 km/h
2482 19-04-2014 07:35:00 4.4 C 5.94 g/m*3 4.4 C 0 km/h
2483 19-04-2014 07:40:00 4.4 C 5.94 g/m*3 4.4 C 0 km/h
2484 19-04-2014 07:45:00 4.5 C 5.98 g/m*3 4.5 C 0 km/h
2485 19-04-2014 07:50:00 4.5 C 5.98 g/m*3 4.5 C 0 km/h
2486 19-04-2014 07:55:00 4.6 C 6.02 g/m*3 4.6 C 0 km/h
2487 19-04-2014 08:00:00 4.7 C 6.06 g/m*3 4.7 C 0 km/h
2488 19-04-2014 08:05:00 4.7 C 6.06 g/m*3 4.7 C 0 km/h
2489 19-04-2014 08:10:00 4.8 C 6.04 g/m*3 4.8 C 0 km/h
2490 19-04-2014 08:15:00 4.8 C 6.04 g/m*3 4.8 C 0 km/h
2491 19-04-2014 08:20:00 4.9 C 6.08 g/m*3 4.9 C 0 km/h
2492 19-04-2014 08:25:00 4.9 C 6.08 g/m*3 4.9 C 0 km/h
2493 19-04-2014 08:30:00 5 C 6.12 g/m*3 5 C 1.6 km/h
2494 19-04-2014 08:35:00 5.1 C 6.16 g/m*3 5.1 C 1.6 km/h
2495 19-04-2014 08:40:00 5.1 C 6.16 g/m*3 5.1 C 0 km/h
2496 19-04-2014 08:45:00 5.1 C 6.16 g/m*3 5.1 C 1.6 km/h
2497 19-04-2014 08:50:00 5.2 C 6.2 g/m*3 5.2 C 0 km/h
2498 19-04-2014 08:55:00 5.2 C 6.13 g/m*3 5.2 C 1.6 km/h
2499 19-04-2014 09:00:00 5.3 C 6.24 g/m*3 5.3 C 0 km/h
2500 19-04-2014 09:05:00 5.3 C 6.24 g/m*3 5.3 C 0 km/h
Sensor: Nr:Datum:Temp:Abs-Feuchte:Windchill:Wind:
Aussen-T/F 2501 19-04-2014 09:10:00 5.5 C 6.32 g/m*3 5.5 C 0 km/h
2502 19-04-2014 09:15:00 5.7 C 6.4 g/m*3 5.7 C 1.6 km/h
2503 19-04-2014 09:20:00 5.8 C 6.38 g/m*3 5.8 C 0 km/h
2504 19-04-2014 09:25:00 5.9 C 6.35 g/m*3 5.9 C 0 km/h
2505 19-04-2014 09:30:00 6.1 C 6.43 g/m*3 6.1 C 0 km/h
2506 19-04-2014 09:35:00 6.3 C 6.51 g/m*3 6.3 C 0 km/h
2507 19-04-2014 09:40:00 6.5 C 6.6 g/m*3 6.5 C 0 km/h
2508 19-04-2014 09:45:00 6.7 C 6.61 g/m*3 6.7 C 0 km/h
2509 19-04-2014 09:50:00 6.8 C 6.65 g/m*3 6.8 C 0 km/h
2510 19-04-2014 09:55:00 6.9 C 6.62 g/m*3 6.9 C 0 km/h
2511 19-04-2014 10:00:00 7.2 C 6.67 g/m*3 7.2 C 3.2 km/h
2512 19-04-2014 10:05:00 7.7 C 6.81 g/m*3 7.7 C 1.6 km/h
2513 19-04-2014 10:10:00 8.2 C 6.78 g/m*3 6.54 C 9.7 km/h
2514 19-04-2014 10:15:00 8.5 C 6.74 g/m*3 6.9 C 9.7 km/h
2515 19-04-2014 10:20:00 8.7 C 6.57 g/m*3 6.6 C 12.9 km/h
2516 19-04-2014 10:25:00 8.9 C 6.66 g/m*3 7.37 C 9.7 km/h
2517 19-04-2014 10:30:00 9 C 6.7 g/m*3 7.49 C 9.7 km/h
2518 19-04-2014 10:35:00 9.2 C 6.79 g/m*3 8.45 C 6.4 km/h
2519 19-04-2014 10:40:00 9.3 C 6.74 g/m*3 8.16 C 8.1 km/h
2520 19-04-2014 10:45:00 9.4 C 6.78 g/m*3 8.28 C 8.1 km/h
2521 19-04-2014 10:50:00 9.5 C 6.83 g/m*3 8.79 C 6.4 km/h
2522 19-04-2014 10:55:00 9.6 C 6.69 g/m*3 9.6 C 3.2 km/h
2523 19-04-2014 11:00:00 9.7 C 6.64 g/m*3 8.63 C 8.1 km/h
2524 19-04-2014 11:05:00 9.8 C 6.59 g/m*3 8.75 C 8.1 km/h
2525 19-04-2014 11:10:00 10 C 6.58 g/m*3 8.19 C 12.9 km/h
Sensor: Nr:Datum:Temp:Abs-Feuchte:Windchill:Wind:
Aussen-T/F 2526 19-04-2014 11:15:00 10.2 C 6.66 g/m*3 10.2 C 4.8 km/h
2527 19-04-2014 11:20:00 10.3 C 6.7 g/m*3 9.04 C 9.7 km/h
2528 19-04-2014 11:25:00 10.4 C 6.65 g/m*3 9.46 C 8.1 km/h
2529 19-04-2014 11:30:00 10.6 C 6.73 g/m*3 9.14 C 11.3 km/h
2530 19-04-2014 11:35:00 10.8 C 6.62 g/m*3 9.93 C 8.1 km/h
2531 19-04-2014 11:40:00 10.9 C 6.47 g/m*3 8.9 C 16.1 km/h
2532 19-04-2014 11:45:00 11.1 C 6.55 g/m*3 11.1 C 9.7 km/h
2533 19-04-2014 11:50:00 11.1 C 6.55 g/m*3 11.1 C 17.7 km/h
2534 19-04-2014 11:55:00 10.9 C 6.37 g/m*3 8.58 C 19.3 km/h
2535 19-04-2014 12:00:00 10.8 C 6.42 g/m*3 9.64 C 9.7 km/h
2536 19-04-2014 12:05:00 10.9 C 6.56 g/m*3 9.76 C 9.7 km/h
2537 19-04-2014 12:10:00 11.1 C 6.45 g/m*3 11.1 C 6.4 km/h
2538 19-04-2014 12:15:00 11.1 C 6.55 g/m*3 11.1 C 9.7 km/h
2539 19-04-2014 12:20:00 11.4 C 6.47 g/m*3 11.4 C 14.5 km/h
2540 19-04-2014 12:25:00 11.7 C 6.38 g/m*3 11.7 C 16.1 km/h
2541 19-04-2014 12:30:00 11.9 C 6.35 g/m*3 11.9 C 17.7 km/h
2542 19-04-2014 12:35:00 12.2 C 6.47 g/m*3 12.2 C 11.3 km/h
2543 19-04-2014 12:40:00 12.5 C 6.49 g/m*3 12.5 C 16.1 km/h
2544 19-04-2014 12:45:00 12.9 C 6.65 g/m*3 12.9 C 11.3 km/h
2545 19-04-2014 12:50:00 13.4 C 6.51 g/m*3 13.4 C 14.5 km/h
2546 19-04-2014 12:55:00 13.7 C 6.63 g/m*3 13.7 C 22.5 km/h
2547 19-04-2014 13:00:00 13.8 C 6.67 g/m*3 13.8 C 22.5 km/h
2548 19-04-2014 13:05:00 14.2 C 6.72 g/m*3 14.2 C 14.5 km/h
2549 19-04-2014 13:10:00 14.4 C 6.68 g/m*3 14.4 C 12.9 km/h
2550 19-04-2014 13:15:00 14.6 C 6.63 g/m*3 14.6 C 16.1 km/h
Sensor: Nr:Datum:Temp:Abs-Feuchte:Windchill:Wind:
Aussen-T/F 2551 19-04-2014 13:20:00 14.8 C 6.84 g/m*3 14.8 C 16.1 km/h
2552 19-04-2014 13:25:00 14.8 C 6.71 g/m*3 14.8 C 12.9 km/h
2553 19-04-2014 13:30:00 14.7 C 6.67 g/m*3 14.7 C 11.3 km/h
2554 19-04-2014 13:35:00 14.8 C 7.09 g/m*3 14.8 C 11.3 km/h
2555 19-04-2014 13:40:00 15.1 C 6.97 g/m*3 15.1 C 11.3 km/h
2556 19-04-2014 13:45:00 15.2 C 6.75 g/m*3 15.2 C 16.1 km/h
2557 19-04-2014 13:50:00 15.3 C 6.79 g/m*3 15.3 C 12.9 km/h
2558 19-04-2014 13:55:00 15.3 C 7.05 g/m*3 15.3 C 12.9 km/h
2559 19-04-2014 14:00:00 15.6 C 7.05 g/m*3 15.6 C 11.3 km/h
2560 19-04-2014 14:05:00 15.8 C 7.13 g/m*3 15.8 C 12.9 km/h
2561 19-04-2014 14:10:00 16.1 C 6.99 g/m*3 16.1 C 17.7 km/h
2562 19-04-2014 14:15:00 16.1 C 6.85 g/m*3 16.1 C 11.3 km/h
2563 19-04-2014 14:20:00 16.2 C 7.03 g/m*3 16.2 C 14.5 km/h
2564 19-04-2014 14:25:00 16.4 C 7.12 g/m*3 16.4 C 14.5 km/h
2565 19-04-2014 14:30:00 16.6 C 7.06 g/m*3 16.6 C 11.3 km/h
2566 19-04-2014 14:35:00 16.8 C 7.01 g/m*3 16.8 C 14.5 km/h
2567 19-04-2014 14:40:00 16.7 C 6.96 g/m*3 16.7 C 9.7 km/h
2568 19-04-2014 14:45:00 16.7 C 7.11 g/m*3 16.7 C 16.1 km/h
2569 19-04-2014 14:50:00 16.8 C 7.15 g/m*3 16.8 C 11.3 km/h
2570 19-04-2014 14:55:00 17 C 7.23 g/m*3 17 C 12.9 km/h
2571 19-04-2014 15:00:00 17.1 C 7.13 g/m*3 17.1 C 11.3 km/h
2572 19-04-2014 15:05:00 17.2 C 7.18 g/m*3 17.2 C 16.1 km/h
2573 19-04-2014 15:10:00 17.4 C 7.26 g/m*3 17.4 C 14.5 km/h
2574 19-04-2014 15:15:00 17.6 C 7.05 g/m*3 17.6 C 25.7 km/h
2575 19-04-2014 15:20:00 17.7 C 7.09 g/m*3 17.7 C 25.7 km/h
Sensor: Nr:Datum:Temp:Abs-Feuchte:Windchill:Wind:
Aussen-T/F 2576 19-04-2014 15:25:00 17.7 C 6.94 g/m*3 17.7 C 12.9 km/h
2577 19-04-2014 15:30:00 17.9 C 7.02 g/m*3 17.9 C 19.3 km/h
2578 19-04-2014 15:35:00 17.9 C 7.02 g/m*3 17.9 C 20.9 km/h
2579 19-04-2014 15:40:00 17.9 C 7.33 g/m*3 17.9 C 14.5 km/h
2580 19-04-2014 15:45:00 18.2 C 7.15 g/m*3 18.2 C 19.3 km/h
2581 19-04-2014 15:50:00 18.2 C 7.31 g/m*3 18.2 C 16.1 km/h
2582 19-04-2014 15:55:00 18.2 C 7.31 g/m*3 18.2 C 11.3 km/h
2583 19-04-2014 16:00:00 18.4 C 7.39 g/m*3 18.4 C 12.9 km/h
2584 19-04-2014 16:05:00 18.5 C 7.59 g/m*3 18.5 C 12.9 km/h
2585 19-04-2014 16:10:00 18.4 C 7.39 g/m*3 18.4 C 22.5 km/h
2586 19-04-2014 16:15:00 18.6 C 7.64 g/m*3 18.6 C 14.5 km/h
2587 19-04-2014 16:20:00 18.6 C 7.8 g/m*3 18.6 C 11.3 km/h
2588 19-04-2014 16:25:00 18.4 C 7.71 g/m*3 18.4 C 12.9 km/h
2589 19-04-2014 16:30:00 18.7 C 8.01 g/m*3 18.7 C 12.9 km/h
2590 19-04-2014 16:35:00 18.9 C 7.94 g/m*3 18.9 C 11.3 km/h
2591 19-04-2014 16:40:00 19.1 C 8.03 g/m*3 19.1 C 17.7 km/h
2592 19-04-2014 16:45:00 18.9 C 7.94 g/m*3 18.9 C 22.5 km/h
2593 19-04-2014 16:50:00 18.8 C 7.89 g/m*3 18.8 C 20.9 km/h
2594 19-04-2014 16:55:00 18.8 C 7.89 g/m*3 18.8 C 12.9 km/h
2595 19-04-2014 17:00:00 18.8 C 7.89 g/m*3 18.8 C 11.3 km/h
2596 19-04-2014 17:05:00 18.6 C 7.96 g/m*3 18.6 C 11.3 km/h
2597 19-04-2014 17:10:00 18.4 C 7.86 g/m*3 18.4 C 14.5 km/h
2598 19-04-2014 17:15:00 18.3 C 7.97 g/m*3 18.3 C 14.5 km/h
2599 19-04-2014 17:20:00 18.4 C 8.02 g/m*3 18.4 C 16.1 km/h
2600 19-04-2014 17:25:00 18.3 C 7.97 g/m*3 18.3 C 22.5 km/h
Sensor: Nr:Datum:Temp:Abs-Feuchte:Windchill:Wind:
Aussen-T/F 2601 19-04-2014 17:30:00 18.4 C 8.02 g/m*3 18.4 C 19.3 km/h
2602 19-04-2014 17:35:00 18.4 C 8.02 g/m*3 18.4 C 12.9 km/h
2603 19-04-2014 17:40:00 18.3 C 8.13 g/m*3 18.3 C 12.9 km/h
2604 19-04-2014 17:45:00 18 C 7.99 g/m*3 18 C 16.1 km/h
2605 19-04-2014 17:50:00 17.9 C 8.09 g/m*3 17.9 C 16.1 km/h
2606 19-04-2014 17:55:00 18.1 C 8.19 g/m*3 18.1 C 8.1 km/h
2607 19-04-2014 18:00:00 18.4 C 8.34 g/m*3 18.4 C 8.1 km/h
2608 19-04-2014 18:05:00 18.8 C 8.37 g/m*3 18.8 C 16.1 km/h
2609 19-04-2014 18:10:00 18.8 C 8.37 g/m*3 18.8 C 16.1 km/h
2610 19-04-2014 18:15:00 18.8 C 8.21 g/m*3 18.8 C 14.5 km/h
2611 19-04-2014 18:20:00 18.5 C 8.23 g/m*3 18.5 C 9.7 km/h
2612 19-04-2014 18:25:00 18.2 C 8.24 g/m*3 18.2 C 8.1 km/h
2613 19-04-2014 18:30:00 18 C 8.29 g/m*3 18 C 12.9 km/h
2614 19-04-2014 18:35:00 17.6 C 8.1 g/m*3 17.6 C 14.5 km/h
2615 19-04-2014 18:40:00 17.3 C 8.25 g/m*3 17.3 C 6.4 km/h
2616 19-04-2014 18:45:00 17 C 8.25 g/m*3 17 C 11.3 km/h
2617 19-04-2014 18:50:00 16.8 C 8.15 g/m*3 16.8 C 6.4 km/h
2618 19-04-2014 18:55:00 16.7 C 8.24 g/m*3 16.7 C 8.1 km/h
2619 19-04-2014 19:00:00 16.8 C 8.29 g/m*3 16.8 C 4.8 km/h
2620 19-04-2014 19:05:00 17.1 C 8.3 g/m*3 17.1 C 6.4 km/h
2621 19-04-2014 19:10:00 17.2 C 8.35 g/m*3 17.2 C 11.3 km/h
2622 19-04-2014 19:15:00 17.3 C 8.4 g/m*3 17.3 C 11.3 km/h
2623 19-04-2014 19:20:00 17.3 C 8.4 g/m*3 17.3 C 12.9 km/h
2624 19-04-2014 19:25:00 17.3 C 8.4 g/m*3 17.3 C 4.8 km/h
2625 19-04-2014 19:30:00 17.2 C 8.35 g/m*3 17.2 C 11.3 km/h
Sensor: Nr:Datum:Temp:Abs-Feuchte:Windchill:Wind:
Aussen-T/F 2626 19-04-2014 19:35:00 17.2 C 8.35 g/m*3 17.2 C 12.9 km/h
2627 19-04-2014 19:40:00 17.1 C 8.44 g/m*3 17.1 C 9.7 km/h
2628 19-04-2014 19:45:00 17 C 8.39 g/m*3 17 C 9.7 km/h
2629 19-04-2014 19:50:00 16.9 C 8.34 g/m*3 16.9 C 8.1 km/h
2630 19-04-2014 19:55:00 16.7 C 8.53 g/m*3 16.7 C 3.2 km/h
2631 19-04-2014 20:00:00 16.6 C 8.48 g/m*3 16.6 C 6.4 km/h
2632 19-04-2014 20:05:00 16.3 C 8.6 g/m*3 16.3 C 3.2 km/h
2633 19-04-2014 20:10:00 15.9 C 8.53 g/m*3 15.9 C 1.6 km/h
2634 19-04-2014 20:15:00 15.6 C 8.51 g/m*3 15.6 C 0 km/h
2635 19-04-2014 20:20:00 15.2 C 8.57 g/m*3 15.2 C 0 km/h
2636 19-04-2014 20:25:00 14.8 C 8.49 g/m*3 14.8 C 0 km/h
2637 19-04-2014 20:30:00 14.4 C 8.41 g/m*3 14.4 C 1.6 km/h
2638 19-04-2014 20:35:00 14.1 C 8.37 g/m*3 14.1 C 1.6 km/h
2639 19-04-2014 20:40:00 13.8 C 8.46 g/m*3 13.8 C 3.2 km/h
2640 19-04-2014 20:45:00 13.6 C 8.47 g/m*3 13.6 C 1.6 km/h
2641 19-04-2014 20:50:00 13.4 C 8.37 g/m*3 13.4 C 4.8 km/h
2642 19-04-2014 20:55:00 13.3 C 8.43 g/m*3 13.3 C 6.4 km/h
2643 19-04-2014 21:00:00 13.5 C 8.3 g/m*3 13.5 C 4.8 km/h
2644 19-04-2014 21:05:00 13.7 C 8.41 g/m*3 13.7 C 1.6 km/h
2645 19-04-2014 21:10:00 13.9 C 8.39 g/m*3 13.9 C 4.8 km/h
2646 19-04-2014 21:15:00 14 C 8.44 g/m*3 14 C 8.1 km/h
2647 19-04-2014 21:20:00 14.2 C 8.43 g/m*3 14.2 C 4.8 km/h
2648 19-04-2014 21:25:00 14.2 C 8.43 g/m*3 14.2 C 8.1 km/h
2649 19-04-2014 21:30:00 14.2 C 8.55 g/m*3 14.2 C 1.6 km/h
2650 19-04-2014 21:35:00 13.8 C 8.46 g/m*3 13.8 C 1.6 km/h
Sensor: Nr:Datum:Temp:Abs-Feuchte:Windchill:Wind:
Aussen-T/F 2651 19-04-2014 21:40:00 13.6 C 8.47 g/m*3 13.6 C 11.3 km/h
2652 19-04-2014 21:45:00 13.6 C 8.47 g/m*3 13.6 C 3.2 km/h
2653 19-04-2014 21:50:00 13.6 C 8.59 g/m*3 13.6 C 11.3 km/h
2654 19-04-2014 21:55:00 13.6 C 8.59 g/m*3 13.6 C 3.2 km/h
2655 19-04-2014 22:00:00 13.4 C 8.6 g/m*3 13.4 C 3.2 km/h
2656 19-04-2014 22:05:00 13.1 C 8.56 g/m*3 13.1 C 1.6 km/h
2657 19-04-2014 22:10:00 12.9 C 8.57 g/m*3 12.9 C 6.4 km/h
2658 19-04-2014 22:15:00 12.9 C 8.57 g/m*3 12.9 C 4.8 km/h
2659 19-04-2014 22:20:00 12.8 C 8.51 g/m*3 12.8 C 1.6 km/h
2660 19-04-2014 22:25:00 12.7 C 8.57 g/m*3 12.7 C 1.6 km/h
2661 19-04-2014 22:30:00 12.7 C 8.57 g/m*3 12.7 C 6.4 km/h
2662 19-04-2014 22:35:00 12.8 C 8.62 g/m*3 12.8 C 8.1 km/h
2663 19-04-2014 22:40:00 12.7 C 8.57 g/m*3 12.7 C 0 km/h
2664 19-04-2014 22:45:00 12.5 C 8.58 g/m*3 12.5 C 3.2 km/h
2665 19-04-2014 22:50:00 12.3 C 8.58 g/m*3 12.3 C 1.6 km/h
2666 19-04-2014 22:55:00 12.1 C 8.58 g/m*3 12.1 C 1.6 km/h
2667 19-04-2014 23:00:00 12.1 C 8.69 g/m*3 12.1 C 1.6 km/h
2668 19-04-2014 23:05:00 12 C 8.63 g/m*3 12 C 4.8 km/h
2669 19-04-2014 23:10:00 12.2 C 8.74 g/m*3 12.2 C 3.2 km/h
2670 19-04-2014 23:15:00 12.3 C 8.69 g/m*3 12.3 C 6.4 km/h
2671 19-04-2014 23:20:00 12.3 C 8.69 g/m*3 12.3 C 0 km/h
2672 19-04-2014 23:25:00 12.1 C 8.69 g/m*3 12.1 C 4.8 km/h
2673 19-04-2014 23:30:00 11.9 C 8.68 g/m*3 11.9 C 3.2 km/h
2674 19-04-2014 23:35:00 11.8 C 8.63 g/m*3 11.8 C 1.6 km/h
2675 19-04-2014 23:40:00 11.7 C 8.68 g/m*3 11.7 C 3.2 km/h
Sensor: Nr:Datum:Temp:Abs-Feuchte:Windchill:Wind:
Aussen-T/F 2676 19-04-2014 23:45:00 11.7 C 8.68 g/m*3 11.7 C 1.6 km/h
2677 19-04-2014 23:50:00 11.6 C 8.73 g/m*3 11.6 C 1.6 km/h
2678 19-04-2014 23:55:00 11.6 C 8.73 g/m*3 11.6 C 3.2 km/h
2679 20-04-2014 00:00:00 11.6 C 8.73 g/m*3 11.6 C 1.6 km/h
2680 20-04-2014 00:05:00 11.6 C 8.83 g/m*3 11.6 C 3.2 km/h
2681 20-04-2014 00:10:00 11.6 C 8.83 g/m*3 11.6 C 1.6 km/h
2682 20-04-2014 00:15:00 11.6 C 8.83 g/m*3 11.6 C 1.6 km/h
2683 20-04-2014 00:20:00 11.4 C 8.72 g/m*3 11.4 C 1.6 km/h
2684 20-04-2014 00:25:00 11.4 C 8.72 g/m*3 11.4 C 3.2 km/h
2685 20-04-2014 00:30:00 11.3 C 8.77 g/m*3 11.3 C 4.8 km/h
2686 20-04-2014 00:35:00 11.4 C 8.83 g/m*3 11.4 C 4.8 km/h
2687 20-04-2014 00:40:00 11.3 C 8.77 g/m*3 11.3 C 4.8 km/h
2688 20-04-2014 00:45:00 11.4 C 8.83 g/m*3 11.4 C 1.6 km/h
2689 20-04-2014 00:50:00 11.3 C 8.87 g/m*3 11.3 C 1.6 km/h
2690 20-04-2014 00:55:00 11.3 C 8.87 g/m*3 11.3 C 1.6 km/h
2691 20-04-2014 01:00:00 11.3 C 8.87 g/m*3 11.3 C 3.2 km/h
2692 20-04-2014 01:05:00 11.3 C 8.87 g/m*3 11.3 C 1.6 km/h
2693 20-04-2014 01:10:00 11.3 C 8.87 g/m*3 11.3 C 1.6 km/h
2694 20-04-2014 01:15:00 11.3 C 8.87 g/m*3 11.3 C 1.6 km/h
2695 20-04-2014 01:20:00 11.3 C 8.98 g/m*3 11.3 C 3.2 km/h
2696 20-04-2014 01:25:00 11.3 C 8.98 g/m*3 11.3 C 1.6 km/h
2697 20-04-2014 01:30:00 11.3 C 8.98 g/m*3 11.3 C 1.6 km/h
2698 20-04-2014 01:35:00 11.3 C 8.98 g/m*3 11.3 C 3.2 km/h
2699 20-04-2014 01:40:00 11.4 C 9.03 g/m*3 11.4 C 3.2 km/h
2700 20-04-2014 01:45:00 11.5 C 9.09 g/m*3 11.5 C 3.2 km/h
Sensor: Nr:Datum:Temp:Abs-Feuchte:Windchill:Wind:
Aussen-T/F 2701 20-04-2014 01:50:00 11.5 C 9.09 g/m*3 11.5 C 3.2 km/h
2702 20-04-2014 01:55:00 11.4 C 8.93 g/m*3 11.4 C 0 km/h
2703 20-04-2014 02:00:00 11.4 C 9.03 g/m*3 11.4 C 3.2 km/h
2704 20-04-2014 02:05:00 11.4 C 9.03 g/m*3 11.4 C 3.2 km/h
2705 20-04-2014 02:10:00 11.4 C 9.03 g/m*3 11.4 C 3.2 km/h
2706 20-04-2014 02:15:00 11.4 C 9.03 g/m*3 11.4 C 1.6 km/h
2707 20-04-2014 02:20:00 11.3 C 9.08 g/m*3 11.3 C 3.2 km/h
2708 20-04-2014 02:25:00 11.4 C 9.03 g/m*3 11.4 C 3.2 km/h
2709 20-04-2014 02:30:00 11.4 C 9.03 g/m*3 11.4 C 3.2 km/h
2710 20-04-2014 02:35:00 11.3 C 8.98 g/m*3 11.3 C 4.8 km/h
2711 20-04-2014 02:40:00 11.4 C 9.03 g/m*3 11.4 C 3.2 km/h
2712 20-04-2014 02:45:00 11.4 C 9.03 g/m*3 11.4 C 1.6 km/h
2713 20-04-2014 02:50:00 11.4 C 9.03 g/m*3 11.4 C 3.2 km/h
2714 20-04-2014 02:55:00 11.3 C 8.98 g/m*3 11.3 C 0 km/h
2715 20-04-2014 03:00:00 11.2 C 8.92 g/m*3 11.2 C 1.6 km/h
2716 20-04-2014 03:05:00 11.2 C 9.02 g/m*3 11.2 C 4.8 km/h
2717 20-04-2014 03:10:00 11.2 C 9.02 g/m*3 11.2 C 3.2 km/h
2718 20-04-2014 03:15:00 11.1 C 8.96 g/m*3 11.1 C 3.2 km/h
2719 20-04-2014 03:20:00 11.1 C 8.96 g/m*3 11.1 C 1.6 km/h
2720 20-04-2014 03:25:00 11.1 C 9.07 g/m*3 11.1 C 4.8 km/h
2721 20-04-2014 03:30:00 11.1 C 9.07 g/m*3 11.1 C 3.2 km/h
2722 20-04-2014 03:35:00 11.2 C 9.12 g/m*3 11.2 C 4.8 km/h
2723 20-04-2014 03:40:00 11.2 C 9.12 g/m*3 11.2 C 1.6 km/h
2724 20-04-2014 03:45:00 11.3 C 9.18 g/m*3 11.3 C 1.6 km/h
2725 20-04-2014 03:50:00 11.3 C 9.18 g/m*3 11.3 C 3.2 km/h
Sensor: Nr:Datum:Temp:Abs-Feuchte:Windchill:Wind:
Aussen-T/F 2726 20-04-2014 03:55:00 11.3 C 9.08 g/m*3 11.3 C 1.6 km/h
2727 20-04-2014 04:00:00 11.3 C 9.08 g/m*3 11.3 C 3.2 km/h
2728 20-04-2014 04:05:00 11.3 C 9.08 g/m*3 11.3 C 3.2 km/h
2729 20-04-2014 04:10:00 11.2 C 9.02 g/m*3 11.2 C 3.2 km/h
2730 20-04-2014 04:15:00 11.2 C 9.02 g/m*3 11.2 C 1.6 km/h
2731 20-04-2014 04:20:00 11.1 C 8.96 g/m*3 11.1 C 1.6 km/h
2732 20-04-2014 04:25:00 11.1 C 9.07 g/m*3 11.1 C 1.6 km/h
2733 20-04-2014 04:30:00 11.1 C 9.07 g/m*3 11.1 C 1.6 km/h
2734 20-04-2014 04:35:00 11.2 C 9.12 g/m*3 11.2 C 1.6 km/h
2735 20-04-2014 04:40:00 11.3 C 9.18 g/m*3 11.3 C 3.2 km/h
2736 20-04-2014 04:45:00 11.3 C 9.18 g/m*3 11.3 C 3.2 km/h
2737 20-04-2014 04:50:00 11.4 C 9.14 g/m*3 11.4 C 1.6 km/h
2738 20-04-2014 04:55:00 11.3 C 9.08 g/m*3 11.3 C 3.2 km/h
2739 20-04-2014 05:00:00 11.3 C 9.08 g/m*3 11.3 C 3.2 km/h
2740 20-04-2014 05:05:00 11.2 C 9.02 g/m*3 11.2 C 1.6 km/h
2741 20-04-2014 05:10:00 11.2 C 9.02 g/m*3 11.2 C 1.6 km/h
2742 20-04-2014 05:15:00 11.2 C 9.12 g/m*3 11.2 C 3.2 km/h
2743 20-04-2014 05:20:00 11.2 C 9.12 g/m*3 11.2 C 1.6 km/h
2744 20-04-2014 05:25:00 11.1 C 8.96 g/m*3 11.1 C 1.6 km/h
2745 20-04-2014 05:30:00 11 C 8.91 g/m*3 11 C 1.6 km/h
2746 20-04-2014 05:35:00 10.9 C 8.95 g/m*3 10.9 C 3.2 km/h
2747 20-04-2014 05:40:00 10.9 C 8.95 g/m*3 10.9 C 3.2 km/h
2748 20-04-2014 05:45:00 10.8 C 8.9 g/m*3 10.8 C 3.2 km/h
2749 20-04-2014 05:50:00 10.8 C 8.9 g/m*3 10.8 C 3.2 km/h
2750 20-04-2014 05:55:00 10.7 C 8.84 g/m*3 10.7 C 3.2 km/h
Sensor: Nr:Datum:Temp:Abs-Feuchte:Windchill:Wind:
Aussen-T/F 2751 20-04-2014 06:00:00 10.7 C 8.94 g/m*3 10.7 C 3.2 km/h
2752 20-04-2014 06:05:00 10.6 C 8.88 g/m*3 10.6 C 3.2 km/h
2753 20-04-2014 06:10:00 10.6 C 8.88 g/m*3 10.6 C 3.2 km/h
2754 20-04-2014 06:15:00 10.5 C 8.83 g/m*3 10.5 C 3.2 km/h
2755 20-04-2014 06:20:00 10.5 C 8.92 g/m*3 10.5 C 1.6 km/h
2756 20-04-2014 06:25:00 10.5 C 8.92 g/m*3 10.5 C 1.6 km/h
2757 20-04-2014 06:30:00 10.5 C 8.92 g/m*3 10.5 C 1.6 km/h
2758 20-04-2014 06:35:00 10.5 C 8.92 g/m*3 10.5 C 3.2 km/h
2759 20-04-2014 06:40:00 10.5 C 8.92 g/m*3 10.5 C 1.6 km/h
2760 20-04-2014 06:45:00 10.5 C 8.92 g/m*3 10.5 C 0 km/h
2761 20-04-2014 06:50:00 10.4 C 8.87 g/m*3 10.4 C 0 km/h
2762 20-04-2014 06:55:00 10.3 C 8.81 g/m*3 10.3 C 1.6 km/h
2763 20-04-2014 07:00:00 10.3 C 8.81 g/m*3 10.3 C 1.6 km/h
2764 20-04-2014 07:05:00 10.3 C 8.81 g/m*3 10.3 C 3.2 km/h
2765 20-04-2014 07:10:00 10.3 C 8.91 g/m*3 10.3 C 0 km/h
2766 20-04-2014 07:15:00 10.4 C 8.96 g/m*3 10.4 C 0 km/h
2767 20-04-2014 07:20:00 10.4 C 8.96 g/m*3 10.4 C 0 km/h
2768 20-04-2014 07:25:00 10.4 C 8.87 g/m*3 10.4 C 1.6 km/h
2769 20-04-2014 07:30:00 10.4 C 8.96 g/m*3 10.4 C 0 km/h
2770 20-04-2014 07:35:00 10.4 C 8.96 g/m*3 10.4 C 0 km/h
2771 20-04-2014 07:40:00 10.5 C 9.02 g/m*3 10.5 C 0 km/h
2772 20-04-2014 07:45:00 10.6 C 9.08 g/m*3 10.6 C 0 km/h
2773 20-04-2014 07:50:00 10.6 C 9.08 g/m*3 10.6 C 0 km/h
2774 20-04-2014 07:55:00 10.6 C 9.08 g/m*3 10.6 C 0 km/h
2775 20-04-2014 08:00:00 10.6 C 9.08 g/m*3 10.6 C 0 km/h
Sensor: Nr:Datum:Temp:Abs-Feuchte:Windchill:Wind:
Aussen-T/F 2776 20-04-2014 08:20:00 10.9 C 9.25 g/m*3 10.9 C 1.6 km/h
2777 20-04-2014 08:25:00 10.9 C 9.25 g/m*3 10.9 C 0 km/h
2778 20-04-2014 08:30:00 11.1 C 9.37 g/m*3 11.1 C 1.6 km/h
2779 20-04-2014 08:35:00 11.2 C 9.33 g/m*3 11.2 C 1.6 km/h
2780 20-04-2014 08:40:00 11.3 C 9.38 g/m*3 11.3 C 0 km/h
2781 20-04-2014 08:45:00 11.4 C 9.44 g/m*3 11.4 C 0 km/h
2782 20-04-2014 08:50:00 11.6 C 9.56 g/m*3 11.6 C 3.2 km/h
2783 20-04-2014 08:55:00 11.7 C 9.52 g/m*3 11.7 C 1.6 km/h
2784 20-04-2014 09:00:00 11.8 C 9.58 g/m*3 11.8 C 0 km/h
2785 20-04-2014 09:05:00 11.9 C 9.64 g/m*3 11.9 C 3.2 km/h
2786 20-04-2014 09:10:00 12.1 C 9.65 g/m*3 12.1 C 3.2 km/h
2787 20-04-2014 09:15:00 12.3 C 9.77 g/m*3 12.3 C 3.2 km/h
2788 20-04-2014 09:20:00 12.4 C 9.72 g/m*3 12.4 C 1.6 km/h
2789 20-04-2014 09:25:00 12.5 C 9.78 g/m*3 12.5 C 1.6 km/h
2790 20-04-2014 09:30:00 12.6 C 9.74 g/m*3 12.6 C 0 km/h
2791 20-04-2014 09:35:00 12.7 C 9.8 g/m*3 12.7 C 1.6 km/h
2792 20-04-2014 09:40:00 12.8 C 9.86 g/m*3 12.8 C 1.6 km/h
2793 20-04-2014 09:45:00 13 C 9.64 g/m*3 13 C 6.4 km/h
2794 20-04-2014 09:50:00 13.4 C 9.76 g/m*3 13.4 C 3.2 km/h
2795 20-04-2014 09:55:00 13.7 C 9.59 g/m*3 13.7 C 8.1 km/h
2796 20-04-2014 10:00:00 14.1 C 9.71 g/m*3 14.1 C 4.8 km/h
2797 20-04-2014 10:05:00 14.4 C 9.77 g/m*3 14.4 C 6.4 km/h
2798 20-04-2014 10:10:00 14.6 C 9.51 g/m*3 14.6 C 8.1 km/h
2799 20-04-2014 10:15:00 14.9 C 9.56 g/m*3 14.9 C 6.4 km/h
2800 20-04-2014 10:20:00 15.2 C 9.73 g/m*3 15.2 C 6.4 km/h
Sensor: Nr:Datum:Temp:Abs-Feuchte:Windchill:Wind:
Aussen-T/F 2801 20-04-2014 10:25:00 15.3 C 9.66 g/m*3 15.3 C 4.8 km/h
2802 20-04-2014 10:30:00 15.4 C 9.59 g/m*3 15.4 C 9.7 km/h
2803 20-04-2014 10:35:00 15.6 C 9.44 g/m*3 15.6 C 11.3 km/h
2804 20-04-2014 10:40:00 15.7 C 9.63 g/m*3 15.7 C 11.3 km/h
2805 20-04-2014 10:45:00 15.8 C 9.56 g/m*3 15.8 C 11.3 km/h
2806 20-04-2014 10:50:00 16.1 C 9.6 g/m*3 16.1 C 8.1 km/h
2807 20-04-2014 10:55:00 16.3 C 9.71 g/m*3 16.3 C 6.4 km/h
2808 20-04-2014 11:00:00 16.4 C 9.49 g/m*3 16.4 C 14.5 km/h
2809 20-04-2014 11:05:00 16.6 C 9.61 g/m*3 16.6 C 11.3 km/h
2810 20-04-2014 11:10:00 16.8 C 9.58 g/m*3 16.8 C 11.3 km/h
2811 20-04-2014 11:15:00 17 C 9.69 g/m*3 17 C 11.3 km/h
2812 20-04-2014 11:20:00 17.2 C 9.67 g/m*3 17.2 C 11.3 km/h
2813 20-04-2014 11:25:00 17.3 C 9.58 g/m*3 17.3 C 11.3 km/h
2814 20-04-2014 11:30:00 17.4 C 9.48 g/m*3 17.4 C 12.9 km/h
2815 20-04-2014 11:35:00 17.4 C 9.34 g/m*3 17.4 C 4.8 km/h
2816 20-04-2014 11:40:00 17.3 C 9.58 g/m*3 17.3 C 4.8 km/h
2817 20-04-2014 11:45:00 17.3 C 9.72 g/m*3 17.3 C 3.2 km/h
2818 20-04-2014 11:50:00 17.4 C 9.48 g/m*3 17.4 C 3.2 km/h
2819 20-04-2014 11:55:00 17.6 C 9.3 g/m*3 17.6 C 9.7 km/h
2820 20-04-2014 12:00:00 17.8 C 9.11 g/m*3 17.8 C 9.7 km/h
2821 20-04-2014 12:05:00 18.1 C 9.43 g/m*3 18.1 C 8.1 km/h
2822 20-04-2014 12:10:00 18.3 C 9.07 g/m*3 18.3 C 14.5 km/h
2823 20-04-2014 12:15:00 18.4 C 9.28 g/m*3 18.4 C 6.4 km/h
2824 20-04-2014 12:20:00 18.6 C 9.07 g/m*3 18.6 C 9.7 km/h
2825 20-04-2014 12:25:00 18.7 C 8.81 g/m*3 18.7 C 14.5 km/h
Sensor: Nr:Datum:Temp:Abs-Feuchte:Windchill:Wind:
Aussen-T/F 2826 20-04-2014 12:30:00 18.8 C 9.18 g/m*3 18.8 C 8.1 km/h
2827 20-04-2014 12:35:00 19.1 C 8.85 g/m*3 19.1 C 8.1 km/h
2828 20-04-2014 12:40:00 19 C 8.64 g/m*3 19 C 8.1 km/h
2829 20-04-2014 12:45:00 19.1 C 9.18 g/m*3 19.1 C 9.7 km/h
2830 20-04-2014 12:50:00 19.5 C 8.89 g/m*3 19.5 C 8.1 km/h
2831 20-04-2014 12:55:00 19.7 C 9.34 g/m*3 19.7 C 16.1 km/h
2832 20-04-2014 13:00:00 20 C 9.16 g/m*3 20 C 16.1 km/h
2833 20-04-2014 13:05:00 19.8 C 8.54 g/m*3 19.8 C 12.9 km/h
2834 20-04-2014 13:10:00 19.8 C 8.71 g/m*3 19.8 C 14.5 km/h
2835 20-04-2014 13:15:00 20.3 C 8.62 g/m*3 20.3 C 12.9 km/h
2836 20-04-2014 13:20:00 20.7 C 8.64 g/m*3 20.7 C 9.7 km/h
2837 20-04-2014 13:25:00 21 C 8.79 g/m*3 21 C 16.1 km/h
2838 20-04-2014 13:30:00 21.3 C 8.76 g/m*3 21.3 C 16.1 km/h
2839 20-04-2014 13:35:00 21.4 C 8.81 g/m*3 21.4 C 11.3 km/h
2840 20-04-2014 13:40:00 21.4 C 8.81 g/m*3 21.4 C 12.9 km/h
2841 20-04-2014 13:45:00 21.1 C 8.48 g/m*3 21.1 C 16.1 km/h
2842 20-04-2014 13:50:00 20.7 C 8.46 g/m*3 20.7 C 4.8 km/h
2843 20-04-2014 13:55:00 20.3 C 8.27 g/m*3 20.3 C 8.1 km/h
2844 20-04-2014 14:00:00 20.1 C 8.52 g/m*3 20.1 C 8.1 km/h
2845 20-04-2014 14:05:00 20.1 C 8.52 g/m*3 20.1 C 11.3 km/h
2846 20-04-2014 14:10:00 20.1 C 8.34 g/m*3 20.1 C 9.7 km/h
2847 20-04-2014 14:15:00 19.9 C 8.59 g/m*3 19.9 C 11.3 km/h
2848 20-04-2014 14:20:00 19.9 C 8.08 g/m*3 19.9 C 17.7 km/h
2849 20-04-2014 14:25:00 20.4 C 8.49 g/m*3 20.4 C 17.7 km/h
2850 20-04-2014 14:30:00 20.8 C 8.69 g/m*3 20.8 C 9.7 km/h
Sensor: Nr:Datum:Temp:Abs-Feuchte:Windchill:Wind:
Aussen-T/F 2851 20-04-2014 14:35:00 21.1 C 8.29 g/m*3 21.1 C 8.1 km/h
2852 20-04-2014 14:40:00 20.9 C 8.01 g/m*3 20.9 C 6.4 km/h
2853 20-04-2014 14:45:00 20.6 C 7.87 g/m*3 20.6 C 6.4 km/h
2854 20-04-2014 14:50:00 20.4 C 8.31 g/m*3 20.4 C 9.7 km/h
2855 20-04-2014 14:55:00 20.4 C 7.96 g/m*3 20.4 C 6.4 km/h
2856 20-04-2014 15:00:00 20.6 C 8.59 g/m*3 20.6 C 8.1 km/h
2857 20-04-2014 15:05:00 21.2 C 8.52 g/m*3 21.2 C 16.1 km/h
2858 20-04-2014 15:10:00 21.7 C 8.39 g/m*3 21.7 C 11.3 km/h
2859 20-04-2014 15:15:00 21.6 C 7.97 g/m*3 21.6 C 8.1 km/h
2860 20-04-2014 15:20:00 20.9 C 8.01 g/m*3 20.9 C 6.4 km/h
2861 20-04-2014 15:25:00 20.5 C 8.01 g/m*3 20.5 C 4.8 km/h
2862 20-04-2014 15:30:00 20.4 C 8.49 g/m*3 20.4 C 9.7 km/h
2863 20-04-2014 15:35:00 20.4 C 8.14 g/m*3 20.4 C 9.7 km/h
2864 20-04-2014 15:40:00 20.2 C 8.22 g/m*3 20.2 C 6.4 km/h
2865 20-04-2014 15:45:00 19.8 C 7.69 g/m*3 19.8 C 8.1 km/h
2866 20-04-2014 15:50:00 19.7 C 7.81 g/m*3 19.7 C 6.4 km/h
2867 20-04-2014 15:55:00 20.2 C 8.57 g/m*3 20.2 C 4.8 km/h
2868 20-04-2014 16:00:00 20.9 C 8.01 g/m*3 20.9 C 6.4 km/h
2869 20-04-2014 16:05:00 21.2 C 8.15 g/m*3 21.2 C 8.1 km/h
2870 20-04-2014 16:10:00 21 C 7.88 g/m*3 21 C 8.1 km/h
2871 20-04-2014 16:15:00 20.8 C 7.6 g/m*3 20.8 C 11.3 km/h
2872 20-04-2014 16:20:00 21.3 C 8.02 g/m*3 21.3 C 11.3 km/h
2873 20-04-2014 16:25:00 21.8 C 8.06 g/m*3 21.8 C 6.4 km/h
2874 20-04-2014 16:30:00 22.2 C 8.05 g/m*3 22.2 C 9.7 km/h
2875 20-04-2014 16:35:00 22.4 C 7.75 g/m*3 22.4 C 11.3 km/h
Sensor: Nr:Datum:Temp:Abs-Feuchte:Windchill:Wind:
Aussen-T/F 2876 20-04-2014 16:40:00 22.5 C 7.79 g/m*3 22.5 C 8.1 km/h
2877 20-04-2014 16:45:00 22.2 C 8.05 g/m*3 22.2 C 8.1 km/h
2878 20-04-2014 16:50:00 21.7 C 7.44 g/m*3 21.7 C 6.4 km/h
2879 20-04-2014 16:55:00 21.2 C 7.97 g/m*3 21.2 C 8.1 km/h
2880 20-04-2014 17:00:00 21.2 C 8.34 g/m*3 21.2 C 8.1 km/h
2881 20-04-2014 17:05:00 21.7 C 8.01 g/m*3 21.7 C 11.3 km/h
2882 20-04-2014 17:10:00 22.1 C 8.2 g/m*3 22.1 C 8.1 km/h
2883 20-04-2014 17:15:00 22.2 C 7.85 g/m*3 22.2 C 8.1 km/h
2884 20-04-2014 17:20:00 21.9 C 7.53 g/m*3 21.9 C 1.6 km/h
2885 20-04-2014 17:25:00 21.6 C 7.4 g/m*3 21.6 C 6.4 km/h
2886 20-04-2014 17:30:00 21.7 C 7.82 g/m*3 21.7 C 8.1 km/h
2887 20-04-2014 17:35:00 21.8 C 8.25 g/m*3 21.8 C 6.4 km/h
2888 20-04-2014 17:40:00 22.1 C 7.61 g/m*3 22.1 C 4.8 km/h
2889 20-04-2014 17:45:00 22.3 C 7.5 g/m*3 22.3 C 11.3 km/h
2890 20-04-2014 17:50:00 22.1 C 7.61 g/m*3 22.1 C 8.1 km/h
2891 20-04-2014 17:55:00 21.7 C 7.44 g/m*3 21.7 C 16.1 km/h
2892 20-04-2014 18:00:00 21.2 C 7.6 g/m*3 21.2 C 8.1 km/h
2893 20-04-2014 18:05:00 20.7 C 7.2 g/m*3 20.7 C 12.9 km/h
2894 20-04-2014 18:10:00 20.3 C 7.39 g/m*3 20.3 C 6.4 km/h
2895 20-04-2014 18:15:00 20 C 7.6 g/m*3 20 C 4.8 km/h
2896 20-04-2014 18:20:00 19.7 C 8.32 g/m*3 19.7 C 1.6 km/h
2897 20-04-2014 18:25:00 19.4 C 8.18 g/m*3 19.4 C 0 km/h
2898 20-04-2014 18:30:00 19.1 C 8.69 g/m*3 19.1 C 0 km/h
2899 20-04-2014 18:35:00 18.8 C 8.21 g/m*3 18.8 C 0 km/h
2900 20-04-2014 18:40:00 18.7 C 8.33 g/m*3 18.7 C 3.2 km/h
Sensor: Nr:Datum:Temp:Abs-Feuchte:Windchill:Wind:
Aussen-T/F 2901 20-04-2014 18:45:00 18.5 C 8.7 g/m*3 18.5 C 0 km/h
2902 20-04-2014 18:50:00 18.3 C 8.91 g/m*3 18.3 C 0 km/h
2903 20-04-2014 18:55:00 18.1 C 8.65 g/m*3 18.1 C 0 km/h
2904 20-04-2014 19:00:00 17.8 C 8.8 g/m*3 17.8 C 0 km/h
2905 20-04-2014 19:05:00 17.6 C 8.7 g/m*3 17.6 C 0 km/h
2906 20-04-2014 19:10:00 17.2 C 8.64 g/m*3 17.2 C 0 km/h
2907 20-04-2014 19:15:00 16.9 C 8.34 g/m*3 16.9 C 3.2 km/h
2908 20-04-2014 19:20:00 16.6 C 8.62 g/m*3 16.6 C 3.2 km/h
2909 20-04-2014 19:25:00 16.2 C 8.41 g/m*3 16.2 C 3.2 km/h
2910 20-04-2014 19:30:00 16 C 8.45 g/m*3 16 C 3.2 km/h
2911 20-04-2014 19:35:00 15.8 C 8.48 g/m*3 15.8 C 3.2 km/h
2912 20-04-2014 19:40:00 15.6 C 8.51 g/m*3 15.6 C 3.2 km/h
2913 20-04-2014 19:45:00 15.4 C 8.41 g/m*3 15.4 C 4.8 km/h
2914 20-04-2014 19:50:00 15.3 C 8.36 g/m*3 15.3 C 3.2 km/h
2915 20-04-2014 19:55:00 15.2 C 8.31 g/m*3 15.2 C 3.2 km/h
2916 20-04-2014 20:00:00 15.1 C 8.39 g/m*3 15.1 C 4.8 km/h
2917 20-04-2014 20:05:00 14.9 C 8.03 g/m*3 14.9 C 4.8 km/h
2918 20-04-2014 20:10:00 14.8 C 8.11 g/m*3 14.8 C 4.8 km/h
2919 20-04-2014 20:15:00 14.7 C 8.18 g/m*3 14.7 C 3.2 km/h
2920 20-04-2014 20:20:00 14.6 C 8.13 g/m*3 14.6 C 3.2 km/h
2921 20-04-2014 20:25:00 14.5 C 8.08 g/m*3 14.5 C 3.2 km/h
2922 20-04-2014 20:30:00 14.3 C 7.86 g/m*3 14.3 C 4.8 km/h
2923 20-04-2014 20:35:00 14.2 C 7.82 g/m*3 14.2 C 4.8 km/h
2924 20-04-2014 20:40:00 14.1 C 7.77 g/m*3 14.1 C 4.8 km/h
2925 20-04-2014 20:45:00 14 C 7.84 g/m*3 14 C 4.8 km/h
Sensor: Nr:Datum:Temp:Abs-Feuchte:Windchill:Wind:
Aussen-T/F 2926 20-04-2014 20:50:00 13.8 C 7.74 g/m*3 13.8 C 4.8 km/h
2927 20-04-2014 20:55:00 13.7 C 7.7 g/m*3 13.7 C 4.8 km/h
2928 20-04-2014 21:00:00 13.7 C 7.82 g/m*3 13.7 C 4.8 km/h
2929 20-04-2014 21:05:00 13.6 C 7.77 g/m*3 13.6 C 4.8 km/h
2930 20-04-2014 21:10:00 13.5 C 7.95 g/m*3 13.5 C 4.8 km/h
2931 20-04-2014 21:15:00 13.4 C 7.79 g/m*3 13.4 C 4.8 km/h
2932 20-04-2014 21:20:00 13.3 C 7.74 g/m*3 13.3 C 3.2 km/h
2933 20-04-2014 21:25:00 13.3 C 7.74 g/m*3 13.3 C 4.8 km/h
2934 20-04-2014 21:30:00 13.3 C 7.86 g/m*3 13.3 C 3.2 km/h
2935 20-04-2014 21:35:00 13.3 C 7.74 g/m*3 13.3 C 3.2 km/h
2936 20-04-2014 21:40:00 13.3 C 7.86 g/m*3 13.3 C 3.2 km/h
2937 20-04-2014 21:45:00 13.4 C 7.9 g/m*3 13.4 C 1.6 km/h
2938 20-04-2014 21:50:00 13.4 C 7.79 g/m*3 13.4 C 3.2 km/h
2939 20-04-2014 21:55:00 13.4 C 7.9 g/m*3 13.4 C 1.6 km/h
2940 20-04-2014 22:00:00 13.3 C 7.86 g/m*3 13.3 C 1.6 km/h
2941 20-04-2014 22:05:00 13.2 C 7.92 g/m*3 13.2 C 1.6 km/h
2942 20-04-2014 22:10:00 13.1 C 7.99 g/m*3 13.1 C 3.2 km/h
2943 20-04-2014 22:15:00 13.1 C 7.87 g/m*3 13.1 C 3.2 km/h
2944 20-04-2014 22:20:00 13.1 C 7.87 g/m*3 13.1 C 1.6 km/h
2945 20-04-2014 22:25:00 13.1 C 7.99 g/m*3 13.1 C 3.2 km/h
2946 20-04-2014 22:30:00 12.9 C 7.89 g/m*3 12.9 C 1.6 km/h
2947 20-04-2014 22:35:00 12.8 C 7.84 g/m*3 12.8 C 3.2 km/h
2948 20-04-2014 22:40:00 12.8 C 7.84 g/m*3 12.8 C 3.2 km/h
2949 20-04-2014 22:45:00 12.8 C 7.84 g/m*3 12.8 C 4.8 km/h
2950 20-04-2014 22:50:00 12.7 C 7.79 g/m*3 12.7 C 1.6 km/h
Sensor: Nr:Datum:Temp:Abs-Feuchte:Windchill:Wind:
Aussen-T/F 2951 20-04-2014 22:55:00 12.7 C 7.9 g/m*3 12.7 C 1.6 km/h
2952 20-04-2014 23:00:00 12.6 C 7.85 g/m*3 12.6 C 3.2 km/h
2953 20-04-2014 23:05:00 12.4 C 7.87 g/m*3 12.4 C 3.2 km/h
2954 20-04-2014 23:10:00 12.3 C 7.82 g/m*3 12.3 C 3.2 km/h
2955 20-04-2014 23:15:00 12.2 C 7.88 g/m*3 12.2 C 1.6 km/h
2956 20-04-2014 23:20:00 12.2 C 7.88 g/m*3 12.2 C 1.6 km/h
2957 20-04-2014 23:25:00 12.1 C 7.94 g/m*3 12.1 C 1.6 km/h
2958 20-04-2014 23:30:00 11.9 C 7.84 g/m*3 11.9 C 3.2 km/h
2959 20-04-2014 23:35:00 11.8 C 7.79 g/m*3 11.8 C 3.2 km/h
2960 20-04-2014 23:40:00 11.8 C 7.89 g/m*3 11.8 C 3.2 km/h
2961 20-04-2014 23:45:00 11.7 C 7.74 g/m*3 11.7 C 1.6 km/h
2962 20-04-2014 23:50:00 11.6 C 7.8 g/m*3 11.6 C 3.2 km/h
2963 20-04-2014 23:55:00 11.5 C 7.75 g/m*3 11.5 C 1.6 km/h
2964 21-04-2014 00:00:00 11.4 C 7.6 g/m*3 11.4 C 1.6 km/h
2965 21-04-2014 00:05:00 11.3 C 7.75 g/m*3 11.3 C 3.2 km/h
2966 21-04-2014 00:10:00 11.3 C 7.75 g/m*3 11.3 C 3.2 km/h
2967 21-04-2014 00:15:00 11.2 C 7.7 g/m*3 11.2 C 1.6 km/h
2968 21-04-2014 00:20:00 11.1 C 7.66 g/m*3 11.1 C 1.6 km/h
2969 21-04-2014 00:25:00 11.1 C 7.66 g/m*3 11.1 C 0 km/h
2970 21-04-2014 00:30:00 10.9 C 7.66 g/m*3 10.9 C 3.2 km/h
2971 21-04-2014 00:35:00 10.8 C 7.61 g/m*3 10.8 C 1.6 km/h
2972 21-04-2014 00:40:00 10.8 C 7.61 g/m*3 10.8 C 0 km/h
2973 21-04-2014 00:45:00 10.7 C 7.56 g/m*3 10.7 C 0 km/h
2974 21-04-2014 00:50:00 10.7 C 7.56 g/m*3 10.7 C 1.6 km/h
2975 21-04-2014 00:55:00 10.6 C 7.61 g/m*3 10.6 C 1.6 km/h
Sensor: Nr:Datum:Temp:Abs-Feuchte:Windchill:Wind:
Aussen-T/F 2976 21-04-2014 01:00:00 10.6 C 7.61 g/m*3 10.6 C 1.6 km/h
2977 21-04-2014 01:05:00 10.5 C 7.66 g/m*3 10.5 C 0 km/h
2978 21-04-2014 01:10:00 10.4 C 7.61 g/m*3 10.4 C 0 km/h
2979 21-04-2014 01:15:00 10.2 C 7.52 g/m*3 10.2 C 0 km/h
2980 21-04-2014 01:20:00 10.1 C 7.47 g/m*3 10.1 C 0 km/h
2981 21-04-2014 01:25:00 10 C 7.52 g/m*3 10 C 0 km/h
2982 21-04-2014 01:30:00 9.9 C 7.47 g/m*3 9.9 C 0 km/h
2983 21-04-2014 01:35:00 9.9 C 7.56 g/m*3 9.9 C 0 km/h
2984 21-04-2014 01:40:00 9.8 C 7.52 g/m*3 9.8 C 3.2 km/h
2985 21-04-2014 01:45:00 9.9 C 7.47 g/m*3 9.9 C 3.2 km/h
2986 21-04-2014 01:50:00 9.9 C 7.56 g/m*3 9.9 C 3.2 km/h
2987 21-04-2014 01:55:00 9.9 C 7.56 g/m*3 9.9 C 3.2 km/h
2988 21-04-2014 02:00:00 9.9 C 7.56 g/m*3 9.9 C 3.2 km/h
2989 21-04-2014 02:05:00 9.9 C 7.56 g/m*3 9.9 C 3.2 km/h
2990 21-04-2014 02:10:00 9.8 C 7.42 g/m*3 9.8 C 3.2 km/h
2991 21-04-2014 02:15:00 9.8 C 7.42 g/m*3 9.8 C 3.2 km/h
2992 21-04-2014 02:20:00 9.9 C 7.47 g/m*3 9.9 C 4.8 km/h
2993 21-04-2014 02:25:00 9.9 C 7.38 g/m*3 9.9 C 3.2 km/h
2994 21-04-2014 02:30:00 9.9 C 7.38 g/m*3 9.9 C 1.6 km/h
2995 21-04-2014 02:35:00 9.8 C 7.42 g/m*3 9.8 C 3.2 km/h
2996 21-04-2014 02:40:00 9.7 C 7.38 g/m*3 9.7 C 0 km/h
2997 21-04-2014 02:45:00 9.6 C 7.42 g/m*3 9.6 C 0 km/h
2998 21-04-2014 02:50:00 9.4 C 7.42 g/m*3 9.4 C 0 km/h
2999 21-04-2014 02:55:00 9.2 C 7.32 g/m*3 9.2 C 0 km/h
3000 21-04-2014 03:00:00 9.1 C 7.36 g/m*3 9.1 C 0 km/h
Sensor: Nr:Datum:Temp:Abs-Feuchte:Windchill:Wind:
Aussen-T/F 3001 21-04-2014 03:05:00 8.9 C 7.27 g/m*3 8.9 C 0 km/h
3002 21-04-2014 03:10:00 8.9 C 7.36 g/m*3 8.9 C 1.6 km/h
3003 21-04-2014 03:15:00 8.8 C 7.31 g/m*3 8.8 C 0 km/h
3004 21-04-2014 03:20:00 8.8 C 7.31 g/m*3 8.8 C 0 km/h
3005 21-04-2014 03:25:00 8.8 C 7.31 g/m*3 8.8 C 1.6 km/h
3006 21-04-2014 03:30:00 8.9 C 7.27 g/m*3 8.9 C 1.6 km/h
3007 21-04-2014 03:35:00 8.9 C 7.27 g/m*3 8.9 C 1.6 km/h
3008 21-04-2014 03:40:00 8.9 C 7.36 g/m*3 8.9 C 1.6 km/h
3009 21-04-2014 03:45:00 8.9 C 7.27 g/m*3 8.9 C 1.6 km/h
3010 21-04-2014 03:50:00 8.9 C 7.36 g/m*3 8.9 C 1.6 km/h
3011 21-04-2014 03:55:00 8.8 C 7.31 g/m*3 8.8 C 1.6 km/h
3012 21-04-2014 04:00:00 8.8 C 7.31 g/m*3 8.8 C 0 km/h
3013 21-04-2014 04:05:00 8.7 C 7.26 g/m*3 8.7 C 1.6 km/h
3014 21-04-2014 04:10:00 8.7 C 7.26 g/m*3 8.7 C 0 km/h
3015 21-04-2014 04:15:00 8.7 C 7.35 g/m*3 8.7 C 1.6 km/h
3016 21-04-2014 04:20:00 8.7 C 7.35 g/m*3 8.7 C 0 km/h
3017 21-04-2014 04:25:00 8.6 C 7.22 g/m*3 8.6 C 0 km/h
3018 21-04-2014 04:30:00 8.4 C 7.21 g/m*3 8.4 C 0 km/h
3019 21-04-2014 04:35:00 8.3 C 7.16 g/m*3 8.3 C 0 km/h
3020 21-04-2014 04:40:00 8.3 C 7.25 g/m*3 8.3 C 0 km/h
3021 21-04-2014 04:45:00 8.2 C 7.2 g/m*3 8.2 C 0 km/h
3022 21-04-2014 04:50:00 8.1 C 7.16 g/m*3 8.1 C 0 km/h
3023 21-04-2014 04:55:00 8.1 C 7.24 g/m*3 8.1 C 0 km/h
3024 21-04-2014 05:00:00 8 C 7.19 g/m*3 8 C 0 km/h
3025 21-04-2014 05:05:00 7.9 C 7.15 g/m*3 7.9 C 0 km/h
Sensor: Nr:Datum:Temp:Abs-Feuchte:Windchill:Wind:
Aussen-T/F 3026 21-04-2014 05:10:00 7.8 C 7.1 g/m*3 7.8 C 0 km/h
3027 21-04-2014 05:15:00 7.7 C 7.05 g/m*3 7.7 C 0 km/h
3028 21-04-2014 05:20:00 7.6 C 7.09 g/m*3 7.6 C 0 km/h
3029 21-04-2014 05:25:00 7.6 C 7.09 g/m*3 7.6 C 0 km/h
3030 21-04-2014 05:30:00 7.5 C 7.04 g/m*3 7.5 C 0 km/h
3031 21-04-2014 05:35:00 7.4 C 7 g/m*3 7.4 C 0 km/h
3032 21-04-2014 05:40:00 7.3 C 7.03 g/m*3 7.3 C 0 km/h
3033 21-04-2014 05:45:00 7.3 C 7.03 g/m*3 7.3 C 0 km/h
3034 21-04-2014 05:50:00 7.2 C 6.99 g/m*3 7.2 C 0 km/h
3035 21-04-2014 05:55:00 7.2 C 7.06 g/m*3 7.2 C 0 km/h
3036 21-04-2014 06:00:00 7.1 C 7.02 g/m*3 7.1 C 0 km/h
3037 21-04-2014 06:05:00 7 C 6.97 g/m*3 7 C 0 km/h
3038 21-04-2014 06:10:00 6.9 C 6.93 g/m*3 6.9 C 0 km/h
3039 21-04-2014 06:15:00 6.8 C 6.96 g/m*3 6.8 C 0 km/h
3040 21-04-2014 06:20:00 6.8 C 6.96 g/m*3 6.8 C 0 km/h
3041 21-04-2014 06:25:00 6.7 C 6.91 g/m*3 6.7 C 0 km/h
3042 21-04-2014 06:30:00 6.7 C 6.91 g/m*3 6.7 C 1.6 km/h
3043 21-04-2014 06:35:00 6.7 C 6.99 g/m*3 6.7 C 1.6 km/h
3044 21-04-2014 06:40:00 6.7 C 6.99 g/m*3 6.7 C 0 km/h
3045 21-04-2014 06:45:00 6.6 C 6.95 g/m*3 6.6 C 0 km/h
3046 21-04-2014 06:50:00 6.6 C 6.95 g/m*3 6.6 C 0 km/h
3047 21-04-2014 06:55:00 6.6 C 6.95 g/m*3 6.6 C 0 km/h
3048 21-04-2014 07:00:00 6.5 C 6.9 g/m*3 6.5 C 0 km/h
3049 21-04-2014 07:05:00 6.4 C 6.85 g/m*3 6.4 C 0 km/h
3050 21-04-2014 07:10:00 6.4 C 6.93 g/m*3 6.4 C 0 km/h
Sensor: Nr:Datum:Temp:Abs-Feuchte:Windchill:Wind:
Aussen-T/F 3051 21-04-2014 07:15:00 6.4 C 6.93 g/m*3 6.4 C 0 km/h
3052 21-04-2014 07:20:00 6.5 C 6.97 g/m*3 6.5 C 0 km/h
3053 21-04-2014 07:25:00 6.5 C 6.97 g/m*3 6.5 C 0 km/h
3054 21-04-2014 07:30:00 6.5 C 6.97 g/m*3 6.5 C 0 km/h
3055 21-04-2014 07:35:00 6.4 C 6.93 g/m*3 6.4 C 0 km/h
3056 21-04-2014 07:40:00 6.4 C 6.93 g/m*3 6.4 C 0 km/h
3057 21-04-2014 07:45:00 6.4 C 6.93 g/m*3 6.4 C 0 km/h
3058 21-04-2014 07:50:00 6.5 C 6.97 g/m*3 6.5 C 0 km/h
3059 21-04-2014 07:55:00 6.5 C 6.97 g/m*3 6.5 C 0 km/h
3060 21-04-2014 08:00:00 6.6 C 7.1 g/m*3 6.6 C 0 km/h
3061 21-04-2014 08:05:00 6.7 C 7.14 g/m*3 6.7 C 0 km/h
3062 21-04-2014 08:10:00 6.8 C 7.19 g/m*3 6.8 C 0 km/h
3063 21-04-2014 08:15:00 6.9 C 7.24 g/m*3 6.9 C 0 km/h
3064 21-04-2014 08:20:00 7 C 7.28 g/m*3 7 C 0 km/h
3065 21-04-2014 08:25:00 7.1 C 7.33 g/m*3 7.1 C 0 km/h
3066 21-04-2014 08:30:00 7.2 C 7.38 g/m*3 7.2 C 0 km/h
3067 21-04-2014 08:35:00 7.2 C 7.38 g/m*3 7.2 C 0 km/h
3068 21-04-2014 08:40:00 7.3 C 7.43 g/m*3 7.3 C 0 km/h
3069 21-04-2014 08:45:00 7.4 C 7.48 g/m*3 7.4 C 0 km/h
3070 21-04-2014 08:50:00 7.6 C 7.57 g/m*3 7.6 C 0 km/h
3071 21-04-2014 08:55:00 7.7 C 7.62 g/m*3 7.7 C 0 km/h
3072 21-04-2014 09:00:00 7.8 C 7.67 g/m*3 7.8 C 0 km/h
3073 21-04-2014 09:05:00 8 C 7.77 g/m*3 8 C 0 km/h
3074 21-04-2014 09:10:00 8.3 C 7.92 g/m*3 8.3 C 0 km/h
3075 21-04-2014 09:15:00 8.4 C 7.97 g/m*3 8.4 C 0 km/h
Sensor: Nr:Datum:Temp:Abs-Feuchte:Windchill:Wind:
Aussen-T/F 3076 21-04-2014 09:20:00 8.7 C 8.04 g/m*3 8.7 C 0 km/h
3077 21-04-2014 09:25:00 8.9 C 8.15 g/m*3 8.9 C 0 km/h
3078 21-04-2014 09:30:00 9.2 C 8.22 g/m*3 9.2 C 0 km/h
3079 21-04-2014 09:35:00 9.3 C 8.18 g/m*3 9.3 C 0 km/h
3080 21-04-2014 09:40:00 9.6 C 8.24 g/m*3 9.6 C 0 km/h
3081 21-04-2014 09:45:00 9.8 C 8.35 g/m*3 9.8 C 0 km/h
3082 21-04-2014 09:50:00 10.1 C 8.42 g/m*3 10.1 C 0 km/h
3083 21-04-2014 09:55:00 10.2 C 8.47 g/m*3 10.2 C 0 km/h
3084 21-04-2014 10:00:00 10.3 C 8.52 g/m*3 10.3 C 0 km/h
3085 21-04-2014 10:05:00 10.5 C 8.63 g/m*3 10.5 C 0 km/h
3086 21-04-2014 10:10:00 10.7 C 8.64 g/m*3 10.7 C 3.2 km/h
3087 21-04-2014 10:15:00 10.8 C 8.7 g/m*3 10.8 C 1.6 km/h
3088 21-04-2014 10:20:00 11 C 8.81 g/m*3 11 C 0 km/h
3089 21-04-2014 10:25:00 11.2 C 8.72 g/m*3 11.2 C 1.6 km/h
3090 21-04-2014 10:30:00 11.7 C 8.89 g/m*3 11.7 C 4.8 km/h
3091 21-04-2014 10:35:00 12.3 C 8.9 g/m*3 12.3 C 4.8 km/h
3092 21-04-2014 10:40:00 12.7 C 9.02 g/m*3 12.7 C 4.8 km/h
3093 21-04-2014 10:45:00 12.8 C 9.07 g/m*3 12.8 C 3.2 km/h
3094 21-04-2014 10:50:00 13.2 C 8.96 g/m*3 13.2 C 4.8 km/h
3095 21-04-2014 10:55:00 13.4 C 8.95 g/m*3 13.4 C 3.2 km/h
3096 21-04-2014 11:00:00 13.8 C 8.82 g/m*3 13.8 C 4.8 km/h
3097 21-04-2014 11:05:00 14.2 C 8.79 g/m*3 14.2 C 4.8 km/h
3098 21-04-2014 11:10:00 14.5 C 9.08 g/m*3 14.5 C 6.4 km/h
3099 21-04-2014 11:15:00 14.8 C 8.87 g/m*3 14.8 C 1.6 km/h
3100 21-04-2014 11:20:00 15 C 8.59 g/m*3 15 C 3.2 km/h
Sensor: Nr:Datum:Temp:Abs-Feuchte:Windchill:Wind:
Aussen-T/F 3101 21-04-2014 11:25:00 15.3 C 9.01 g/m*3 15.3 C 4.8 km/h
3102 21-04-2014 11:30:00 15.5 C 8.46 g/m*3 15.5 C 6.4 km/h
3103 21-04-2014 11:35:00 15.8 C 8.35 g/m*3 15.8 C 3.2 km/h
3104 21-04-2014 11:40:00 15.9 C 8.4 g/m*3 15.9 C 4.8 km/h
3105 21-04-2014 11:45:00 16.2 C 8.83 g/m*3 16.2 C 6.4 km/h
3106 21-04-2014 11:50:00 16.5 C 8.71 g/m*3 16.5 C 6.4 km/h
3107 21-04-2014 11:55:00 16.7 C 8.67 g/m*3 16.7 C 8.1 km/h
3108 21-04-2014 12:00:00 16.8 C 8.29 g/m*3 16.8 C 6.4 km/h
3109 21-04-2014 12:05:00 16.8 C 8.44 g/m*3 16.8 C 6.4 km/h
3110 21-04-2014 12:10:00 16.8 C 8.29 g/m*3 16.8 C 4.8 km/h
3111 21-04-2014 12:15:00 16.9 C 8.49 g/m*3 16.9 C 9.7 km/h
3112 21-04-2014 12:20:00 17.2 C 8.49 g/m*3 17.2 C 9.7 km/h
3113 21-04-2014 12:25:00 17.6 C 8.55 g/m*3 17.6 C 11.3 km/h
3114 21-04-2014 12:30:00 17.9 C 8.4 g/m*3 17.9 C 12.9 km/h
3115 21-04-2014 12:35:00 18.3 C 8.44 g/m*3 18.3 C 9.7 km/h
3116 21-04-2014 12:40:00 18.6 C 8.44 g/m*3 18.6 C 3.2 km/h
3117 21-04-2014 12:45:00 18.9 C 8.75 g/m*3 18.9 C 6.4 km/h
3118 21-04-2014 12:50:00 19.3 C 8.29 g/m*3 19.3 C 12.9 km/h
3119 21-04-2014 12:55:00 19.3 C 8.46 g/m*3 19.3 C 8.1 km/h
3120 21-04-2014 13:00:00 19.7 C 8.66 g/m*3 19.7 C 3.2 km/h
3121 21-04-2014 13:05:00 20.2 C 9.27 g/m*3 20.2 C 9.7 km/h
3122 21-04-2014 13:10:00 20.5 C 8.72 g/m*3 20.5 C 12.9 km/h
3123 21-04-2014 13:15:00 20.6 C 8.95 g/m*3 20.6 C 8.1 km/h
3124 21-04-2014 13:20:00 20.6 C 8.95 g/m*3 20.6 C 11.3 km/h
3125 21-04-2014 13:25:00 20.6 C 8.95 g/m*3 20.6 C 6.4 km/h
Sensor: Nr:Datum:Temp:Abs-Feuchte:Windchill:Wind:
Aussen-T/F 3126 21-04-2014 13:30:00 20.2 C 7.87 g/m*3 20.2 C 4.8 km/h
3127 21-04-2014 13:35:00 20.2 C 7.87 g/m*3 20.2 C 4.8 km/h
3128 21-04-2014 13:40:00 18.9 C 7.94 g/m*3 18.9 C 6.4 km/h
3129 21-04-2014 13:45:00 18.7 C 8.01 g/m*3 18.7 C 6.4 km/h
3130 21-04-2014 13:50:00 18.7 C 8.17 g/m*3 18.7 C 6.4 km/h
3131 21-04-2014 13:55:00 18.7 C 8.17 g/m*3 18.7 C 3.2 km/h
3132 21-04-2014 14:00:00 18.8 C 8.37 g/m*3 18.8 C 6.4 km/h
3133 21-04-2014 14:05:00 18.8 C 9.34 g/m*3 18.8 C 4.8 km/h
3134 21-04-2014 14:10:00 18.6 C 8.75 g/m*3 18.6 C 4.8 km/h
3135 21-04-2014 14:15:00 18.4 C 8.49 g/m*3 18.4 C 6.4 km/h
3136 21-04-2014 14:20:00 18.3 C 8.44 g/m*3 18.3 C 4.8 km/h
3137 21-04-2014 14:25:00 18.6 C 8.59 g/m*3 18.6 C 8.1 km/h
3138 21-04-2014 14:30:00 19 C 9.29 g/m*3 19 C 14.5 km/h
3139 21-04-2014 14:35:00 19.3 C 9.45 g/m*3 19.3 C 11.3 km/h
3140 21-04-2014 14:40:00 19.5 C 9.9 g/m*3 19.5 C 11.3 km/h
3141 21-04-2014 14:45:00 19.7 C 9.85 g/m*3 19.7 C 11.3 km/h
3142 21-04-2014 14:50:00 19.4 C 11.18 g/m*3 19.4 C 9.7 km/h
3143 21-04-2014 14:55:00 18.9 C 10.53 g/m*3 18.9 C 4.8 km/h
3144 21-04-2014 15:00:00 18.3 C 10.48 g/m*3 18.3 C 8.1 km/h
3145 21-04-2014 15:05:00 17.9 C 10.38 g/m*3 17.9 C 4.8 km/h
3146 21-04-2014 15:10:00 17.8 C 10.78 g/m*3 17.8 C 3.2 km/h
3147 21-04-2014 15:15:00 18.1 C 11.28 g/m*3 18.1 C 4.8 km/h
3148 21-04-2014 15:20:00 18.3 C 10.63 g/m*3 18.3 C 4.8 km/h
3149 21-04-2014 15:25:00 18.4 C 11.17 g/m*3 18.4 C 1.6 km/h
3150 21-04-2014 15:30:00 18.4 C 10.7 g/m*3 18.4 C 3.2 km/h
Sensor: Nr:Datum:Temp:Abs-Feuchte:Windchill:Wind:
Aussen-T/F 3151 21-04-2014 15:35:00 18.3 C 10.63 g/m*3 18.3 C 8.1 km/h
3152 21-04-2014 15:40:00 18.2 C 10.1 g/m*3 18.2 C 6.4 km/h
3153 21-04-2014 15:45:00 18.1 C 9.89 g/m*3 18.1 C 6.4 km/h
3154 21-04-2014 15:50:00 18.1 C 9.73 g/m*3 18.1 C 6.4 km/h
3155 21-04-2014 15:55:00 18 C 9.83 g/m*3 18 C 6.4 km/h
3156 21-04-2014 16:00:00 18 C 9.52 g/m*3 18 C 6.4 km/h
3157 21-04-2014 16:05:00 18 C 9.22 g/m*3 18 C 4.8 km/h
3158 21-04-2014 16:10:00 18.1 C 8.96 g/m*3 18.1 C 4.8 km/h
3159 21-04-2014 16:15:00 18.7 C 9.77 g/m*3 18.7 C 6.4 km/h
3160 21-04-2014 16:20:00 19 C 8.96 g/m*3 19 C 8.1 km/h
3161 21-04-2014 16:25:00 19.3 C 9.95 g/m*3 19.3 C 6.4 km/h
3162 21-04-2014 16:30:00 19.8 C 9.57 g/m*3 19.8 C 11.3 km/h
3163 21-04-2014 16:35:00 20.2 C 8.92 g/m*3 20.2 C 11.3 km/h
3164 21-04-2014 16:40:00 20.6 C 9.49 g/m*3 20.6 C 8.1 km/h
3165 21-04-2014 16:45:00 20.9 C 9.11 g/m*3 20.9 C 9.7 km/h
3166 21-04-2014 16:50:00 21.2 C 9.45 g/m*3 21.2 C 11.3 km/h
3167 21-04-2014 16:55:00 21.1 C 8.48 g/m*3 21.1 C 11.3 km/h
3168 21-04-2014 17:00:00 21.4 C 8.44 g/m*3 21.4 C 11.3 km/h
3169 21-04-2014 17:05:00 21.4 C 8.81 g/m*3 21.4 C 9.7 km/h
3170 21-04-2014 17:10:00 21.3 C 8.57 g/m*3 21.3 C 8.1 km/h
3171 21-04-2014 17:15:00 21.2 C 8.52 g/m*3 21.2 C 8.1 km/h
3172 21-04-2014 17:20:00 21.3 C 8.39 g/m*3 21.3 C 14.5 km/h
3173 21-04-2014 17:25:00 21.4 C 8.06 g/m*3 21.4 C 12.9 km/h
3174 21-04-2014 17:30:00 21.4 C 8.44 g/m*3 21.4 C 6.4 km/h
3175 21-04-2014 17:35:00 21.2 C 8.52 g/m*3 21.2 C 12.9 km/h
Sensor: Nr:Datum:Temp:Abs-Feuchte:Windchill:Wind:
Aussen-T/F 3176 21-04-2014 17:40:00 20.4 C 9.2 g/m*3 20.4 C 14.5 km/h
3177 21-04-2014 17:45:00 19.7 C 9 g/m*3 19.7 C 17.7 km/h
3178 21-04-2014 17:50:00 19 C 8.96 g/m*3 19 C 11.3 km/h
3179 21-04-2014 17:55:00 18.6 C 9.07 g/m*3 18.6 C 8.1 km/h
3180 21-04-2014 18:00:00 18.3 C 9.22 g/m*3 18.3 C 9.7 km/h
3181 21-04-2014 18:05:00 18 C 9.22 g/m*3 18 C 11.3 km/h
3182 21-04-2014 18:10:00 17.8 C 9.26 g/m*3 17.8 C 4.8 km/h
3183 21-04-2014 18:15:00 17.6 C 9.3 g/m*3 17.6 C 6.4 km/h
3184 21-04-2014 18:20:00 17.4 C 9.19 g/m*3 17.4 C 12.9 km/h
3185 21-04-2014 18:25:00 17.3 C 9.28 g/m*3 17.3 C 17.7 km/h
3186 21-04-2014 18:30:00 17.1 C 9.17 g/m*3 17.1 C 12.9 km/h
3187 21-04-2014 18:35:00 16.9 C 9.21 g/m*3 16.9 C 11.3 km/h
3188 21-04-2014 18:40:00 16.8 C 9.15 g/m*3 16.8 C 9.7 km/h
3189 21-04-2014 18:45:00 16.7 C 9.1 g/m*3 16.7 C 8.1 km/h
3190 21-04-2014 18:50:00 16.5 C 8.99 g/m*3 16.5 C 4.8 km/h
3191 21-04-2014 18:55:00 16.4 C 9.07 g/m*3 16.4 C 6.4 km/h
3192 21-04-2014 19:00:00 16.4 C 9.21 g/m*3 16.4 C 8.1 km/h
3193 21-04-2014 19:05:00 16.3 C 9.3 g/m*3 16.3 C 9.7 km/h
3194 21-04-2014 19:10:00 15.5 C 9.25 g/m*3 15.5 C 19.3 km/h
3195 21-04-2014 19:15:00 14.8 C 9.75 g/m*3 14.8 C 19.3 km/h
3196 21-04-2014 19:20:00 14.1 C 9.83 g/m*3 14.1 C 3.2 km/h
3197 21-04-2014 19:25:00 13.4 C 9.88 g/m*3 13.4 C 4.8 km/h
3198 21-04-2014 19:30:00 12.9 C 9.81 g/m*3 12.9 C 4.8 km/h
3199 21-04-2014 19:35:00 12.6 C 9.85 g/m*3 12.6 C 8.1 km/h
3200 21-04-2014 19:40:00 12.4 C 9.83 g/m*3 12.4 C 6.4 km/h
Sensor: Nr:Datum:Temp:Abs-Feuchte:Windchill:Wind:
Aussen-T/F 3201 21-04-2014 19:45:00 12.1 C 9.54 g/m*3 12.1 C 4.8 km/h
3202 21-04-2014 19:50:00 11.9 C 9.43 g/m*3 11.9 C 4.8 km/h
3203 21-04-2014 19:55:00 11.8 C 9.58 g/m*3 11.8 C 6.4 km/h
3204 21-04-2014 20:00:00 11.7 C 9.62 g/m*3 11.7 C 3.2 km/h
3205 21-04-2014 20:05:00 11.6 C 9.56 g/m*3 11.6 C 3.2 km/h
3206 21-04-2014 20:10:00 11.4 C 9.44 g/m*3 11.4 C 3.2 km/h
3207 21-04-2014 20:15:00 11.2 C 9.33 g/m*3 11.2 C 3.2 km/h
3208 21-04-2014 20:20:00 11.1 C 9.37 g/m*3 11.1 C 3.2 km/h
3209 21-04-2014 20:25:00 11.1 C 9.37 g/m*3 11.1 C 3.2 km/h
3210 21-04-2014 20:30:00 11.1 C 9.37 g/m*3 11.1 C 1.6 km/h
3211 21-04-2014 20:35:00 11 C 9.41 g/m*3 11 C 1.6 km/h
3212 21-04-2014 20:40:00 11 C 9.41 g/m*3 11 C 1.6 km/h
3213 21-04-2014 20:45:00 10.9 C 9.35 g/m*3 10.9 C 1.6 km/h
3214 21-04-2014 20:50:00 10.9 C 9.35 g/m*3 10.9 C 1.6 km/h
3215 21-04-2014 20:55:00 11 C 9.51 g/m*3 11 C 1.6 km/h
3216 21-04-2014 21:00:00 11 C 9.41 g/m*3 11 C 0 km/h
3217 21-04-2014 21:05:00 11 C 9.51 g/m*3 11 C 0 km/h
3218 21-04-2014 21:10:00 11 C 9.51 g/m*3 11 C 0 km/h
3219 21-04-2014 21:15:00 11 C 9.51 g/m*3